Hoppmann, Mario; Tippenhauer, Sandra; Rohde, Sven (2026): Continuous thermosalinograph oceanography along RV HEINCKE cruise track HE659 [dataset]. Alfred Wegener Institute, Helmholtz Centre for Polar and Marine Research, Bremerhaven, PANGAEA, https://doi.pangaea.de/10.1594/PANGAEA.993555 (DOI registration in progress)
Always quote citation above when using data! You can download the citation in several formats below.
Published: 2026-05-05
Abstract:
Raw data acquired by a thermosalinograph (SBE21, Sea-Bird GmbH) in combination with an external temperature sensor (SBE38, Sea-Bird GmbH) aboard RV Heincke were processed to generate a calibrated, quality-controlled dataset of seawater temperature and salinity. The raw sensor data were initially retrieved from the DSHIP database (https://dship.awi.de) at a temporal resolution of 1 second and converted into temperature and conductivity using the pre-deployment calibration coefficients. The thermosalinograph system aboard RV Heincke is typically replaced after each expedition season, with a recalibration conducted at the manufacturer's facilities after each exchange. After post-cruise recalibration of the instruments, additional correction factors were calculated and applied to account for sensor drift. Salinity was calculated from internally measured temperatures and conductivities following the Practical Salinity Scale (PSS-78). The processed dataset is provided as 1-minute averages of salinity and seawater external temperature, synchronized with the positional data from the expedition's master track. Quality flags were assigned in accordance with the SeaDataNet Data Quality Control Procedures (May 2010).
Related to:
Hoppmann, Mario; Tippenhauer, Sandra (2026): Continuous thermosalinograph oceanography along RV HEINCKE cruise track HE659 - Data Processing Report. FIELAX - Gesellschaft für wissenschaftliche Datenverarbeitung mbH, HE659_TSG_nav.pdf
Rohde, Sven (2025): Master tracks in different resolutions of HEINCKE cruise HE659, Bremerhaven - Bremerhaven, 2025-04-14 - 2025-04-29 [dataset]. Alfred Wegener Institute, Helmholtz Centre for Polar and Marine Research, Bremerhaven, PANGAEA, https://doi.org/10.1594/PANGAEA.982622
Rohde, Sven; Neumann, Andreas; Minutolo, Fabrizio; Hoffmann, Jasper; Sander, Lasse; Breyer, Gavin; Bartholomä, Alexander (2025): MGF North Sea II: Effects of the exclusion of bottom-contact fishing on benthic habitats in the Natura 2000 sites 'Sylt Outer Reef' and 'Borkum Reef Ground', Cruise No. HE659, 14.04. - 29.04.2025, Bremerhaven (Germany) - Bremerhaven (Germany). HEINCKE-Berichte, Begutachtungspanel Forschungsschiffe, HE659, 54 pp, https://doi.org/10.48433/cr_he659
Project(s):
DAM Underway Research Data (DAM_Underway)
Physical Oceanography @ AWI (AWI_PhyOce)
Coverage:
Median Latitude: 54.248902 * Median Longitude: 6.862711 * South-bound Latitude: 53.722014 * West-bound Longitude: 6.167827 * North-bound Latitude: 55.139644 * East-bound Longitude: 8.121282
Date/Time Start: 2025-04-14T08:58:00 * Date/Time End: 2025-04-29T00:56:00
Minimum DEPTH, water: 2.0 m * Maximum DEPTH, water: 2.0 m
Event(s):
HE659_0_Underway-3 * Latitude Start: 53.797357 * Longitude Start: 8.142469 * Latitude End: 53.853629 * Longitude End: 7.950753 * Date/Time Start: 2025-04-14T08:43:01 * Date/Time End: 2025-04-29T00:54:38 * Elevation Start: -13.0 m * Elevation End: -18.0 m * O2A Registry URI: https://registry.o2a-data.de/items/8558 * Campaign: HE659 (MGFNorthSea-II) * Basis: Heincke * Method/Device: Thermosalinograph (TSG)
Parameter(s):
License:
Creative Commons Attribution 4.0 International (CC-BY-4.0)
Status:
Curation Level: Enhanced curation (CurationLevelC) * Processing Level: PANGAEA data processing level 2 (ProcLevel2)
Size:
126594 data points
Data
| 1 Date/Time | 2 Latitude | 3 Longitude | 4 Depth water [m] | 5 Temp [°C] | 6 QF water temp | 7 Cond [mS/cm] | 8 T intern [°C] | 9 Sal | 10 QF sal |
|---|---|---|---|---|---|---|---|---|---|
| 2025-04-14T08:58:00 | 53.828507 | 8.118229 | 2.0 | 9.341 | 2 | 33.313 | 9.765 | 30.350 | 2 |
| 2025-04-14T08:59:00 | 53.831053 | 8.118756 | 2.0 | 9.383 | 2 | 33.176 | 9.647 | 30.311 | 2 |
| 2025-04-14T09:00:00 | 53.833600 | 8.118660 | 2.0 | 9.400 | 2 | 33.111 | 9.645 | 30.247 | 2 |
| 2025-04-14T09:01:00 | 53.836215 | 8.118756 | 2.0 | 9.323 | 2 | 33.072 | 9.628 | 30.222 | 2 |
| 2025-04-14T09:02:00 | 53.838877 | 8.119052 | 2.0 | 9.171 | 2 | 33.160 | 9.538 | 30.387 | 2 |
| 2025-04-14T09:03:00 | 53.841539 | 8.119336 | 2.0 | 9.005 | 2 | 33.381 | 9.369 | 30.756 | 2 |
| 2025-04-14T09:04:00 | 53.844139 | 8.119531 | 2.0 | 9.023 | 2 | 33.608 | 9.221 | 31.117 | 2 |
| 2025-04-14T09:05:00 | 53.846717 | 8.119627 | 2.0 | 9.072 | 2 | 33.503 | 9.232 | 30.999 | 2 |
| 2025-04-14T09:06:00 | 53.849308 | 8.119987 | 2.0 | 9.304 | 2 | 33.287 | 9.333 | 30.691 | 2 |
| 2025-04-14T09:07:00 | 53.851909 | 8.120142 | 2.0 | 9.301 | 2 | 32.999 | 9.487 | 30.266 | 2 |
| 2025-04-14T09:08:00 | 53.854583 | 8.120506 | 2.0 | 9.228 | 2 | 32.939 | 9.482 | 30.210 | 2 |
| 2025-04-14T09:09:00 | 53.857283 | 8.120803 | 2.0 | 8.867 | 2 | 33.142 | 9.371 | 30.510 | 2 |
| 2025-04-14T09:10:00 | 53.859925 | 8.121282 | 2.0 | 8.664 | 2 | 33.579 | 9.058 | 31.229 | 2 |
| 2025-04-14T09:11:00 | 53.862409 | 8.121185 | 2.0 | 8.618 | 2 | 33.744 | 8.858 | 31.577 | 2 |
| 2025-04-14T09:12:00 | 53.864745 | 8.120217 | 2.0 | 8.613 | 2 | 33.725 | 8.819 | 31.592 | 2 |
| 2025-04-14T09:13:00 | 53.867030 | 8.118968 | 2.0 | 8.596 | 2 | 33.714 | 8.811 | 31.587 | 2 |
| 2025-04-14T09:14:00 | 53.869269 | 8.117584 | 2.0 | 8.575 | 2 | 33.700 | 8.790 | 31.591 | 2 |
| 2025-04-14T09:15:00 | 53.871428 | 8.115904 | 2.0 | 8.574 | 2 | 33.684 | 8.771 | 31.592 | 2 |
| 2025-04-14T09:16:00 | 53.873609 | 8.114193 | 2.0 | 8.569 | 2 | 33.682 | 8.768 | 31.592 | 2 |
| 2025-04-14T09:17:00 | 53.875793 | 8.112383 | 2.0 | 8.558 | 2 | 33.683 | 8.763 | 31.598 | 2 |
| 2025-04-14T09:18:00 | 53.877896 | 8.110273 | 2.0 | 8.554 | 2 | 33.691 | 8.750 | 31.618 | 2 |
| 2025-04-14T09:19:00 | 53.879840 | 8.107898 | 2.0 | 8.560 | 2 | 33.709 | 8.748 | 31.638 | 2 |
| 2025-04-14T09:20:00 | 53.881125 | 8.104582 | 2.0 | 8.517 | 2 | 33.715 | 8.744 | 31.648 | 2 |
| 2025-04-14T09:21:00 | 53.882238 | 8.100967 | 2.0 | 8.484 | 2 | 33.710 | 8.705 | 31.678 | 2 |
| 2025-04-14T09:22:00 | 53.883399 | 8.097304 | 2.0 | 8.446 | 2 | 33.701 | 8.671 | 31.699 | 2 |
| 2025-04-14T09:23:00 | 53.884611 | 8.093682 | 2.0 | 8.389 | 2 | 33.713 | 8.631 | 31.747 | 2 |
| 2025-04-14T09:24:00 | 53.885816 | 8.090056 | 2.0 | 8.341 | 2 | 33.731 | 8.574 | 31.817 | 2 |
| 2025-04-14T09:25:00 | 53.887041 | 8.086489 | 2.0 | 8.300 | 2 | 33.751 | 8.526 | 31.882 | 2 |
| 2025-04-14T09:26:00 | 53.888216 | 8.082874 | 2.0 | 8.279 | 2 | 33.753 | 8.489 | 31.917 | 2 |
| 2025-04-14T09:27:00 | 53.889370 | 8.079222 | 2.0 | 8.234 | 2 | 33.760 | 8.462 | 31.949 | 2 |
| 2025-04-14T09:28:00 | 53.890574 | 8.075595 | 2.0 | 8.191 | 2 | 33.759 | 8.422 | 31.984 | 2 |
| 2025-04-14T09:29:00 | 53.891787 | 8.071927 | 2.0 | 8.146 | 2 | 33.757 | 8.377 | 32.023 | 2 |
| 2025-04-14T09:30:00 | 53.893001 | 8.068208 | 2.0 | 8.114 | 2 | 33.753 | 8.335 | 32.057 | 2 |
| 2025-04-14T09:31:00 | 53.894206 | 8.064539 | 2.0 | 8.108 | 2 | 33.754 | 8.311 | 32.080 | 2 |
| 2025-04-14T09:32:00 | 53.895406 | 8.060866 | 2.0 | 8.091 | 2 | 33.753 | 8.296 | 32.093 | 2 |
| 2025-04-14T09:33:00 | 53.896641 | 8.057230 | 2.0 | 8.080 | 2 | 33.750 | 8.281 | 32.103 | 2 |
| 2025-04-14T09:34:00 | 53.897822 | 8.053537 | 2.0 | 8.074 | 2 | 33.744 | 8.268 | 32.109 | 2 |
| 2025-04-14T09:35:00 | 53.899017 | 8.049853 | 2.0 | 8.081 | 2 | 33.737 | 8.266 | 32.103 | 2 |
| 2025-04-14T09:36:00 | 53.900337 | 8.046293 | 2.0 | 8.069 | 2 | 33.733 | 8.267 | 32.098 | 2 |
| 2025-04-14T09:37:00 | 53.901672 | 8.042685 | 2.0 | 8.068 | 2 | 33.723 | 8.260 | 32.094 | 2 |
| 2025-04-14T09:38:00 | 53.902986 | 8.039031 | 2.0 | 8.060 | 2 | 33.717 | 8.256 | 32.091 | 2 |
| 2025-04-14T09:39:00 | 53.904473 | 8.035569 | 2.0 | 8.047 | 2 | 33.712 | 8.248 | 32.093 | 2 |
| 2025-04-14T09:40:00 | 53.905957 | 8.032068 | 2.0 | 8.034 | 2 | 33.705 | 8.235 | 32.098 | 2 |
| 2025-04-14T09:41:00 | 53.907446 | 8.028547 | 2.0 | 8.023 | 2 | 33.698 | 8.222 | 32.102 | 2 |
| 2025-04-14T09:42:00 | 53.908973 | 8.025052 | 2.0 | 8.031 | 2 | 33.690 | 8.213 | 32.102 | 2 |
| 2025-04-14T09:43:00 | 53.910472 | 8.021508 | 2.0 | 8.015 | 2 | 33.691 | 8.218 | 32.098 | 2 |
| 2025-04-14T09:44:00 | 53.911996 | 8.017950 | 2.0 | 7.997 | 2 | 33.683 | 8.201 | 32.105 | 2 |
| 2025-04-14T09:45:00 | 53.913502 | 8.014358 | 2.0 | 7.973 | 2 | 33.676 | 8.186 | 32.112 | 2 |
| 2025-04-14T09:46:00 | 53.915050 | 8.010768 | 2.0 | 7.920 | 2 | 33.670 | 8.158 | 32.131 | 2 |
| 2025-04-14T09:47:00 | 53.916622 | 8.007216 | 2.0 | 7.756 | 2 | 33.530 | 8.070 | 32.063 | 2 |
| 2025-04-14T09:48:00 | 53.918161 | 8.003637 | 2.0 | 7.703 | 2 | 33.643 | 7.949 | 32.295 | 2 |
| 2025-04-14T09:49:00 | 53.919682 | 8.000024 | 2.0 | 7.654 | 2 | 33.246 | 7.889 | 31.927 | 2 |
| 2025-04-14T09:50:00 | 53.921216 | 7.996450 | 2.0 | 7.605 | 2 | 33.630 | 7.837 | 32.385 | 2 |
| 2025-04-14T09:51:00 | 53.922762 | 7.992887 | 2.0 | 7.578 | 2 | 33.618 | 7.794 | 32.412 | 2 |
| 2025-04-14T09:52:00 | 53.924292 | 7.989321 | 2.0 | 7.555 | 2 | 32.957 | 7.767 | 31.730 | 2 |
| 2025-04-14T09:53:00 | 53.925961 | 7.985957 | 2.0 | 7.532 | 2 | 33.626 | 7.742 | 32.469 | 2 |
| 2025-04-14T09:54:00 | 53.927992 | 7.983232 | 2.0 | 7.519 | 2 | 32.863 | 7.721 | 31.672 | 2 |
| 2025-04-14T09:55:00 | 53.930321 | 7.981086 | 2.0 | 7.512 | 2 | 32.842 | 7.707 | 31.662 | 2 |
| 2025-04-14T09:56:00 | 53.932741 | 7.979132 | 2.0 | 7.504 | 2 | 33.641 | 7.702 | 32.522 | 2 |
| 2025-04-14T09:57:00 | 53.935189 | 7.977189 | 2.0 | 7.499 | 2 | 33.385 | 7.694 | 32.255 | 2 |
| 2025-04-14T09:58:00 | 53.937649 | 7.975263 | 2.0 | 7.484 | 2 | 33.409 | 7.686 | 32.288 | 2 |
| 2025-04-14T09:59:00 | 53.940126 | 7.973354 | 2.0 | 7.480 | 2 | 32.613 | 7.674 | 31.447 | 2 |
| 2025-04-14T10:00:00 | 53.942613 | 7.971469 | 2.0 | 7.481 | 2 | 33.028 | 7.671 | 31.894 | 2 |
| 2025-04-14T10:01:00 | 53.945120 | 7.969608 | 2.0 | 7.495 | 2 | 33.664 | 7.672 | 32.575 | 2 |
| 2025-04-14T10:02:00 | 53.947633 | 7.967807 | 2.0 | 7.495 | 2 | 33.174 | 7.684 | 32.038 | 2 |
| 2025-04-14T10:03:00 | 53.950148 | 7.966043 | 2.0 | 7.479 | 2 | 32.834 | 7.687 | 31.672 | 2 |
| 2025-04-14T10:04:00 | 53.952669 | 7.964284 | 2.0 | 7.491 | 2 | 33.232 | 7.677 | 32.107 | 2 |
| 2025-04-14T10:05:00 | 53.955159 | 7.962462 | 2.0 | 7.506 | 2 | 33.199 | 7.684 | 32.065 | 2 |
| 2025-04-14T10:06:00 | 53.957635 | 7.960584 | 2.0 | 7.528 | 2 | 33.324 | 7.691 | 32.192 | 2 |
| 2025-04-14T10:07:00 | 53.960113 | 7.958715 | 2.0 | 7.539 | 2 | 33.575 | 7.718 | 32.436 | 2 |
| 2025-04-14T10:08:00 | 53.962591 | 7.956843 | 2.0 | 7.576 | 2 | 33.219 | 7.726 | 32.048 | 2 |
| 2025-04-14T10:09:00 | 53.965067 | 7.954989 | 2.0 | 7.642 | 2 | 33.397 | 7.778 | 32.190 | 2 |
| 2025-04-14T10:10:00 | 53.967546 | 7.953155 | 2.0 | 7.620 | 2 | 33.282 | 7.819 | 32.030 | 2 |
| 2025-04-14T10:11:00 | 53.970022 | 7.951313 | 2.0 | 7.614 | 2 | 33.318 | 7.802 | 32.084 | 2 |
| 2025-04-14T10:12:00 | 53.972463 | 7.949383 | 2.0 | 7.610 | 2 | 33.616 | 7.799 | 32.405 | 2 |
| 2025-04-14T10:13:00 | 53.974863 | 7.947331 | 2.0 | 7.610 | 2 | 33.403 | 7.796 | 32.180 | 2 |
| 2025-04-14T10:14:00 | 53.977260 | 7.945279 | 2.0 | 7.605 | 2 | 33.410 | 7.796 | 32.187 | 2 |
| 2025-04-14T10:15:00 | 53.979665 | 7.943221 | 2.0 | 7.593 | 2 | 33.599 | 7.789 | 32.396 | 2 |
| 2025-04-14T10:16:00 | 53.982058 | 7.941136 | 2.0 | 7.570 | 2 | 33.445 | 7.771 | 32.248 | 2 |
| 2025-04-14T10:17:00 | 53.984364 | 7.938891 | 2.0 | 7.545 | 2 | 33.545 | 7.750 | 32.374 | 2 |
| 2025-04-14T10:18:00 | 53.986662 | 7.936637 | 2.0 | 7.507 | 2 | 33.539 | 7.725 | 32.391 | 2 |
| 2025-04-14T10:19:00 | 53.988975 | 7.934368 | 2.0 | 7.471 | 2 | 33.385 | 7.693 | 32.256 | 2 |
| 2025-04-14T10:20:00 | 53.991288 | 7.932080 | 2.0 | 7.471 | 2 | 33.593 | 7.662 | 32.508 | 2 |
| 2025-04-14T10:21:00 | 53.993606 | 7.929793 | 2.0 | 7.434 | 2 | 33.501 | 7.652 | 32.418 | 2 |
| 2025-04-14T10:22:00 | 53.995910 | 7.927508 | 2.0 | 7.396 | 2 | 33.392 | 7.614 | 32.337 | 2 |
| 2025-04-14T10:23:00 | 53.998234 | 7.925197 | 2.0 | 7.410 | 2 | 33.262 | 7.582 | 32.227 | 2 |
| 2025-04-14T10:24:00 | 54.000543 | 7.922890 | 2.0 | 7.359 | 2 | 33.323 | 7.586 | 32.289 | 2 |
| 2025-04-14T10:25:00 | 54.002856 | 7.920548 | 2.0 | 7.273 | 2 | 33.535 | 7.530 | 32.569 | 2 |
| 2025-04-14T10:26:00 | 54.005179 | 7.918169 | 2.0 | 7.272 | 2 | 33.279 | 7.473 | 32.347 | 2 |
| 2025-04-14T10:27:00 | 54.007496 | 7.915768 | 2.0 | 7.235 | 2 | 33.529 | 7.463 | 32.626 | 2 |
| 2025-04-14T10:28:00 | 54.009813 | 7.913377 | 2.0 | 7.243 | 2 | 33.488 | 7.428 | 32.614 | 2 |
| 2025-04-14T10:29:00 | 54.012128 | 7.910965 | 2.0 | 7.191 | 2 | 33.385 | 7.420 | 32.511 | 2 |
| 2025-04-14T10:30:00 | 54.014440 | 7.908539 | 2.0 | 7.201 | 2 | 33.373 | 7.383 | 32.532 | 2 |
| 2025-04-14T10:31:00 | 54.016754 | 7.906111 | 2.0 | 7.219 | 2 | 33.571 | 7.395 | 32.735 | 2 |
| 2025-04-14T10:32:00 | 54.019058 | 7.903666 | 2.0 | 7.227 | 2 | 33.564 | 7.411 | 32.712 | 2 |
| 2025-04-14T10:33:00 | 54.021393 | 7.901300 | 2.0 | 7.219 | 2 | 33.554 | 7.412 | 32.701 | 2 |
| 2025-04-14T10:34:00 | 54.023751 | 7.898976 | 2.0 | 7.269 | 2 | 33.395 | 7.416 | 32.525 | 2 |
| 2025-04-14T10:35:00 | 54.026113 | 7.896630 | 2.0 | 7.287 | 2 | 33.667 | 7.457 | 32.780 | 2 |
| 2025-04-14T10:36:00 | 54.028467 | 7.894259 | 2.0 | 7.498 | 2 | 33.463 | 7.518 | 32.503 | 2 |
| 2025-04-14T10:37:00 | 54.030833 | 7.891949 | 2.0 | 7.536 | 2 | 33.626 | 7.667 | 32.539 | 2 |
| 2025-04-14T10:38:00 | 54.033186 | 7.889590 | 2.0 | 7.539 | 2 | 33.644 | 7.710 | 32.518 | 2 |
| 2025-04-14T10:39:00 | 54.035550 | 7.887213 | 2.0 | 7.533 | 2 | 33.776 | 7.718 | 32.652 | 2 |
| 2025-04-14T10:40:00 | 54.037921 | 7.884805 | 2.0 | 7.523 | 2 | 33.601 | 7.717 | 32.465 | 2 |
| 2025-04-14T10:41:00 | 54.040308 | 7.882375 | 2.0 | 7.431 | 2 | 33.497 | 7.696 | 32.373 | 2 |
| 2025-04-14T10:42:00 | 54.042721 | 7.879998 | 2.0 | 7.381 | 2 | 33.629 | 7.606 | 32.599 | 2 |
| 2025-04-14T10:43:00 | 54.045142 | 7.877660 | 2.0 | 7.326 | 2 | 33.504 | 7.562 | 32.506 | 2 |
| 2025-04-14T10:44:00 | 54.047564 | 7.875327 | 2.0 | 7.299 | 2 | 33.624 | 7.502 | 32.691 | 2 |
| 2025-04-14T10:45:00 | 54.049965 | 7.872951 | 2.0 | 7.416 | 2 | 33.700 | 7.495 | 32.780 | 2 |
| 2025-04-14T10:46:00 | 54.052355 | 7.870474 | 2.0 | 7.394 | 2 | 33.548 | 7.594 | 32.523 | 2 |
| 2025-04-14T10:47:00 | 54.054768 | 7.867974 | 2.0 | 7.492 | 2 | 33.668 | 7.615 | 32.633 | 2 |
| 2025-04-14T10:48:00 | 54.057197 | 7.865463 | 2.0 | 7.451 | 2 | 33.690 | 7.649 | 32.624 | 2 |
| 2025-04-14T10:49:00 | 54.059607 | 7.862964 | 2.0 | 7.354 | 2 | 33.670 | 7.614 | 32.636 | 2 |
| 2025-04-14T10:50:00 | 54.062031 | 7.860505 | 2.0 | 7.352 | 2 | 33.616 | 7.552 | 32.636 | 2 |
| 2025-04-14T10:51:00 | 54.064442 | 7.858060 | 2.0 | 7.322 | 2 | 33.657 | 7.521 | 32.709 | 2 |
| 2025-04-14T10:52:00 | 54.066854 | 7.855661 | 2.0 | 7.316 | 2 | 33.656 | 7.497 | 32.731 | 2 |
| 2025-04-14T10:53:00 | 54.069272 | 7.853290 | 2.0 | 7.312 | 2 | 33.679 | 7.501 | 32.752 | 2 |
| 2025-04-14T10:54:00 | 54.071687 | 7.850940 | 2.0 | 7.295 | 2 | 33.662 | 7.491 | 32.743 | 2 |
| 2025-04-14T10:55:00 | 54.074098 | 7.848607 | 2.0 | 7.265 | 2 | 33.671 | 7.477 | 32.766 | 2 |
| 2025-04-14T10:56:00 | 54.076455 | 7.846146 | 2.0 | 7.261 | 2 | 33.685 | 7.449 | 32.807 | 2 |
| 2025-04-14T10:57:00 | 54.078795 | 7.843641 | 2.0 | 7.309 | 2 | 33.689 | 7.448 | 32.813 | 2 |
| 2025-04-14T10:58:00 | 54.081134 | 7.841138 | 2.0 | 7.308 | 2 | 33.734 | 7.496 | 32.816 | 2 |
| 2025-04-14T10:59:00 | 54.083478 | 7.838622 | 2.0 | 7.252 | 2 | 33.762 | 7.476 | 32.865 | 2 |
| 2025-04-14T11:00:00 | 54.085822 | 7.836090 | 2.0 | 7.298 | 2 | 33.762 | 7.464 | 32.876 | 2 |
| 2025-04-14T11:01:00 | 54.088171 | 7.833547 | 2.0 | 7.240 | 2 | 33.770 | 7.465 | 32.884 | 2 |
| 2025-04-14T11:02:00 | 54.090527 | 7.830998 | 2.0 | 7.190 | 2 | 33.730 | 7.422 | 32.882 | 2 |
| 2025-04-14T11:03:00 | 54.092902 | 7.828450 | 2.0 | 7.231 | 2 | 33.729 | 7.398 | 32.903 | 2 |
| 2025-04-14T11:04:00 | 54.095273 | 7.825904 | 2.0 | 7.215 | 2 | 33.760 | 7.411 | 32.924 | 2 |
| 2025-04-14T11:05:00 | 54.097666 | 7.823353 | 2.0 | 7.327 | 2 | 33.782 | 7.408 | 32.951 | 2 |
| 2025-04-14T11:06:00 | 54.100077 | 7.820791 | 2.0 | 7.426 | 2 | 33.906 | 7.537 | 32.963 | 2 |
| 2025-04-14T11:07:00 | 54.102481 | 7.818195 | 2.0 | 7.387 | 2 | 34.010 | 7.583 | 33.031 | 2 |
| 2025-04-14T11:08:00 | 54.104862 | 7.815570 | 2.0 | 7.339 | 2 | 34.058 | 7.567 | 33.098 | 2 |
| 2025-04-14T11:09:00 | 54.107223 | 7.812910 | 2.0 | 7.319 | 2 | 34.053 | 7.515 | 33.142 | 2 |
| 2025-04-14T11:10:00 | 54.109566 | 7.810242 | 2.0 | 7.204 | 2 | 34.057 | 7.485 | 33.175 | 2 |
| 2025-04-14T11:11:00 | 54.111958 | 7.807714 | 2.0 | 7.198 | 2 | 33.879 | 7.389 | 33.074 | 2 |
| 2025-04-14T11:12:00 | 54.114344 | 7.805179 | 2.0 | 7.240 | 2 | 34.114 | 7.394 | 33.324 | 2 |
| 2025-04-14T11:13:00 | 54.116674 | 7.802540 | 2.0 | 7.320 | 2 | 34.148 | 7.428 | 33.328 | 2 |
| 2025-04-14T11:14:00 | 54.119057 | 7.800107 | 2.0 | 7.299 | 2 | 34.214 | 7.513 | 33.318 | 2 |
| 2025-04-14T11:15:00 | 54.121443 | 7.797640 | 2.0 | 7.144 | 2 | 34.176 | 7.433 | 33.354 | 2 |
| 2025-04-14T11:16:00 | 54.123862 | 7.795134 | 2.0 | 7.231 | 2 | 34.105 | 7.359 | 33.348 | 2 |
| 2025-04-14T11:17:00 | 54.126258 | 7.792662 | 2.0 | 7.348 | 2 | 34.151 | 7.419 | 33.340 | 2 |
| 2025-04-14T11:18:00 | 54.128626 | 7.790222 | 2.0 | 7.592 | 2 | 34.259 | 7.582 | 33.300 | 2 |
| 2025-04-14T11:19:00 | 54.130961 | 7.787819 | 2.0 | 7.622 | 2 | 34.389 | 7.764 | 33.266 | 2 |
| 2025-04-14T11:20:00 | 54.133266 | 7.785425 | 2.0 | 7.600 | 2 | 34.401 | 7.787 | 33.257 | 2 |
| 2025-04-14T11:21:00 | 54.135573 | 7.783035 | 2.0 | 7.583 | 2 | 34.388 | 7.778 | 33.252 | 2 |
| 2025-04-14T11:22:00 | 54.137875 | 7.780640 | 2.0 | 7.483 | 2 | 34.368 | 7.749 | 33.258 | 2 |
| 2025-04-14T11:23:00 | 54.140170 | 7.778216 | 2.0 | 7.546 | 2 | 34.321 | 7.683 | 33.271 | 2 |
| 2025-04-14T11:24:00 | 54.142469 | 7.775805 | 2.0 | 7.537 | 2 | 34.340 | 7.715 | 33.260 | 2 |
| 2025-04-14T11:25:00 | 54.144767 | 7.773380 | 2.0 | 7.497 | 2 | 34.334 | 7.711 | 33.258 | 2 |
| 2025-04-14T11:26:00 | 54.147064 | 7.770946 | 2.0 | 7.499 | 2 | 34.307 | 7.674 | 33.264 | 2 |
| 2025-04-14T11:27:00 | 54.149426 | 7.768664 | 2.0 | 7.560 | 2 | 34.321 | 7.699 | 33.255 | 2 |
| 2025-04-14T11:28:00 | 54.151822 | 7.766442 | 2.0 | 7.586 | 2 | 34.358 | 7.746 | 33.250 | 2 |
| 2025-04-14T11:29:00 | 54.154212 | 7.764224 | 2.0 | 7.547 | 2 | 34.376 | 7.760 | 33.256 | 2 |
| 2025-04-14T11:30:00 | 54.156624 | 7.762097 | 2.0 | 7.738 | 2 | 34.362 | 7.760 | 33.241 | 2 |
| 2025-04-14T11:31:00 | 54.159032 | 7.759859 | 2.0 | 7.918 | 2 | 34.382 | 7.931 | 33.100 | 2 |
| 2025-04-14T11:32:00 | 54.161452 | 7.757551 | 2.0 | 7.893 | 2 | 34.376 | 8.068 | 32.964 | 2 |
| 2025-04-14T11:33:00 | 54.163887 | 7.755241 | 2.0 | 7.908 | 2 | 34.319 | 8.081 | 32.891 | 2 |
| 2025-04-14T11:34:00 | 54.166336 | 7.752930 | 2.0 | 7.894 | 2 | 33.866 | 8.099 | 32.393 | 2 |
| 2025-04-14T11:35:00 | 54.168797 | 7.750639 | 2.0 | 7.971 | 2 | 34.007 | 8.097 | 32.545 | 2 |
| 2025-04-14T11:36:00 | 54.171258 | 7.748328 | 2.0 | 8.179 | 2 | 34.291 | 8.200 | 32.750 | 2 |
| 2025-04-14T11:37:00 | 54.173718 | 7.746010 | 2.0 | 8.171 | 2 | 34.175 | 8.343 | 32.495 | 2 |
| 2025-04-14T11:38:00 | 54.176184 | 7.743687 | 2.0 | 8.204 | 2 | 34.257 | 8.339 | 32.585 | 2 |
| 2025-04-14T11:39:00 | 54.178660 | 7.741364 | 2.0 | 8.202 | 2 | 33.806 | 8.373 | 32.078 | 2 |
| 2025-04-14T11:40:00 | 54.181145 | 7.739027 | 2.0 | 8.214 | 2 | 33.963 | 8.382 | 32.235 | 2 |
| 2025-04-14T11:41:00 | 54.183647 | 7.736688 | 2.0 | 8.255 | 2 | 34.267 | 8.395 | 32.544 | 2 |
| 2025-04-14T11:42:00 | 54.186134 | 7.734332 | 2.0 | 8.278 | 2 | 34.245 | 8.436 | 32.483 | 2 |
| 2025-04-14T11:43:00 | 54.188596 | 7.731986 | 2.0 | 8.312 | 2 | 34.245 | 8.467 | 32.454 | 2 |
| 2025-04-14T11:44:00 | 54.191061 | 7.729615 | 2.0 | 8.308 | 2 | 34.151 | 8.475 | 32.348 | 2 |
| 2025-04-14T11:45:00 | 54.193550 | 7.727212 | 2.0 | 8.342 | 2 | 33.998 | 8.496 | 32.168 | 2 |
| 2025-04-14T11:46:00 | 54.196040 | 7.724814 | 2.0 | 8.430 | 2 | 33.941 | 8.533 | 32.074 | 2 |
| 2025-04-14T11:47:00 | 54.198537 | 7.722419 | 2.0 | 8.469 | 2 | 33.943 | 8.599 | 32.017 | 2 |
| 2025-04-14T11:48:00 | 54.201033 | 7.720033 | 2.0 | 8.481 | 2 | 34.177 | 8.640 | 32.224 | 2 |
| 2025-04-14T11:49:00 | 54.203533 | 7.717638 | 2.0 | 8.497 | 2 | 33.709 | 8.661 | 31.716 | 2 |
| 2025-04-14T11:50:00 | 54.206044 | 7.715223 | 2.0 | 8.500 | 2 | 33.603 | 8.666 | 31.601 | 2 |
| 2025-04-14T11:51:00 | 54.208555 | 7.712801 | 2.0 | 8.476 | 2 | 34.142 | 8.674 | 32.157 | 2 |
| 2025-04-14T11:52:00 | 54.211070 | 7.710388 | 2.0 | 8.455 | 2 | 33.699 | 8.649 | 31.717 | 2 |
| 2025-04-14T11:53:00 | 54.213587 | 7.707990 | 2.0 | 8.498 | 2 | 33.934 | 8.645 | 31.966 | 2 |
| 2025-04-14T11:54:00 | 54.216116 | 7.705588 | 2.0 | 8.514 | 2 | 33.893 | 8.673 | 31.897 | 2 |
| 2025-04-14T11:55:00 | 54.218643 | 7.703184 | 2.0 | 8.500 | 2 | 33.648 | 8.683 | 31.633 | 2 |
| 2025-04-14T11:56:00 | 54.221176 | 7.700786 | 2.0 | 8.506 | 2 | 33.676 | 8.670 | 31.674 | 2 |
| 2025-04-14T11:57:00 | 54.223713 | 7.698396 | 2.0 | 8.506 | 2 | 33.816 | 8.679 | 31.812 | 2 |
| 2025-04-14T11:58:00 | 54.226256 | 7.695994 | 2.0 | 8.493 | 2 | 33.664 | 8.682 | 31.650 | 2 |
| 2025-04-14T11:59:00 | 54.228805 | 7.693597 | 2.0 | 8.525 | 2 | 34.037 | 8.681 | 32.041 | 2 |
| 2025-04-14T12:00:00 | 54.231346 | 7.691206 | 2.0 | 8.520 | 2 | 32.956 | 8.694 | 30.903 | 2 |
| 2025-04-14T12:01:00 | 54.233883 | 7.688817 | 2.0 | 8.541 | 2 | 33.556 | 8.696 | 31.525 | 2 |
| 2025-04-14T12:02:00 | 54.236426 | 7.686422 | 2.0 | 8.444 | 2 | 34.137 | 8.687 | 32.140 | 2 |
| 2025-04-14T12:03:00 | 54.238977 | 7.684019 | 2.0 | 8.412 | 2 | 34.108 | 8.630 | 32.161 | 2 |
| 2025-04-14T12:04:00 | 54.241549 | 7.681608 | 2.0 | 8.682 | 2 | 34.141 | 8.656 | 32.172 | 2 |
| 2025-04-14T12:05:00 | 54.244107 | 7.679192 | 2.0 | 8.694 | 2 | 34.304 | 8.850 | 32.166 | 2 |
| 2025-04-14T12:06:00 | 54.246697 | 7.676897 | 2.0 | 8.731 | 2 | 34.193 | 8.851 | 32.049 | 2 |
| 2025-04-14T12:07:00 | 54.249303 | 7.674719 | 2.0 | 8.809 | 2 | 33.801 | 8.931 | 31.571 | 2 |
| 2025-04-14T12:08:00 | 54.251913 | 7.672646 | 2.0 | 8.778 | 2 | 34.192 | 8.968 | 31.943 | 2 |
| 2025-04-14T12:09:00 | 54.254542 | 7.670660 | 2.0 | 8.736 | 2 | 34.130 | 8.944 | 31.900 | 2 |
| 2025-04-14T12:10:00 | 54.257185 | 7.668685 | 2.0 | 8.734 | 2 | 34.084 | 8.913 | 31.880 | 2 |
| 2025-04-14T12:11:00 | 54.259841 | 7.666697 | 2.0 | 8.729 | 2 | 34.061 | 8.905 | 31.864 | 2 |
| 2025-04-14T12:12:00 | 54.262509 | 7.664714 | 2.0 | 8.722 | 2 | 34.053 | 8.911 | 31.850 | 2 |
| 2025-04-14T12:13:00 | 54.265189 | 7.662713 | 2.0 | 8.745 | 2 | 34.006 | 8.897 | 31.814 | 2 |
| 2025-04-14T12:14:00 | 54.267864 | 7.660715 | 2.0 | 8.784 | 2 | 34.034 | 8.927 | 31.816 | 2 |
| 2025-04-14T12:15:00 | 54.270546 | 7.658711 | 2.0 | 8.827 | 2 | 34.060 | 8.958 | 31.815 | 2 |
| 2025-04-14T12:16:00 | 54.273228 | 7.656710 | 2.0 | 8.867 | 2 | 33.757 | 9.002 | 31.462 | 2 |
| 2025-04-14T12:17:00 | 54.275892 | 7.654736 | 2.0 | 8.831 | 2 | 34.100 | 9.026 | 31.796 | 2 |
| 2025-04-14T12:18:00 | 54.278607 | 7.652890 | 2.0 | 8.811 | 2 | 33.657 | 9.000 | 31.361 | 2 |
| 2025-04-14T12:19:00 | 54.281341 | 7.651133 | 2.0 | 8.812 | 2 | 33.689 | 8.988 | 31.404 | 2 |
| 2025-04-14T12:20:00 | 54.284099 | 7.649447 | 2.0 | 8.812 | 2 | 33.585 | 8.991 | 31.294 | 2 |
| 2025-04-14T12:21:00 | 54.286856 | 7.647775 | 2.0 | 8.798 | 2 | 34.022 | 8.982 | 31.754 | 2 |
| 2025-04-14T12:22:00 | 54.289648 | 7.646228 | 2.0 | 8.794 | 2 | 34.006 | 8.973 | 31.746 | 2 |
| 2025-04-14T12:23:00 | 54.292450 | 7.644693 | 2.0 | 8.786 | 2 | 33.994 | 8.967 | 31.739 | 2 |
| 2025-04-14T12:24:00 | 54.295263 | 7.643307 | 2.0 | 8.767 | 2 | 33.316 | 8.957 | 31.046 | 2 |
| 2025-04-14T12:25:00 | 54.298076 | 7.641971 | 2.0 | 8.756 | 2 | 33.396 | 8.948 | 31.137 | 2 |
| 2025-04-14T12:26:00 | 54.300907 | 7.640683 | 2.0 | 8.772 | 2 | 33.348 | 8.936 | 31.098 | 2 |
| 2025-04-14T12:27:00 | 54.303738 | 7.639388 | 2.0 | 8.820 | 2 | 33.959 | 8.953 | 31.715 | 2 |
| 2025-04-14T12:28:00 | 54.306571 | 7.638101 | 2.0 | 8.798 | 2 | 33.688 | 8.996 | 31.396 | 2 |
| 2025-04-14T12:29:00 | 54.309406 | 7.636814 | 2.0 | 8.779 | 2 | 33.513 | 8.966 | 31.242 | 2 |
| 2025-04-14T12:30:00 | 54.312251 | 7.635521 | 2.0 | 8.905 | 2 | 33.984 | 8.963 | 31.732 | 2 |
| 2025-04-14T12:31:00 | 54.315087 | 7.634225 | 2.0 | 8.846 | 2 | 34.169 | 9.081 | 31.818 | 2 |
| 2025-04-14T12:32:00 | 54.317916 | 7.632908 | 2.0 | 8.811 | 2 | 33.491 | 9.008 | 31.182 | 2 |
| 2025-04-14T12:33:00 | 54.320748 | 7.631594 | 2.0 | 8.812 | 2 | 33.544 | 8.997 | 31.247 | 2 |
| 2025-04-14T12:34:00 | 54.323582 | 7.630285 | 2.0 | 8.798 | 2 | 34.120 | 8.982 | 31.856 | 2 |
| 2025-04-14T12:35:00 | 54.326419 | 7.628966 | 2.0 | 8.832 | 2 | 33.340 | 8.966 | 31.063 | 2 |
| 2025-04-14T12:36:00 | 54.329259 | 7.627642 | 2.0 | 8.768 | 2 | 34.000 | 8.992 | 31.723 | 2 |
| 2025-04-14T12:37:00 | 54.332102 | 7.626309 | 2.0 | 8.633 | 2 | 34.175 | 8.914 | 31.974 | 2 |
| 2025-04-14T12:38:00 | 54.334938 | 7.624963 | 2.0 | 8.676 | 2 | 33.774 | 8.825 | 31.637 | 2 |
| 2025-04-14T12:39:00 | 54.337788 | 7.623634 | 2.0 | 8.741 | 2 | 33.863 | 8.868 | 31.691 | 2 |
| 2025-04-14T12:40:00 | 54.340621 | 7.622316 | 2.0 | 8.791 | 2 | 34.068 | 8.913 | 31.864 | 2 |
| 2025-04-14T12:41:00 | 54.343447 | 7.621016 | 2.0 | 8.893 | 2 | 33.707 | 8.991 | 31.420 | 2 |
| 2025-04-14T12:42:00 | 54.346269 | 7.619696 | 2.0 | 8.832 | 2 | 33.539 | 9.052 | 31.193 | 2 |
| 2025-04-14T12:43:00 | 54.349102 | 7.618349 | 2.0 | 8.851 | 2 | 33.673 | 8.998 | 31.379 | 2 |
| 2025-04-14T12:44:00 | 54.351938 | 7.616987 | 2.0 | 8.920 | 2 | 33.773 | 9.032 | 31.452 | 2 |
| 2025-04-14T12:45:00 | 54.354757 | 7.615608 | 2.0 | 8.829 | 2 | 33.812 | 9.074 | 31.456 | 2 |
| 2025-04-14T12:46:00 | 54.357598 | 7.614214 | 2.0 | 8.762 | 2 | 33.737 | 8.992 | 31.451 | 2 |
| 2025-04-14T12:47:00 | 54.360451 | 7.612802 | 2.0 | 8.740 | 2 | 33.612 | 8.945 | 31.363 | 2 |
| 2025-04-14T12:48:00 | 54.363308 | 7.611389 | 2.0 | 8.676 | 2 | 33.587 | 8.904 | 31.373 | 2 |
| 2025-04-14T12:49:00 | 54.366187 | 7.609969 | 2.0 | 8.717 | 2 | 33.559 | 8.857 | 31.386 | 2 |
| 2025-04-14T12:50:00 | 54.369064 | 7.608550 | 2.0 | 8.905 | 2 | 33.836 | 8.915 | 31.621 | 2 |
| 2025-04-14T12:51:00 | 54.371938 | 7.607095 | 2.0 | 8.903 | 2 | 33.849 | 9.066 | 31.501 | 2 |
| 2025-04-14T12:52:00 | 54.374824 | 7.605617 | 2.0 | 8.846 | 2 | 33.755 | 9.061 | 31.408 | 2 |
| 2025-04-14T12:53:00 | 54.377716 | 7.604116 | 2.0 | 8.794 | 2 | 33.539 | 9.012 | 31.228 | 2 |
| 2025-04-14T12:54:00 | 54.380592 | 7.602631 | 2.0 | 8.754 | 2 | 33.696 | 8.963 | 31.434 | 2 |
| 2025-04-14T12:55:00 | 54.383462 | 7.601152 | 2.0 | 8.741 | 2 | 33.568 | 8.933 | 31.328 | 2 |
| 2025-04-14T12:56:00 | 54.386341 | 7.599662 | 2.0 | 8.724 | 2 | 33.644 | 8.914 | 31.423 | 2 |
| 2025-04-14T12:57:00 | 54.389217 | 7.598161 | 2.0 | 8.652 | 2 | 33.605 | 8.890 | 31.404 | 2 |
| 2025-04-14T12:58:00 | 54.392094 | 7.596662 | 2.0 | 8.676 | 2 | 33.633 | 8.852 | 31.467 | 2 |
| 2025-04-14T12:59:00 | 54.394971 | 7.595138 | 2.0 | 8.668 | 2 | 33.593 | 8.853 | 31.424 | 2 |
| 2025-04-14T13:00:00 | 54.397853 | 7.593605 | 2.0 | 8.682 | 2 | 33.380 | 8.843 | 31.212 | 2 |
| 2025-04-14T13:01:00 | 54.400734 | 7.592074 | 2.0 | 8.664 | 2 | 33.495 | 8.858 | 31.318 | 2 |
| 2025-04-14T13:02:00 | 54.403611 | 7.590523 | 2.0 | 8.614 | 2 | 33.508 | 8.832 | 31.355 | 2 |
| 2025-04-14T13:03:00 | 54.406493 | 7.588977 | 2.0 | 8.565 | 2 | 33.483 | 8.778 | 31.377 | 2 |
| 2025-04-14T13:04:00 | 54.409349 | 7.587445 | 2.0 | 8.524 | 2 | 33.411 | 8.741 | 31.335 | 2 |
| 2025-04-14T13:05:00 | 54.412220 | 7.585903 | 2.0 | 8.526 | 2 | 33.423 | 8.701 | 31.382 | 2 |
| 2025-04-14T13:06:00 | 54.415107 | 7.584346 | 2.0 | 8.514 | 2 | 33.449 | 8.703 | 31.408 | 2 |
| 2025-04-14T13:07:00 | 54.417948 | 7.582597 | 2.0 | 8.445 | 2 | 33.443 | 8.687 | 31.416 | 2 |
| 2025-04-14T13:08:00 | 54.420748 | 7.580626 | 2.0 | 8.411 | 2 | 33.109 | 8.626 | 31.122 | 2 |
| 2025-04-14T13:09:00 | 54.423546 | 7.578635 | 2.0 | 8.457 | 2 | 33.594 | 8.590 | 31.660 | 2 |
| 2025-04-14T13:10:00 | 54.426381 | 7.576789 | 2.0 | 8.504 | 2 | 33.651 | 8.631 | 31.683 | 2 |
| 2025-04-14T13:11:00 | 54.429189 | 7.574978 | 2.0 | 8.383 | 2 | 33.701 | 8.654 | 31.714 | 2 |
| 2025-04-14T13:12:00 | 54.431398 | 7.573517 | 2.0 | 8.413 | 2 | 33.655 | 8.576 | 31.736 | 2 |
| 2025-04-14T13:13:00 | 54.433059 | 7.573053 | 2.0 | 8.361 | 2 | 33.658 | 8.534 | 31.777 | 2 |
| 2025-04-14T13:14:00 | 54.433343 | 7.573714 | 2.0 | 8.277 | 2 | 33.638 | 8.511 | 31.777 | 2 |
| 2025-04-14T13:15:00 | 54.433290 | 7.573850 | 2.0 | 8.345 | 2 | 33.585 | 8.472 | 31.756 | 2 |
| 2025-04-14T13:16:00 | 54.433248 | 7.573791 | 2.0 | 8.455 | 2 | 33.632 | 8.535 | 31.749 | 2 |
| 2025-04-14T13:17:00 | 54.433172 | 7.573658 | 2.0 | 8.511 | 2 | 33.716 | 8.633 | 31.749 | 2 |
| 2025-04-14T13:18:00 | 54.432965 | 7.573606 | 2.0 | 8.355 | 2 | 33.747 | 8.654 | 31.762 | 2 |
| 2025-04-14T13:19:00 | 54.432764 | 7.573761 | 2.0 | 8.292 | 2 | 33.624 | 8.513 | 31.760 | 2 |
| 2025-04-14T13:20:00 | 54.432641 | 7.573834 | 2.0 | 8.367 | 2 | 33.557 | 8.468 | 31.731 | 2 |
| 2025-04-14T13:21:00 | 54.432596 | 7.573940 | 2.0 | 8.724 | 2 | 33.666 | 8.615 | 31.713 | 2 |
| 2025-04-14T13:22:00 | 54.432573 | 7.574046 | 2.0 | 8.679 | 2 | 33.903 | 8.878 | 31.724 | 2 |
| 2025-04-14T13:23:00 | 54.432576 | 7.574133 | 2.0 | 8.563 | 2 | 33.905 | 8.848 | 31.753 | 2 |
| 2025-04-14T13:24:00 | 54.432584 | 7.574154 | 2.0 | 8.563 | 2 | 33.812 | 8.750 | 31.744 | 2 |
| 2025-04-14T13:25:00 | 54.432622 | 7.574136 | 2.0 | 8.324 | 2 | 33.790 | 8.728 | 31.741 | 2 |
| 2025-04-14T13:26:00 | 54.432852 | 7.574066 | 2.0 | 8.414 | 2 | 33.614 | 8.549 | 31.717 | 2 |
| 2025-04-14T13:27:00 | 54.433143 | 7.574024 | 2.0 | 8.460 | 2 | 33.662 | 8.621 | 31.703 | 2 |
| 2025-04-14T13:28:00 | 54.433314 | 7.574003 | 2.0 | 8.480 | 2 | 33.705 | 8.664 | 31.709 | 2 |
| 2025-04-14T13:29:00 | 54.433533 | 7.574053 | 2.0 | 8.593 | 2 | 33.740 | 8.701 | 31.713 | 2 |
| 2025-04-14T13:30:00 | 54.433839 | 7.574026 | 2.0 | 8.604 | 2 | 33.810 | 8.782 | 31.713 | 2 |
| 2025-04-14T13:31:00 | 54.434220 | 7.573812 | 2.0 | 8.539 | 2 | 33.831 | 8.798 | 31.721 | 2 |
| 2025-04-14T13:32:00 | 54.434605 | 7.573385 | 2.0 | 8.523 | 2 | 33.786 | 8.747 | 31.719 | 2 |
| 2025-04-14T13:33:00 | 54.434941 | 7.572841 | 2.0 | 8.515 | 2 | 33.772 | 8.731 | 31.719 | 2 |
| 2025-04-14T13:34:00 | 54.435222 | 7.572469 | 2.0 | 8.525 | 2 | 33.768 | 8.727 | 31.719 | 2 |
| 2025-04-14T13:35:00 | 54.435385 | 7.572211 | 2.0 | 8.343 | 2 | 33.765 | 8.717 | 31.724 | 2 |
| 2025-04-14T13:36:00 | 54.435498 | 7.572137 | 2.0 | 8.375 | 2 | 33.608 | 8.540 | 31.719 | 2 |
| 2025-04-14T13:37:00 | 54.435534 | 7.572153 | 2.0 | 8.256 | 2 | 33.637 | 8.565 | 31.727 | 2 |
| 2025-04-14T13:38:00 | 54.435517 | 7.572241 | 2.0 | 8.256 | 2 | 33.501 | 8.476 | 31.665 | 2 |
| 2025-04-14T13:39:00 | 54.435511 | 7.572403 | 2.0 | 8.329 | 2 | 33.513 | 8.474 | 31.679 | 2 |
| 2025-04-14T13:40:00 | 54.435513 | 7.572607 | 2.0 | 8.315 | 2 | 33.599 | 8.550 | 31.701 | 2 |
| 2025-04-14T13:41:00 | 54.435478 | 7.572762 | 2.0 | 8.284 | 2 | 33.085 | 8.514 | 31.195 | 2 |
| 2025-04-14T13:42:00 | 54.435408 | 7.572937 | 2.0 | 8.294 | 2 | 33.571 | 8.508 | 31.709 | 2 |
| 2025-04-14T13:43:00 | 54.435282 | 7.573040 | 2.0 | 8.397 | 2 | 33.270 | 8.508 | 31.394 | 2 |
| 2025-04-14T13:44:00 | 54.435003 | 7.572981 | 2.0 | 8.321 | 2 | 33.200 | 8.615 | 31.226 | 2 |
| 2025-04-14T13:45:00 | 54.434958 | 7.573373 | 2.0 | 8.406 | 2 | 33.608 | 8.570 | 31.692 | 2 |
| 2025-04-14T13:46:00 | 54.435415 | 7.574118 | 2.0 | 8.402 | 2 | 33.476 | 8.619 | 31.511 | 2 |
| 2025-04-14T13:47:00 | 54.436410 | 7.575363 | 2.0 | 8.363 | 2 | 33.636 | 8.604 | 31.691 | 2 |
| 2025-04-14T13:48:00 | 54.438156 | 7.576607 | 2.0 | 8.321 | 2 | 33.617 | 8.581 | 31.692 | 2 |
| 2025-04-14T13:49:00 | 54.440546 | 7.577617 | 2.0 | 8.281 | 2 | 33.277 | 8.537 | 31.376 | 2 |
| 2025-04-14T13:50:00 | 54.443258 | 7.578694 | 2.0 | 8.252 | 2 | 32.587 | 8.482 | 30.704 | 2 |
| 2025-04-14T13:51:00 | 54.446066 | 7.579877 | 2.0 | 8.219 | 2 | 33.370 | 8.472 | 31.531 | 2 |
| 2025-04-14T13:52:00 | 54.448904 | 7.581078 | 2.0 | 8.215 | 2 | 33.048 | 8.428 | 31.233 | 2 |
| 2025-04-14T13:53:00 | 54.451769 | 7.582284 | 2.0 | 8.142 | 2 | 33.256 | 8.426 | 31.453 | 2 |
| 2025-04-14T13:54:00 | 54.454459 | 7.583386 | 2.0 | 8.250 | 2 | 33.544 | 8.372 | 31.803 | 2 |
| 2025-04-14T13:55:00 | 54.456497 | 7.584212 | 2.0 | 8.342 | 2 | 33.244 | 8.470 | 31.401 | 2 |
| 2025-04-14T13:56:00 | 54.458077 | 7.584793 | 2.0 | 8.270 | 2 | 33.170 | 8.541 | 31.260 | 2 |
| 2025-04-14T13:57:00 | 54.459367 | 7.585220 | 2.0 | 8.274 | 2 | 33.541 | 8.481 | 31.702 | 2 |
| 2025-04-14T13:58:00 | 54.459994 | 7.585958 | 2.0 | 8.101 | 2 | 33.651 | 8.467 | 31.830 | 2 |
| 2025-04-14T13:59:00 | 54.460110 | 7.586426 | 2.0 | 8.017 | 2 | 33.391 | 8.291 | 31.716 | 2 |
| 2025-04-14T14:00:00 | 54.460218 | 7.586521 | 2.0 | 7.923 | 2 | 33.189 | 8.242 | 31.547 | 2 |
| 2025-04-14T14:01:00 | 54.460285 | 7.586489 | 2.0 | 7.954 | 2 | 33.205 | 8.112 | 31.681 | 2 |
| 2025-04-14T14:02:00 | 54.460358 | 7.586478 | 2.0 | 8.110 | 2 | 33.369 | 8.214 | 31.762 | 2 |
| 2025-04-14T14:03:00 | 54.460458 | 7.586459 | 2.0 | 8.246 | 2 | 33.047 | 8.356 | 31.296 | 2 |
| 2025-04-14T14:04:00 | 54.460569 | 7.586520 | 2.0 | 8.615 | 2 | 33.475 | 8.531 | 31.588 | 2 |
| 2025-04-14T14:05:00 | 54.460671 | 7.586588 | 2.0 | 8.542 | 2 | 33.347 | 8.801 | 31.215 | 2 |
| 2025-04-14T14:06:00 | 54.460750 | 7.586633 | 2.0 | 8.372 | 2 | 33.888 | 8.728 | 31.843 | 2 |
| 2025-04-14T14:07:00 | 54.460842 | 7.586658 | 2.0 | 8.236 | 2 | 33.379 | 8.549 | 31.472 | 2 |
| 2025-04-14T14:08:00 | 54.460929 | 7.586667 | 2.0 | 8.396 | 2 | 33.462 | 8.467 | 31.632 | 2 |
| 2025-04-14T14:09:00 | 54.460984 | 7.586690 | 2.0 | 8.302 | 2 | 33.409 | 8.608 | 31.450 | 2 |
| 2025-04-14T14:10:00 | 54.461033 | 7.586693 | 2.0 | 8.291 | 2 | 33.462 | 8.518 | 31.586 | 2 |
| 2025-04-14T14:11:00 | 54.461057 | 7.586712 | 2.0 | 8.261 | 2 | 33.453 | 8.502 | 31.591 | 2 |
| 2025-04-14T14:12:00 | 54.461086 | 7.586753 | 2.0 | 8.226 | 2 | 33.445 | 8.468 | 31.613 | 2 |
| 2025-04-14T14:13:00 | 54.461129 | 7.586748 | 2.0 | 8.298 | 2 | 33.319 | 8.457 | 31.491 | 2 |
| 2025-04-14T14:14:00 | 54.461188 | 7.586699 | 2.0 | 8.306 | 2 | 33.208 | 8.511 | 31.327 | 2 |
| 2025-04-14T14:15:00 | 54.461290 | 7.586643 | 2.0 | 8.255 | 2 | 33.453 | 8.507 | 31.587 | 2 |
| 2025-04-14T14:16:00 | 54.461439 | 7.586652 | 2.0 | 8.156 | 2 | 33.584 | 8.446 | 31.779 | 2 |
| 2025-04-14T14:17:00 | 54.461587 | 7.586631 | 2.0 | 8.420 | 2 | 33.322 | 8.417 | 31.530 | 2 |
| 2025-04-14T14:18:00 | 54.461773 | 7.586593 | 2.0 | 8.510 | 2 | 33.545 | 8.628 | 31.575 | 2 |
| 2025-04-14T14:19:00 | 54.461875 | 7.586670 | 2.0 | 8.500 | 2 | 33.841 | 8.727 | 31.795 | 2 |
| 2025-04-14T14:20:00 | 54.462356 | 7.587076 | 2.0 | 8.451 | 2 | 33.617 | 8.699 | 31.586 | 2 |
| 2025-04-14T14:21:00 | 54.463598 | 7.587498 | 2.0 | 8.484 | 2 | 33.521 | 8.676 | 31.507 | 2 |
| 2025-04-14T14:22:00 | 54.465730 | 7.588274 | 2.0 | 8.378 | 2 | 33.630 | 8.704 | 31.595 | 2 |
| 2025-04-14T14:23:00 | 54.468430 | 7.589390 | 2.0 | 8.104 | 2 | 33.586 | 8.546 | 31.691 | 2 |
| 2025-04-14T14:24:00 | 54.471372 | 7.590611 | 2.0 | 8.083 | 2 | 33.289 | 8.318 | 31.584 | 2 |
| 2025-04-14T14:25:00 | 54.474400 | 7.591764 | 2.0 | 8.114 | 2 | 33.368 | 8.326 | 31.660 | 2 |
| 2025-04-14T14:26:00 | 54.477472 | 7.592812 | 2.0 | 8.100 | 2 | 32.799 | 8.326 | 31.062 | 2 |
| 2025-04-14T14:27:00 | 54.480176 | 7.593674 | 2.0 | 8.271 | 2 | 33.701 | 8.354 | 31.985 | 2 |
| 2025-04-14T14:28:00 | 54.482335 | 7.594502 | 2.0 | 8.339 | 2 | 33.886 | 8.535 | 32.015 | 2 |
| 2025-04-14T14:29:00 | 54.484138 | 7.595136 | 2.0 | 8.321 | 2 | 33.957 | 8.516 | 32.107 | 2 |
| 2025-04-14T14:30:00 | 54.485601 | 7.595768 | 2.0 | 8.197 | 2 | 33.964 | 8.501 | 32.128 | 2 |
| 2025-04-14T14:31:00 | 54.486539 | 7.596579 | 2.0 | 8.225 | 2 | 33.881 | 8.415 | 32.119 | 2 |
| 2025-04-14T14:32:00 | 54.486813 | 7.597431 | 2.0 | 8.343 | 2 | 33.917 | 8.465 | 32.111 | 2 |
| 2025-04-14T14:33:00 | 54.486953 | 7.597975 | 2.0 | 8.344 | 2 | 33.995 | 8.555 | 32.111 | 2 |
| 2025-04-14T14:34:00 | 54.487075 | 7.598240 | 2.0 | 8.354 | 2 | 33.984 | 8.558 | 32.097 | 2 |
| 2025-04-14T14:35:00 | 54.487145 | 7.598309 | 2.0 | 8.416 | 2 | 33.986 | 8.581 | 32.078 | 2 |
| 2025-04-14T14:36:00 | 54.487169 | 7.598325 | 2.0 | 8.443 | 2 | 34.026 | 8.630 | 32.075 | 2 |
| 2025-04-14T14:37:00 | 54.487201 | 7.598312 | 2.0 | 8.510 | 2 | 34.063 | 8.678 | 32.070 | 2 |
| 2025-04-14T14:38:00 | 54.487270 | 7.598267 | 2.0 | 8.593 | 2 | 34.107 | 8.728 | 32.071 | 2 |
| 2025-04-14T14:39:00 | 54.487409 | 7.598230 | 2.0 | 8.562 | 2 | 34.165 | 8.797 | 32.069 | 2 |
| 2025-04-14T14:40:00 | 54.487681 | 7.598131 | 2.0 | 8.758 | 2 | 34.146 | 8.785 | 32.060 | 2 |
| 2025-04-14T14:41:00 | 54.488008 | 7.597735 | 2.0 | 8.935 | 2 | 34.316 | 9.017 | 32.027 | 2 |
| 2025-04-14T14:42:00 | 54.488298 | 7.597104 | 2.0 | 8.875 | 2 | 34.449 | 9.140 | 32.054 | 2 |
| 2025-04-14T14:43:00 | 54.488645 | 7.596518 | 2.0 | 8.808 | 2 | 34.394 | 9.081 | 32.050 | 2 |
| 2025-04-14T14:44:00 | 54.489114 | 7.595978 | 2.0 | 8.622 | 2 | 34.308 | 8.970 | 32.061 | 2 |
| 2025-04-14T14:45:00 | 54.489502 | 7.595657 | 2.0 | 8.403 | 2 | 34.167 | 8.806 | 32.063 | 2 |
| 2025-04-14T14:46:00 | 54.489756 | 7.595470 | 2.0 | 8.382 | 2 | 33.986 | 8.620 | 32.043 | 2 |
| 2025-04-14T14:47:00 | 54.489892 | 7.595355 | 2.0 | 8.779 | 2 | 33.984 | 8.642 | 32.021 | 2 |
| 2025-04-14T14:48:00 | 54.489987 | 7.595261 | 2.0 | 8.871 | 2 | 34.301 | 9.032 | 31.998 | 2 |
| 2025-04-14T14:49:00 | 54.490057 | 7.595200 | 2.0 | 8.903 | 2 | 34.350 | 9.074 | 32.011 | 2 |
| 2025-04-14T14:50:00 | 54.490134 | 7.595105 | 2.0 | 8.817 | 2 | 34.360 | 9.096 | 32.002 | 2 |
| 2025-04-14T14:51:00 | 54.490254 | 7.594969 | 2.0 | 8.760 | 2 | 34.278 | 8.993 | 32.010 | 2 |
| 2025-04-14T14:52:00 | 54.490450 | 7.594854 | 2.0 | 8.456 | 2 | 34.237 | 8.973 | 31.985 | 2 |
| 2025-04-14T14:53:00 | 54.490806 | 7.594629 | 2.0 | 8.423 | 2 | 33.961 | 8.638 | 32.000 | 2 |
| 2025-04-14T14:54:00 | 54.491246 | 7.594220 | 2.0 | 8.529 | 2 | 33.960 | 8.678 | 31.963 | 2 |
| 2025-04-14T14:55:00 | 54.491703 | 7.593668 | 2.0 | 8.562 | 2 | 33.961 | 8.756 | 31.894 | 2 |
| 2025-04-14T14:56:00 | 54.492087 | 7.593339 | 2.0 | 8.518 | 2 | 33.553 | 8.792 | 31.437 | 2 |
| 2025-04-14T14:57:00 | 54.492323 | 7.593331 | 2.0 | 8.243 | 2 | 33.473 | 8.674 | 31.458 | 2 |
| 2025-04-14T14:58:00 | 54.492453 | 7.593393 | 2.0 | 8.323 | 2 | 33.482 | 8.511 | 31.613 | 2 |
| 2025-04-14T14:59:00 | 54.492532 | 7.593463 | 2.0 | 8.368 | 2 | 33.482 | 8.538 | 31.589 | 2 |
| 2025-04-14T15:00:00 | 54.492590 | 7.593523 | 2.0 | 8.484 | 2 | 33.620 | 8.682 | 31.605 | 2 |
| 2025-04-14T15:01:00 | 54.492646 | 7.593519 | 2.0 | 8.350 | 2 | 33.982 | 8.677 | 31.987 | 2 |
| 2025-04-14T15:02:00 | 54.492702 | 7.593507 | 2.0 | 8.131 | 2 | 33.856 | 8.549 | 31.971 | 2 |
| 2025-04-14T15:03:00 | 54.492774 | 7.593529 | 2.0 | 8.060 | 2 | 33.281 | 8.365 | 31.533 | 2 |
| 2025-04-14T15:04:00 | 54.492835 | 7.593574 | 2.0 | 8.064 | 2 | 33.175 | 8.288 | 31.491 | 2 |
| 2025-04-14T15:05:00 | 54.492917 | 7.593641 | 2.0 | 8.052 | 2 | 33.386 | 8.290 | 31.711 | 2 |
| 2025-04-14T15:06:00 | 54.493044 | 7.593676 | 2.0 | 8.062 | 2 | 33.132 | 8.295 | 31.439 | 2 |
| 2025-04-14T15:07:00 | 54.493210 | 7.593643 | 2.0 | 8.054 | 2 | 33.536 | 8.291 | 31.868 | 2 |
| 2025-04-14T15:08:00 | 54.493396 | 7.593564 | 2.0 | 8.038 | 2 | 33.281 | 8.275 | 31.614 | 2 |
| 2025-04-14T15:09:00 | 54.493584 | 7.593433 | 2.0 | 8.054 | 2 | 33.251 | 8.274 | 31.583 | 2 |
| 2025-04-14T15:10:00 | 54.493751 | 7.593280 | 2.0 | 8.020 | 2 | 32.939 | 8.270 | 31.259 | 2 |
| 2025-04-14T15:11:00 | 54.493884 | 7.593168 | 2.0 | 8.013 | 2 | 33.521 | 8.245 | 31.894 | 2 |
| 2025-04-14T15:12:00 | 54.494041 | 7.593138 | 2.0 | 8.022 | 2 | 33.547 | 8.241 | 31.925 | 2 |
| 2025-04-14T15:13:00 | 54.494202 | 7.593183 | 2.0 | 8.010 | 2 | 33.176 | 8.249 | 31.527 | 2 |
| 2025-04-14T15:14:00 | 54.494329 | 7.593290 | 2.0 | 8.041 | 2 | 33.307 | 8.234 | 31.679 | 2 |
| 2025-04-14T15:15:00 | 54.494336 | 7.593381 | 2.0 | 8.018 | 2 | 33.347 | 8.274 | 31.685 | 2 |
| 2025-04-14T15:16:00 | 54.494171 | 7.593049 | 2.0 | 7.987 | 2 | 33.034 | 8.237 | 31.388 | 2 |
| 2025-04-14T15:17:00 | 54.493861 | 7.592431 | 2.0 | 8.017 | 2 | 33.198 | 8.222 | 31.574 | 2 |
| 2025-04-14T15:18:00 | 54.493354 | 7.591644 | 2.0 | 8.020 | 2 | 33.286 | 8.236 | 31.655 | 2 |
| 2025-04-14T15:19:00 | 54.492572 | 7.590389 | 2.0 | 8.095 | 2 | 33.231 | 8.240 | 31.593 | 2 |
| 2025-04-14T15:20:00 | 54.491474 | 7.588953 | 2.0 | 8.482 | 2 | 33.250 | 8.410 | 31.461 | 2 |
| 2025-04-14T15:21:00 | 54.490076 | 7.587411 | 2.0 | 8.516 | 2 | 33.731 | 8.657 | 31.743 | 2 |
| 2025-04-14T15:22:00 | 54.488497 | 7.585890 | 2.0 | 8.445 | 2 | 33.758 | 8.712 | 31.722 | 2 |
| 2025-04-14T15:23:00 | 54.486802 | 7.584466 | 2.0 | 8.306 | 2 | 33.545 | 8.619 | 31.583 | 2 |
| 2025-04-14T15:24:00 | 54.485081 | 7.583060 | 2.0 | 8.244 | 2 | 33.343 | 8.488 | 31.488 | 2 |
| 2025-04-14T15:25:00 | 54.483515 | 7.581715 | 2.0 | 8.363 | 2 | 33.239 | 8.469 | 31.396 | 2 |
| 2025-04-14T15:26:00 | 54.482086 | 7.580418 | 2.0 | 8.329 | 2 | 33.480 | 8.538 | 31.587 | 2 |
| 2025-04-14T15:27:00 | 54.480725 | 7.579148 | 2.0 | 8.338 | 2 | 33.415 | 8.518 | 31.537 | 2 |
| 2025-04-14T15:28:00 | 54.479338 | 7.577874 | 2.0 | 8.315 | 2 | 33.522 | 8.528 | 31.640 | 2 |
| 2025-04-14T15:29:00 | 54.477934 | 7.576592 | 2.0 | 8.286 | 2 | 33.413 | 8.503 | 31.548 | 2 |
| 2025-04-14T15:30:00 | 54.476482 | 7.575267 | 2.0 | 8.259 | 2 | 33.418 | 8.474 | 31.579 | 2 |
| 2025-04-14T15:31:00 | 54.474928 | 7.574016 | 2.0 | 8.277 | 2 | 33.275 | 8.458 | 31.444 | 2 |
| 2025-04-14T15:32:00 | 54.473324 | 7.572877 | 2.0 | 8.283 | 2 | 33.269 | 8.469 | 31.428 | 2 |
| 2025-04-14T15:33:00 | 54.471693 | 7.571809 | 2.0 | 8.288 | 2 | 33.426 | 8.472 | 31.590 | 2 |
| 2025-04-14T15:34:00 | 54.469982 | 7.570728 | 2.0 | 8.334 | 2 | 33.400 | 8.487 | 31.549 | 2 |
| 2025-04-14T15:35:00 | 54.467942 | 7.569619 | 2.0 | 8.379 | 2 | 33.412 | 8.524 | 31.528 | 2 |
| 2025-04-14T15:36:00 | 54.465457 | 7.568495 | 2.0 | 8.438 | 2 | 33.508 | 8.571 | 31.587 | 2 |
| 2025-04-14T15:37:00 | 54.462820 | 7.567328 | 2.0 | 8.495 | 2 | 33.584 | 8.632 | 31.612 | 2 |
| 2025-04-14T15:38:00 | 54.460119 | 7.566142 | 2.0 | 8.398 | 2 | 33.433 | 8.660 | 31.429 | 2 |
| 2025-04-14T15:39:00 | 54.457423 | 7.565170 | 2.0 | 8.429 | 2 | 33.518 | 8.585 | 31.585 | 2 |
| 2025-04-14T15:40:00 | 54.454727 | 7.564456 | 2.0 | 8.598 | 2 | 33.454 | 8.636 | 31.472 | 2 |
| 2025-04-14T15:41:00 | 54.452031 | 7.563721 | 2.0 | 8.542 | 2 | 33.571 | 8.764 | 31.481 | 2 |
| 2025-04-14T15:42:00 | 54.449336 | 7.562973 | 2.0 | 8.537 | 2 | 33.537 | 8.718 | 31.486 | 2 |
| 2025-04-14T15:43:00 | 54.446712 | 7.562227 | 2.0 | 8.702 | 2 | 33.626 | 8.741 | 31.558 | 2 |
| 2025-04-14T15:44:00 | 54.444553 | 7.562082 | 2.0 | 8.872 | 2 | 33.706 | 8.886 | 31.512 | 2 |
| 2025-04-14T15:45:00 | 54.443106 | 7.562814 | 2.0 | 8.841 | 2 | 33.872 | 9.061 | 31.529 | 2 |
| 2025-04-14T15:46:00 | 54.441727 | 7.563535 | 2.0 | 8.722 | 2 | 33.829 | 9.005 | 31.534 | 2 |
| 2025-04-14T15:47:00 | 54.440480 | 7.564367 | 2.0 | 8.808 | 2 | 33.808 | 8.935 | 31.575 | 2 |
| 2025-04-14T15:48:00 | 54.439495 | 7.565216 | 2.0 | 9.091 | 2 | 33.886 | 9.066 | 31.539 | 2 |
| 2025-04-14T15:49:00 | 54.438651 | 7.565909 | 2.0 | 9.054 | 2 | 34.068 | 9.305 | 31.515 | 2 |
| 2025-04-14T15:50:00 | 54.437967 | 7.566614 | 2.0 | 9.107 | 2 | 34.084 | 9.250 | 31.580 | 2 |
| 2025-04-14T15:51:00 | 54.437441 | 7.567381 | 2.0 | 9.137 | 2 | 34.174 | 9.330 | 31.602 | 2 |
| 2025-04-14T15:52:00 | 54.437022 | 7.568227 | 2.0 | 8.797 | 2 | 34.169 | 9.275 | 31.645 | 2 |
| 2025-04-14T15:53:00 | 54.436582 | 7.569162 | 2.0 | 8.570 | 2 | 33.831 | 8.915 | 31.616 | 2 |
| 2025-04-14T15:54:00 | 54.436297 | 7.569984 | 2.0 | 8.596 | 2 | 33.142 | 8.843 | 30.966 | 2 |
| 2025-04-14T15:55:00 | 54.436181 | 7.570592 | 2.0 | 8.544 | 2 | 33.883 | 8.789 | 31.783 | 2 |
| 2025-04-14T15:56:00 | 54.436108 | 7.570888 | 2.0 | 8.589 | 2 | 33.857 | 8.776 | 31.767 | 2 |
| 2025-04-14T15:57:00 | 54.436063 | 7.571109 | 2.0 | 8.533 | 2 | 33.895 | 8.814 | 31.773 | 2 |
| 2025-04-14T15:58:00 | 54.436000 | 7.571341 | 2.0 | 8.501 | 2 | 33.850 | 8.753 | 31.781 | 2 |
| 2025-04-14T15:59:00 | 54.435910 | 7.571643 | 2.0 | 8.532 | 2 | 33.823 | 8.716 | 31.786 | 2 |
| 2025-04-14T16:00:00 | 54.435845 | 7.571836 | 2.0 | 8.555 | 2 | 33.860 | 8.776 | 31.770 | 2 |
| 2025-04-14T16:01:00 | 54.435817 | 7.571995 | 2.0 | 8.554 | 2 | 33.862 | 8.772 | 31.776 | 2 |
| 2025-04-14T16:02:00 | 54.435800 | 7.572057 | 2.0 | 8.631 | 2 | 33.848 | 8.769 | 31.764 | 2 |
| 2025-04-14T16:03:00 | 54.435762 | 7.572146 | 2.0 | 8.913 | 2 | 33.931 | 8.895 | 31.738 | 2 |
| 2025-04-14T16:04:00 | 54.435689 | 7.572109 | 2.0 | 9.078 | 2 | 34.134 | 9.141 | 31.728 | 2 |
| 2025-04-14T16:05:00 | 54.435488 | 7.571961 | 2.0 | 8.860 | 2 | 34.274 | 9.260 | 31.767 | 2 |
| 2025-04-14T16:06:00 | 54.435081 | 7.571501 | 2.0 | 8.535 | 2 | 34.063 | 8.969 | 31.808 | 2 |
| 2025-04-14T16:07:00 | 54.434593 | 7.571319 | 2.0 | 8.476 | 2 | 33.853 | 8.750 | 31.786 | 2 |
| 2025-04-14T16:08:00 | 54.434095 | 7.571444 | 2.0 | 8.422 | 2 | 33.794 | 8.688 | 31.781 | 2 |
| 2025-04-14T16:09:00 | 54.433639 | 7.571818 | 2.0 | 8.421 | 2 | 33.755 | 8.650 | 31.774 | 2 |
| 2025-04-14T16:10:00 | 54.433311 | 7.572264 | 2.0 | 8.449 | 2 | 33.693 | 8.654 | 31.706 | 2 |
| 2025-04-14T16:11:00 | 54.433148 | 7.572636 | 2.0 | 8.458 | 2 | 33.763 | 8.662 | 31.772 | 2 |
| 2025-04-14T16:12:00 | 54.433017 | 7.573013 | 2.0 | 8.491 | 2 | 33.792 | 8.705 | 31.763 | 2 |
| 2025-04-14T16:13:00 | 54.432893 | 7.573315 | 2.0 | 8.675 | 2 | 33.845 | 8.774 | 31.757 | 2 |
| 2025-04-14T16:14:00 | 54.432842 | 7.573416 | 2.0 | 8.535 | 2 | 33.917 | 8.838 | 31.774 | 2 |
| 2025-04-14T16:15:00 | 54.432850 | 7.573545 | 2.0 | 8.604 | 2 | 33.848 | 8.759 | 31.773 | 2 |
| 2025-04-14T16:16:00 | 54.432828 | 7.573761 | 2.0 | 8.630 | 2 | 33.915 | 8.847 | 31.764 | 2 |
| 2025-04-14T16:17:00 | 54.432758 | 7.574150 | 2.0 | 8.630 | 2 | 33.913 | 8.829 | 31.778 | 2 |
| 2025-04-14T16:18:00 | 54.432708 | 7.574292 | 2.0 | 8.733 | 2 | 33.742 | 8.907 | 31.531 | 2 |
| 2025-04-14T16:19:00 | 54.432805 | 7.574196 | 2.0 | 8.455 | 2 | 33.943 | 8.847 | 31.793 | 2 |
| 2025-04-14T16:20:00 | 54.433274 | 7.573976 | 2.0 | 8.701 | 2 | 33.821 | 8.727 | 31.774 | 2 |
| 2025-04-14T16:21:00 | 54.434256 | 7.573694 | 2.0 | 8.842 | 2 | 34.006 | 8.968 | 31.750 | 2 |
| 2025-04-14T16:22:00 | 54.436090 | 7.573750 | 2.0 | 8.606 | 2 | 34.022 | 8.996 | 31.742 | 2 |
| 2025-04-14T16:23:00 | 54.438723 | 7.574027 | 2.0 | 8.416 | 2 | 33.916 | 8.809 | 31.799 | 2 |
| 2025-04-14T16:24:00 | 54.441747 | 7.574351 | 2.0 | 8.516 | 2 | 33.676 | 8.687 | 31.658 | 2 |
| 2025-04-14T16:25:00 | 54.444852 | 7.574711 | 2.0 | 8.466 | 2 | 33.595 | 8.696 | 31.566 | 2 |
| 2025-04-14T16:26:00 | 54.447955 | 7.575176 | 2.0 | 8.512 | 2 | 33.756 | 8.681 | 31.747 | 2 |
| 2025-04-14T16:27:00 | 54.451041 | 7.575715 | 2.0 | 8.655 | 2 | 33.771 | 8.778 | 31.676 | 2 |
| 2025-04-14T16:28:00 | 54.454078 | 7.576261 | 2.0 | 8.568 | 2 | 33.303 | 8.856 | 31.121 | 2 |
| 2025-04-14T16:29:00 | 54.456506 | 7.576958 | 2.0 | 8.661 | 2 | 33.912 | 8.824 | 31.782 | 2 |
| 2025-04-14T16:30:00 | 54.458463 | 7.577650 | 2.0 | 8.661 | 2 | 33.983 | 8.885 | 31.801 | 2 |
| 2025-04-14T16:31:00 | 54.460091 | 7.578309 | 2.0 | 8.794 | 2 | 33.983 | 8.914 | 31.775 | 2 |
| 2025-04-14T16:32:00 | 54.461164 | 7.579415 | 2.0 | 8.628 | 2 | 33.994 | 9.000 | 31.709 | 2 |
| 2025-04-14T16:33:00 | 54.461343 | 7.580860 | 2.0 | 8.643 | 2 | 33.951 | 8.825 | 31.821 | 2 |
| 2025-04-14T16:34:00 | 54.461408 | 7.582123 | 2.0 | 8.515 | 2 | 33.563 | 8.816 | 31.426 | 2 |
| 2025-04-14T16:35:00 | 54.461494 | 7.583048 | 2.0 | 8.549 | 2 | 33.549 | 8.746 | 31.474 | 2 |
| 2025-04-14T16:36:00 | 54.461547 | 7.583705 | 2.0 | 8.459 | 2 | 33.313 | 8.755 | 31.220 | 2 |
| 2025-04-14T16:37:00 | 54.461549 | 7.584149 | 2.0 | 8.487 | 2 | 33.472 | 8.665 | 31.465 | 2 |
| 2025-04-14T16:38:00 | 54.461546 | 7.584473 | 2.0 | 8.472 | 2 | 33.498 | 8.701 | 31.461 | 2 |
| 2025-04-14T16:39:00 | 54.461526 | 7.584829 | 2.0 | 8.461 | 2 | 33.853 | 8.677 | 31.852 | 2 |
| 2025-04-14T16:40:00 | 54.461478 | 7.585186 | 2.0 | 8.494 | 2 | 33.852 | 8.683 | 31.846 | 2 |
| 2025-04-14T16:41:00 | 54.461430 | 7.585494 | 2.0 | 8.527 | 2 | 33.632 | 8.718 | 31.585 | 2 |
| 2025-04-14T16:42:00 | 54.461377 | 7.585540 | 2.0 | 8.622 | 2 | 33.645 | 8.764 | 31.557 | 2 |
| 2025-04-14T16:43:00 | 54.461383 | 7.585435 | 2.0 | 8.566 | 2 | 33.435 | 8.823 | 31.287 | 2 |
| 2025-04-14T16:44:00 | 54.461424 | 7.585701 | 2.0 | 8.496 | 2 | 33.451 | 8.765 | 31.355 | 2 |
| 2025-04-14T16:45:00 | 54.461451 | 7.585787 | 2.0 | 8.459 | 2 | 33.590 | 8.696 | 31.561 | 2 |
| 2025-04-14T16:46:00 | 54.461492 | 7.585801 | 2.0 | 8.471 | 2 | 33.625 | 8.678 | 31.613 | 2 |
| 2025-04-14T16:47:00 | 54.461501 | 7.585929 | 2.0 | 8.454 | 2 | 33.463 | 8.680 | 31.443 | 2 |
| 2025-04-14T16:48:00 | 54.461458 | 7.585994 | 2.0 | 8.380 | 2 | 33.647 | 8.656 | 31.656 | 2 |
| 2025-04-14T16:49:00 | 54.461425 | 7.586286 | 2.0 | 8.295 | 2 | 33.635 | 8.587 | 31.705 | 2 |
| 2025-04-14T16:50:00 | 54.461356 | 7.586499 | 2.0 | 8.272 | 2 | 33.549 | 8.507 | 31.687 | 2 |
| 2025-04-14T16:51:00 | 54.461394 | 7.586577 | 2.0 | 8.260 | 2 | 33.555 | 8.495 | 31.704 | 2 |
| 2025-04-14T16:52:00 | 54.461591 | 7.586377 | 2.0 | 8.206 | 2 | 33.479 | 8.471 | 31.646 | 2 |
| 2025-04-14T16:53:00 | 54.462131 | 7.586072 | 2.0 | 8.216 | 2 | 33.226 | 8.431 | 31.417 | 2 |
| 2025-04-14T16:54:00 | 54.463514 | 7.585987 | 2.0 | 8.224 | 2 | 33.279 | 8.433 | 31.470 | 2 |
| 2025-04-14T16:55:00 | 54.465884 | 7.586225 | 2.0 | 8.357 | 2 | 33.680 | 8.476 | 31.852 | 2 |
| 2025-04-14T16:56:00 | 54.468786 | 7.586490 | 2.0 | 8.360 | 2 | 33.781 | 8.584 | 31.861 | 2 |
| 2025-04-14T16:57:00 | 54.471858 | 7.586869 | 2.0 | 8.171 | 2 | 33.747 | 8.498 | 31.903 | 2 |
| 2025-04-14T16:58:00 | 54.474975 | 7.587254 | 2.0 | 8.074 | 2 | 33.661 | 8.388 | 31.912 | 2 |
| 2025-04-14T16:59:00 | 54.478094 | 7.587684 | 2.0 | 8.098 | 2 | 33.589 | 8.304 | 31.912 | 2 |
| 2025-04-14T17:00:00 | 54.481200 | 7.588100 | 2.0 | 8.080 | 2 | 33.612 | 8.325 | 31.918 | 2 |
| 2025-04-14T17:01:00 | 54.484057 | 7.588402 | 2.0 | 8.363 | 2 | 33.615 | 8.338 | 31.909 | 2 |
| 2025-04-14T17:02:00 | 54.486307 | 7.588885 | 2.0 | 8.292 | 2 | 33.805 | 8.568 | 31.900 | 2 |
| 2025-04-14T17:03:00 | 54.488172 | 7.589047 | 2.0 | 8.335 | 2 | 33.767 | 8.508 | 31.915 | 2 |
| 2025-04-14T17:04:00 | 54.489797 | 7.588969 | 2.0 | 8.483 | 2 | 33.825 | 8.595 | 31.897 | 2 |
| 2025-04-14T17:05:00 | 54.490815 | 7.589512 | 2.0 | 8.486 | 2 | 33.915 | 8.701 | 31.895 | 2 |
| 2025-04-14T17:06:00 | 54.490995 | 7.590551 | 2.0 | 8.491 | 2 | 33.915 | 8.700 | 31.896 | 2 |
| 2025-04-14T17:07:00 | 54.490853 | 7.591654 | 2.0 | 8.539 | 2 | 33.927 | 8.719 | 31.891 | 2 |
| 2025-04-14T17:08:00 | 54.490681 | 7.592506 | 2.0 | 8.447 | 2 | 33.955 | 8.747 | 31.895 | 2 |
| 2025-04-14T17:09:00 | 54.490580 | 7.593109 | 2.0 | 8.339 | 2 | 33.864 | 8.625 | 31.910 | 2 |
| 2025-04-14T17:10:00 | 54.490499 | 7.593521 | 2.0 | 8.291 | 2 | 33.788 | 8.552 | 31.897 | 2 |
| 2025-04-14T17:11:00 | 54.490440 | 7.593805 | 2.0 | 8.346 | 2 | 33.760 | 8.527 | 31.890 | 2 |
| 2025-04-14T17:12:00 | 54.490366 | 7.594100 | 2.0 | 8.303 | 2 | 33.788 | 8.549 | 31.900 | 2 |
| 2025-04-14T17:13:00 | 54.490287 | 7.594460 | 2.0 | 8.363 | 2 | 33.776 | 8.542 | 31.893 | 2 |
| 2025-04-14T17:14:00 | 54.490269 | 7.594606 | 2.0 | 8.324 | 2 | 33.789 | 8.556 | 31.894 | 2 |
| 2025-04-14T17:15:00 | 54.490306 | 7.594710 | 2.0 | 8.398 | 2 | 33.782 | 8.559 | 31.884 | 2 |
| 2025-04-14T17:16:00 | 54.490299 | 7.595003 | 2.0 | 8.375 | 2 | 33.825 | 8.613 | 31.881 | 2 |
| 2025-04-14T17:17:00 | 54.490308 | 7.595096 | 2.0 | 8.378 | 2 | 33.817 | 8.604 | 31.880 | 2 |
| 2025-04-14T17:18:00 | 54.490142 | 7.595068 | 2.0 | 8.341 | 2 | 33.805 | 8.584 | 31.886 | 2 |
| 2025-04-14T17:19:00 | 54.489557 | 7.595050 | 2.0 | 8.337 | 2 | 33.786 | 8.554 | 31.893 | 2 |
| 2025-04-14T17:20:00 | 54.488809 | 7.595128 | 2.0 | 8.347 | 2 | 33.803 | 8.578 | 31.889 | 2 |
| 2025-04-14T17:21:00 | 54.488195 | 7.595464 | 2.0 | 8.323 | 2 | 33.806 | 8.567 | 31.902 | 2 |
| 2025-04-14T17:22:00 | 54.487786 | 7.595893 | 2.0 | 8.276 | 2 | 33.785 | 8.525 | 31.918 | 2 |
| 2025-04-14T17:23:00 | 54.487587 | 7.596425 | 2.0 | 8.265 | 2 | 33.762 | 8.498 | 31.918 | 2 |
| 2025-04-14T17:24:00 | 54.487513 | 7.597076 | 2.0 | 8.211 | 2 | 33.745 | 8.475 | 31.921 | 2 |
| 2025-04-14T17:25:00 | 54.487443 | 7.597506 | 2.0 | 8.155 | 2 | 33.694 | 8.423 | 31.915 | 2 |
| 2025-04-14T17:26:00 | 54.487454 | 7.597544 | 2.0 | 8.120 | 2 | 33.646 | 8.365 | 31.917 | 2 |
| 2025-04-14T17:27:00 | 54.487445 | 7.597703 | 2.0 | 8.113 | 2 | 33.629 | 8.351 | 31.912 | 2 |
| 2025-04-14T17:28:00 | 54.487426 | 7.597867 | 2.0 | 8.095 | 2 | 33.612 | 8.331 | 31.912 | 2 |
| 2025-04-14T17:29:00 | 54.487418 | 7.598038 | 2.0 | 8.100 | 2 | 33.602 | 8.319 | 31.913 | 2 |
| 2025-04-14T17:30:00 | 54.487474 | 7.597855 | 2.0 | 7.956 | 2 | 33.589 | 8.312 | 31.905 | 2 |
| 2025-04-14T17:31:00 | 54.487609 | 7.597590 | 2.0 | 8.035 | 2 | 33.499 | 8.171 | 31.938 | 2 |
| 2025-04-14T17:32:00 | 54.487791 | 7.597383 | 2.0 | 8.082 | 2 | 33.549 | 8.268 | 31.903 | 2 |
| 2025-04-14T17:33:00 | 54.488331 | 7.597091 | 2.0 | 8.156 | 2 | 33.585 | 8.322 | 31.892 | 2 |
| 2025-04-14T17:34:00 | 54.489533 | 7.596318 | 2.0 | 8.182 | 2 | 33.610 | 8.362 | 31.882 | 2 |
| 2025-04-14T17:35:00 | 54.491263 | 7.595352 | 2.0 | 8.245 | 2 | 33.661 | 8.431 | 31.873 | 2 |
| 2025-04-14T17:36:00 | 54.493619 | 7.594193 | 2.0 | 8.312 | 2 | 33.715 | 8.500 | 31.867 | 2 |
| 2025-04-14T17:37:00 | 54.496432 | 7.592927 | 2.0 | 8.297 | 2 | 33.735 | 8.533 | 31.859 | 2 |
| 2025-04-14T17:38:00 | 54.499372 | 7.591202 | 2.0 | 8.189 | 2 | 33.694 | 8.476 | 31.867 | 2 |
| 2025-04-14T17:39:00 | 54.502305 | 7.589007 | 2.0 | 8.120 | 2 | 33.633 | 8.417 | 31.856 | 2 |
| 2025-04-14T17:40:00 | 54.505264 | 7.586803 | 2.0 | 8.005 | 2 | 33.550 | 8.299 | 31.876 | 2 |
| 2025-04-14T17:41:00 | 54.508243 | 7.584606 | 2.0 | 8.075 | 2 | 33.472 | 8.249 | 31.839 | 2 |
| 2025-04-14T17:42:00 | 54.510966 | 7.581638 | 2.0 | 8.098 | 2 | 33.511 | 8.285 | 31.847 | 2 |
| 2025-04-14T17:43:00 | 54.513715 | 7.578629 | 2.0 | 7.969 | 2 | 33.527 | 8.279 | 31.870 | 2 |
| 2025-04-14T17:44:00 | 54.516482 | 7.575667 | 2.0 | 7.913 | 2 | 33.456 | 8.162 | 31.901 | 2 |
| 2025-04-14T17:45:00 | 54.519242 | 7.572718 | 2.0 | 7.907 | 2 | 33.311 | 8.121 | 31.785 | 2 |
| 2025-04-14T17:46:00 | 54.522000 | 7.569783 | 2.0 | 7.893 | 2 | 33.425 | 8.102 | 31.923 | 2 |
| 2025-04-14T17:47:00 | 54.524763 | 7.566891 | 2.0 | 7.956 | 2 | 33.428 | 8.115 | 31.914 | 2 |
| 2025-04-14T17:48:00 | 54.527396 | 7.563687 | 2.0 | 7.939 | 2 | 33.465 | 8.149 | 31.922 | 2 |
| 2025-04-14T17:49:00 | 54.529347 | 7.559269 | 2.0 | 7.921 | 2 | 33.454 | 8.125 | 31.933 | 2 |
| 2025-04-14T17:50:00 | 54.531246 | 7.554671 | 2.0 | 7.974 | 2 | 33.410 | 8.132 | 31.880 | 2 |
| 2025-04-14T17:51:00 | 54.533057 | 7.550204 | 2.0 | 8.018 | 2 | 33.481 | 8.172 | 31.918 | 2 |
| 2025-04-14T17:52:00 | 54.534329 | 7.546649 | 2.0 | 7.996 | 2 | 33.521 | 8.207 | 31.929 | 2 |
| 2025-04-14T17:53:00 | 54.534883 | 7.543530 | 2.0 | 8.020 | 2 | 33.508 | 8.194 | 31.927 | 2 |
| 2025-04-14T17:54:00 | 54.535654 | 7.542384 | 2.0 | 7.983 | 2 | 33.514 | 8.204 | 31.924 | 2 |
| 2025-04-14T17:55:00 | 54.536047 | 7.542254 | 2.0 | 7.993 | 2 | 33.492 | 8.172 | 31.930 | 2 |
| 2025-04-14T17:56:00 | 54.536258 | 7.542185 | 2.0 | 7.989 | 2 | 33.495 | 8.180 | 31.926 | 2 |
| 2025-04-14T17:57:00 | 54.536370 | 7.542156 | 2.0 | 7.977 | 2 | 33.494 | 8.178 | 31.927 | 2 |
| 2025-04-14T17:58:00 | 54.536432 | 7.542182 | 2.0 | 7.998 | 2 | 33.484 | 8.164 | 31.929 | 2 |
| 2025-04-14T17:59:00 | 54.536461 | 7.542277 | 2.0 | 7.998 | 2 | 33.496 | 8.184 | 31.923 | 2 |
| 2025-04-14T18:00:00 | 54.536474 | 7.542424 | 2.0 | 7.993 | 2 | 33.207 | 8.183 | 31.619 | 2 |
| 2025-04-14T18:01:00 | 54.536480 | 7.542613 | 2.0 | 7.983 | 2 | 33.494 | 8.177 | 31.928 | 2 |
| 2025-04-14T18:02:00 | 54.536474 | 7.542880 | 2.0 | 7.987 | 2 | 33.490 | 8.173 | 31.927 | 2 |
| 2025-04-14T18:03:00 | 54.536289 | 7.542800 | 2.0 | 7.974 | 2 | 33.017 | 8.173 | 31.427 | 2 |
| 2025-04-14T18:04:00 | 54.536149 | 7.541725 | 2.0 | 7.917 | 2 | 33.480 | 8.150 | 31.937 | 2 |
| 2025-04-14T18:05:00 | 54.536245 | 7.539665 | 2.0 | 7.910 | 2 | 33.450 | 8.102 | 31.949 | 2 |
| 2025-04-14T18:06:00 | 54.536149 | 7.537302 | 2.0 | 7.988 | 2 | 33.454 | 8.111 | 31.945 | 2 |
| 2025-04-14T18:07:00 | 54.535947 | 7.534869 | 2.0 | 7.998 | 2 | 33.478 | 8.167 | 31.920 | 2 |
| 2025-04-14T18:08:00 | 54.535858 | 7.532471 | 2.0 | 8.010 | 2 | 33.427 | 8.183 | 31.851 | 2 |
| 2025-04-14T18:09:00 | 54.535845 | 7.530185 | 2.0 | 8.020 | 2 | 33.477 | 8.194 | 31.894 | 2 |
| 2025-04-14T18:10:00 | 54.535778 | 7.528013 | 2.0 | 8.009 | 2 | 33.214 | 8.203 | 31.608 | 2 |
| 2025-04-14T18:11:00 | 54.535722 | 7.525895 | 2.0 | 7.993 | 2 | 33.488 | 8.195 | 31.905 | 2 |
| 2025-04-14T18:12:00 | 54.535696 | 7.523825 | 2.0 | 7.940 | 2 | 33.174 | 8.163 | 31.602 | 2 |
| 2025-04-14T18:13:00 | 54.535697 | 7.521732 | 2.0 | 7.948 | 2 | 33.292 | 8.132 | 31.755 | 2 |
| 2025-04-14T18:14:00 | 54.535709 | 7.519604 | 2.0 | 7.976 | 2 | 33.004 | 8.135 | 31.448 | 2 |
| 2025-04-14T18:15:00 | 54.535722 | 7.517454 | 2.0 | 7.973 | 2 | 33.063 | 8.166 | 31.482 | 2 |
| 2025-04-14T18:16:00 | 54.535727 | 7.515300 | 2.0 | 7.975 | 2 | 33.454 | 8.157 | 31.903 | 2 |
| 2025-04-14T18:17:00 | 54.535711 | 7.513152 | 2.0 | 8.001 | 2 | 33.374 | 8.170 | 31.807 | 2 |
| 2025-04-14T18:18:00 | 54.535695 | 7.511020 | 2.0 | 7.998 | 2 | 33.286 | 8.184 | 31.701 | 2 |
| 2025-04-14T18:19:00 | 54.535686 | 7.508883 | 2.0 | 7.984 | 2 | 33.183 | 8.184 | 31.593 | 2 |
| 2025-04-14T18:20:00 | 54.535694 | 7.506763 | 2.0 | 7.966 | 2 | 32.874 | 8.165 | 31.284 | 2 |
| 2025-04-14T18:21:00 | 54.535717 | 7.504634 | 2.0 | 7.986 | 2 | 33.517 | 8.155 | 31.972 | 2 |
| 2025-04-14T18:22:00 | 54.535748 | 7.502515 | 2.0 | 8.028 | 2 | 33.249 | 8.176 | 31.670 | 2 |
| 2025-04-14T18:23:00 | 54.535775 | 7.500409 | 2.0 | 8.065 | 2 | 33.310 | 8.216 | 31.698 | 2 |
| 2025-04-14T18:24:00 | 54.535778 | 7.498300 | 2.0 | 8.097 | 2 | 33.658 | 8.251 | 32.033 | 2 |
| 2025-04-14T18:25:00 | 54.535767 | 7.496199 | 2.0 | 8.140 | 2 | 33.337 | 8.287 | 31.662 | 2 |
| 2025-04-14T18:26:00 | 54.535754 | 7.494107 | 2.0 | 8.203 | 2 | 33.619 | 8.331 | 31.920 | 2 |
| 2025-04-14T18:27:00 | 54.535742 | 7.492030 | 2.0 | 8.354 | 2 | 33.561 | 8.402 | 31.794 | 2 |
| 2025-04-14T18:28:00 | 54.535729 | 7.489966 | 2.0 | 8.375 | 2 | 33.656 | 8.530 | 31.779 | 2 |
| 2025-04-14T18:29:00 | 54.535719 | 7.487891 | 2.0 | 8.326 | 2 | 33.766 | 8.548 | 31.877 | 2 |
| 2025-04-14T18:30:00 | 54.535722 | 7.485798 | 2.0 | 8.327 | 2 | 33.669 | 8.507 | 31.813 | 2 |
| 2025-04-14T18:31:00 | 54.535728 | 7.483713 | 2.0 | 8.331 | 2 | 33.615 | 8.503 | 31.760 | 2 |
| 2025-04-14T18:32:00 | 54.535745 | 7.481627 | 2.0 | 8.326 | 2 | 33.867 | 8.509 | 32.019 | 2 |
| 2025-04-14T18:33:00 | 54.535755 | 7.479551 | 2.0 | 8.328 | 2 | 33.735 | 8.514 | 31.876 | 2 |
| 2025-04-14T18:34:00 | 54.535743 | 7.477452 | 2.0 | 8.065 | 2 | 33.932 | 8.480 | 32.113 | 2 |
| 2025-04-14T18:35:00 | 54.535601 | 7.475368 | 2.0 | 7.944 | 2 | 33.821 | 8.230 | 32.225 | 2 |
| 2025-04-14T18:36:00 | 54.535648 | 7.473279 | 2.0 | 7.884 | 2 | 33.777 | 8.125 | 32.275 | 2 |
| 2025-04-14T18:37:00 | 54.535820 | 7.471191 | 2.0 | 7.844 | 2 | 33.802 | 8.072 | 32.350 | 2 |
| 2025-04-14T18:38:00 | 54.535878 | 7.469064 | 2.0 | 7.822 | 2 | 33.760 | 8.027 | 32.347 | 2 |
| 2025-04-14T18:39:00 | 54.535844 | 7.466940 | 2.0 | 7.830 | 2 | 33.801 | 8.010 | 32.406 | 2 |
| 2025-04-14T18:40:00 | 54.535797 | 7.464815 | 2.0 | 7.843 | 2 | 33.695 | 8.017 | 32.287 | 2 |
| 2025-04-14T18:41:00 | 54.535750 | 7.462686 | 2.0 | 7.853 | 2 | 33.632 | 8.030 | 32.208 | 2 |
| 2025-04-14T18:42:00 | 54.535726 | 7.460555 | 2.0 | 7.867 | 2 | 33.663 | 8.037 | 32.235 | 2 |
| 2025-04-14T18:43:00 | 54.535736 | 7.458419 | 2.0 | 7.881 | 2 | 33.825 | 8.052 | 32.393 | 2 |
| 2025-04-14T18:44:00 | 54.535758 | 7.456294 | 2.0 | 7.896 | 2 | 33.786 | 8.066 | 32.339 | 2 |
| 2025-04-14T18:45:00 | 54.535763 | 7.454182 | 2.0 | 7.927 | 2 | 33.843 | 8.082 | 32.384 | 2 |
| 2025-04-14T18:46:00 | 54.535747 | 7.452067 | 2.0 | 7.956 | 2 | 33.893 | 8.115 | 32.407 | 2 |
| 2025-04-14T18:47:00 | 54.535713 | 7.449936 | 2.0 | 7.963 | 2 | 33.868 | 8.139 | 32.358 | 2 |
| 2025-04-14T18:48:00 | 54.535690 | 7.447828 | 2.0 | 7.933 | 2 | 33.956 | 8.136 | 32.454 | 2 |
| 2025-04-14T18:49:00 | 54.535692 | 7.445722 | 2.0 | 7.900 | 2 | 33.901 | 8.114 | 32.416 | 2 |
| 2025-04-14T18:50:00 | 54.535719 | 7.443568 | 2.0 | 7.882 | 2 | 33.905 | 8.078 | 32.454 | 2 |
| 2025-04-14T18:51:00 | 54.535745 | 7.441389 | 2.0 | 7.842 | 2 | 33.809 | 8.063 | 32.366 | 2 |
| 2025-04-14T18:52:00 | 54.535429 | 7.439536 | 2.0 | 7.793 | 2 | 33.705 | 8.011 | 32.303 | 2 |
| 2025-04-14T18:53:00 | 54.534543 | 7.439053 | 2.0 | 7.798 | 2 | 33.650 | 7.977 | 32.276 | 2 |
| 2025-04-14T18:54:00 | 54.533811 | 7.440150 | 2.0 | 7.816 | 2 | 33.682 | 7.981 | 32.307 | 2 |
| 2025-04-14T18:55:00 | 54.533631 | 7.442213 | 2.0 | 7.878 | 2 | 33.699 | 8.008 | 32.300 | 2 |
| 2025-04-14T18:56:00 | 54.533578 | 7.444555 | 2.0 | 7.907 | 2 | 33.733 | 8.064 | 32.284 | 2 |
| 2025-04-14T18:57:00 | 54.533531 | 7.446671 | 2.0 | 7.939 | 2 | 33.802 | 8.088 | 32.335 | 2 |
| 2025-04-14T18:58:00 | 54.533535 | 7.448779 | 2.0 | 7.963 | 2 | 33.863 | 8.121 | 32.370 | 2 |
| 2025-04-14T18:59:00 | 54.533593 | 7.450962 | 2.0 | 7.990 | 2 | 33.814 | 8.152 | 32.289 | 2 |
| 2025-04-14T19:00:00 | 54.533636 | 7.453190 | 2.0 | 7.967 | 2 | 33.872 | 8.165 | 32.339 | 2 |
| 2025-04-14T19:01:00 | 54.533607 | 7.455446 | 2.0 | 7.925 | 2 | 33.737 | 8.140 | 32.219 | 2 |
| 2025-04-14T19:02:00 | 54.533566 | 7.457723 | 2.0 | 7.893 | 2 | 33.885 | 8.101 | 32.411 | 2 |
| 2025-04-14T19:03:00 | 54.533557 | 7.460012 | 2.0 | 7.870 | 2 | 33.922 | 8.071 | 32.479 | 2 |
| 2025-04-14T19:04:00 | 54.533584 | 7.462308 | 2.0 | 7.855 | 2 | 33.873 | 8.050 | 32.446 | 2 |
| 2025-04-14T19:05:00 | 54.533592 | 7.464616 | 2.0 | 7.846 | 2 | 33.798 | 8.036 | 32.379 | 2 |
| 2025-04-14T19:06:00 | 54.533572 | 7.466931 | 2.0 | 7.830 | 2 | 33.848 | 8.024 | 32.443 | 2 |
| 2025-04-14T19:07:00 | 54.533552 | 7.469219 | 2.0 | 7.837 | 2 | 33.786 | 8.012 | 32.389 | 2 |
| 2025-04-14T19:08:00 | 54.533545 | 7.471469 | 2.0 | 7.837 | 2 | 33.784 | 8.018 | 32.381 | 2 |
| 2025-04-14T19:09:00 | 54.533546 | 7.473694 | 2.0 | 7.911 | 2 | 33.846 | 8.025 | 32.440 | 2 |
| 2025-04-14T19:10:00 | 54.533569 | 7.475914 | 2.0 | 8.108 | 2 | 33.872 | 8.129 | 32.372 | 2 |
| 2025-04-14T19:11:00 | 54.533607 | 7.478135 | 2.0 | 8.239 | 2 | 33.958 | 8.305 | 32.301 | 2 |
| 2025-04-14T19:12:00 | 54.533652 | 7.480356 | 2.0 | 8.289 | 2 | 34.254 | 8.411 | 32.515 | 2 |
| 2025-04-14T19:13:00 | 54.533689 | 7.482581 | 2.0 | 8.344 | 2 | 34.213 | 8.472 | 32.416 | 2 |
| 2025-04-14T19:14:00 | 54.533659 | 7.484811 | 2.0 | 8.410 | 2 | 34.171 | 8.520 | 32.328 | 2 |
| 2025-04-14T19:15:00 | 54.533610 | 7.487044 | 2.0 | 8.448 | 2 | 34.146 | 8.586 | 32.241 | 2 |
| 2025-04-14T19:16:00 | 54.533581 | 7.489289 | 2.0 | 8.442 | 2 | 34.137 | 8.613 | 32.207 | 2 |
| 2025-04-14T19:17:00 | 54.533571 | 7.491545 | 2.0 | 8.424 | 2 | 34.091 | 8.615 | 32.157 | 2 |
| 2025-04-14T19:18:00 | 54.533549 | 7.493811 | 2.0 | 8.344 | 2 | 34.051 | 8.589 | 32.139 | 2 |
| 2025-04-14T19:19:00 | 54.533537 | 7.496085 | 2.0 | 8.244 | 2 | 33.930 | 8.506 | 32.087 | 2 |
| 2025-04-14T19:20:00 | 54.533521 | 7.498359 | 2.0 | 8.119 | 2 | 33.820 | 8.407 | 32.062 | 2 |
| 2025-04-14T19:21:00 | 54.533515 | 7.500638 | 2.0 | 8.037 | 2 | 33.702 | 8.295 | 32.040 | 2 |
| 2025-04-14T19:22:00 | 54.533546 | 7.502916 | 2.0 | 7.981 | 2 | 33.595 | 8.208 | 32.006 | 2 |
| 2025-04-14T19:23:00 | 54.533590 | 7.505183 | 2.0 | 7.971 | 2 | 33.538 | 8.161 | 31.989 | 2 |
| 2025-04-14T19:24:00 | 54.533583 | 7.507446 | 2.0 | 7.953 | 2 | 33.529 | 8.149 | 31.990 | 2 |
| 2025-04-14T19:25:00 | 54.533542 | 7.509699 | 2.0 | 7.930 | 2 | 33.506 | 8.129 | 31.984 | 2 |
| 2025-04-14T19:26:00 | 54.533520 | 7.511943 | 2.0 | 7.924 | 2 | 33.478 | 8.110 | 31.972 | 2 |
| 2025-04-14T19:27:00 | 54.533542 | 7.514183 | 2.0 | 7.922 | 2 | 33.466 | 8.103 | 31.965 | 2 |
| 2025-04-14T19:28:00 | 54.533572 | 7.516423 | 2.0 | 7.937 | 2 | 33.460 | 8.103 | 31.959 | 2 |
| 2025-04-14T19:29:00 | 54.533606 | 7.518665 | 2.0 | 7.979 | 2 | 33.468 | 8.122 | 31.950 | 2 |
| 2025-04-14T19:30:00 | 54.533645 | 7.520896 | 2.0 | 7.981 | 2 | 33.492 | 8.161 | 31.940 | 2 |
| 2025-04-14T19:31:00 | 54.533672 | 7.523123 | 2.0 | 7.955 | 2 | 33.489 | 8.152 | 31.945 | 2 |
| 2025-04-14T19:32:00 | 54.533688 | 7.525349 | 2.0 | 7.975 | 2 | 33.473 | 8.135 | 31.944 | 2 |
| 2025-04-14T19:33:00 | 54.533691 | 7.527564 | 2.0 | 8.000 | 2 | 33.481 | 8.157 | 31.932 | 2 |
| 2025-04-14T19:34:00 | 54.533607 | 7.529736 | 2.0 | 7.997 | 2 | 33.493 | 8.175 | 31.928 | 2 |
| 2025-04-14T19:35:00 | 54.533288 | 7.531935 | 2.0 | 7.992 | 2 | 33.493 | 8.174 | 31.929 | 2 |
| 2025-04-14T19:36:00 | 54.533292 | 7.534072 | 2.0 | 7.965 | 2 | 33.487 | 8.165 | 31.931 | 2 |
| 2025-04-14T19:37:00 | 54.534220 | 7.534678 | 2.0 | 7.951 | 2 | 33.463 | 8.136 | 31.932 | 2 |
| 2025-04-14T19:38:00 | 54.534804 | 7.533280 | 2.0 | 7.978 | 2 | 33.453 | 8.131 | 31.926 | 2 |
| 2025-04-14T19:39:00 | 54.534795 | 7.531024 | 2.0 | 8.020 | 2 | 33.474 | 8.162 | 31.920 | 2 |
| 2025-04-14T19:40:00 | 54.535001 | 7.528744 | 2.0 | 8.015 | 2 | 33.509 | 8.197 | 31.925 | 2 |
| 2025-04-14T19:41:00 | 54.535073 | 7.526524 | 2.0 | 7.975 | 2 | 33.504 | 8.186 | 31.930 | 2 |
| 2025-04-14T19:42:00 | 54.535034 | 7.524320 | 2.0 | 7.964 | 2 | 33.480 | 8.147 | 31.940 | 2 |
| 2025-04-14T19:43:00 | 54.534997 | 7.522147 | 2.0 | 7.978 | 2 | 33.483 | 8.148 | 31.942 | 2 |
| 2025-04-14T19:44:00 | 54.534992 | 7.519993 | 2.0 | 7.945 | 2 | 33.418 | 8.152 | 31.870 | 2 |
| 2025-04-14T19:45:00 | 54.534975 | 7.517839 | 2.0 | 7.918 | 2 | 33.477 | 8.118 | 31.963 | 2 |
| 2025-04-14T19:46:00 | 54.534967 | 7.515641 | 2.0 | 7.929 | 2 | 33.435 | 8.100 | 31.935 | 2 |
| 2025-04-14T19:47:00 | 54.534928 | 7.513439 | 2.0 | 7.953 | 2 | 33.460 | 8.114 | 31.949 | 2 |
| 2025-04-14T19:48:00 | 54.534895 | 7.511239 | 2.0 | 7.992 | 2 | 33.589 | 8.136 | 32.065 | 2 |
| 2025-04-14T19:49:00 | 54.534954 | 7.509046 | 2.0 | 8.006 | 2 | 33.601 | 8.165 | 32.052 | 2 |
| 2025-04-14T19:50:00 | 54.535008 | 7.506847 | 2.0 | 8.069 | 2 | 33.207 | 8.192 | 31.611 | 2 |
| 2025-04-14T19:51:00 | 54.534977 | 7.504634 | 2.0 | 8.282 | 2 | 33.404 | 8.288 | 31.732 | 2 |
| 2025-04-14T19:52:00 | 54.534914 | 7.502436 | 2.0 | 8.345 | 2 | 33.587 | 8.453 | 31.776 | 2 |
| 2025-04-14T19:53:00 | 54.534951 | 7.500235 | 2.0 | 8.380 | 2 | 34.036 | 8.517 | 32.189 | 2 |
| 2025-04-14T19:54:00 | 54.534996 | 7.498009 | 2.0 | 8.362 | 2 | 33.916 | 8.546 | 32.036 | 2 |
| 2025-04-14T19:55:00 | 54.534971 | 7.495782 | 2.0 | 8.339 | 2 | 33.619 | 8.530 | 31.740 | 2 |
| 2025-04-14T19:56:00 | 54.534932 | 7.493544 | 2.0 | 8.257 | 2 | 33.802 | 8.503 | 31.956 | 2 |
| 2025-04-14T19:57:00 | 54.534895 | 7.491301 | 2.0 | 8.147 | 2 | 33.871 | 8.413 | 32.110 | 2 |
| 2025-04-14T19:58:00 | 54.534886 | 7.489056 | 2.0 | 8.022 | 2 | 33.964 | 8.311 | 32.301 | 2 |
| 2025-04-14T19:59:00 | 54.534949 | 7.486817 | 2.0 | 7.819 | 2 | 33.941 | 8.164 | 32.413 | 2 |
| 2025-04-14T20:00:00 | 54.534976 | 7.484588 | 2.0 | 7.790 | 2 | 33.694 | 8.004 | 32.298 | 2 |
| 2025-04-14T20:01:00 | 54.534948 | 7.482346 | 2.0 | 7.808 | 2 | 33.643 | 7.977 | 32.269 | 2 |
| 2025-04-14T20:02:00 | 54.534905 | 7.480103 | 2.0 | 7.820 | 2 | 33.668 | 7.992 | 32.282 | 2 |
| 2025-04-14T20:03:00 | 54.534953 | 7.477864 | 2.0 | 7.833 | 2 | 33.809 | 8.001 | 32.423 | 2 |
| 2025-04-14T20:04:00 | 54.535003 | 7.475628 | 2.0 | 7.860 | 2 | 33.887 | 8.017 | 32.491 | 2 |
| 2025-04-14T20:05:00 | 54.535009 | 7.473401 | 2.0 | 7.888 | 2 | 33.623 | 8.042 | 32.188 | 2 |
| 2025-04-14T20:06:00 | 54.534981 | 7.471168 | 2.0 | 7.916 | 2 | 33.817 | 8.069 | 32.369 | 2 |
| 2025-04-14T20:07:00 | 54.534972 | 7.468951 | 2.0 | 7.907 | 2 | 33.748 | 8.093 | 32.273 | 2 |
| 2025-04-14T20:08:00 | 54.534980 | 7.466721 | 2.0 | 7.863 | 2 | 33.960 | 8.079 | 32.511 | 2 |
| 2025-04-14T20:09:00 | 54.534979 | 7.464491 | 2.0 | 7.823 | 2 | 33.771 | 8.036 | 32.350 | 2 |
| 2025-04-14T20:10:00 | 54.534964 | 7.462263 | 2.0 | 7.756 | 2 | 33.763 | 7.990 | 32.385 | 2 |
| 2025-04-14T20:11:00 | 54.534934 | 7.460059 | 2.0 | 7.736 | 2 | 33.701 | 7.933 | 32.371 | 2 |
| 2025-04-14T20:12:00 | 54.534915 | 7.457870 | 2.0 | 7.735 | 2 | 33.679 | 7.917 | 32.363 | 2 |
| 2025-04-14T20:13:00 | 54.534928 | 7.455670 | 2.0 | 7.741 | 2 | 33.493 | 7.916 | 32.165 | 2 |
| 2025-04-14T20:14:00 | 54.534969 | 7.453491 | 2.0 | 7.753 | 2 | 33.735 | 7.923 | 32.417 | 2 |
| 2025-04-14T20:15:00 | 54.534982 | 7.451315 | 2.0 | 7.763 | 2 | 33.737 | 7.932 | 32.411 | 2 |
| 2025-04-14T20:16:00 | 54.534974 | 7.449128 | 2.0 | 7.778 | 2 | 33.684 | 7.942 | 32.345 | 2 |
| 2025-04-14T20:17:00 | 54.534973 | 7.446961 | 2.0 | 7.801 | 2 | 33.732 | 7.959 | 32.380 | 2 |
| 2025-04-14T20:18:00 | 54.534990 | 7.444785 | 2.0 | 7.828 | 2 | 33.863 | 7.982 | 32.498 | 2 |
| 2025-04-14T20:19:00 | 54.535005 | 7.442563 | 2.0 | 7.843 | 2 | 33.785 | 8.008 | 32.391 | 2 |
| 2025-04-14T20:20:00 | 54.535131 | 7.440330 | 2.0 | 7.852 | 2 | 33.814 | 8.021 | 32.410 | 2 |
| 2025-04-14T20:21:00 | 54.535650 | 7.438247 | 2.0 | 7.882 | 2 | 33.846 | 8.031 | 32.435 | 2 |
| 2025-04-14T20:22:00 | 54.535699 | 7.436110 | 2.0 | 7.912 | 2 | 33.587 | 8.061 | 32.132 | 2 |
| 2025-04-14T20:23:00 | 54.534612 | 7.434766 | 2.0 | 7.924 | 2 | 34.070 | 8.088 | 32.620 | 2 |
| 2025-04-14T20:24:00 | 54.533341 | 7.435530 | 2.0 | 7.901 | 2 | 34.079 | 8.095 | 32.623 | 2 |
| 2025-04-14T20:25:00 | 54.532887 | 7.437525 | 2.0 | 7.865 | 2 | 34.044 | 8.068 | 32.611 | 2 |
| 2025-04-14T20:26:00 | 54.532847 | 7.439881 | 2.0 | 7.853 | 2 | 33.989 | 8.042 | 32.577 | 2 |
| 2025-04-14T20:27:00 | 54.532838 | 7.442339 | 2.0 | 7.846 | 2 | 33.971 | 8.026 | 32.572 | 2 |
| 2025-04-14T20:28:00 | 54.532768 | 7.444731 | 2.0 | 7.824 | 2 | 33.986 | 8.020 | 32.594 | 2 |
| 2025-04-14T20:29:00 | 54.532754 | 7.447074 | 2.0 | 7.817 | 2 | 33.958 | 8.000 | 32.583 | 2 |
| 2025-04-14T20:30:00 | 54.532781 | 7.449395 | 2.0 | 7.812 | 2 | 33.950 | 7.992 | 32.582 | 2 |
| 2025-04-14T20:31:00 | 54.532788 | 7.451705 | 2.0 | 7.814 | 2 | 33.944 | 7.990 | 32.577 | 2 |
| 2025-04-14T20:32:00 | 54.532799 | 7.454004 | 2.0 | 7.809 | 2 | 33.942 | 7.990 | 32.575 | 2 |
| 2025-04-14T20:33:00 | 54.532818 | 7.456302 | 2.0 | 7.790 | 2 | 33.941 | 7.983 | 32.581 | 2 |
| 2025-04-14T20:34:00 | 54.532832 | 7.458600 | 2.0 | 7.771 | 2 | 33.923 | 7.963 | 32.580 | 2 |
| 2025-04-14T20:35:00 | 54.532833 | 7.460901 | 2.0 | 7.754 | 2 | 33.907 | 7.946 | 32.579 | 2 |
| 2025-04-14T20:36:00 | 54.532834 | 7.463201 | 2.0 | 7.749 | 2 | 33.892 | 7.932 | 32.576 | 2 |
| 2025-04-14T20:37:00 | 54.532821 | 7.465500 | 2.0 | 7.746 | 2 | 33.883 | 7.927 | 32.571 | 2 |
| 2025-04-14T20:38:00 | 54.532797 | 7.467759 | 2.0 | 7.742 | 2 | 33.876 | 7.923 | 32.567 | 2 |
| 2025-04-14T20:39:00 | 54.532794 | 7.469990 | 2.0 | 7.732 | 2 | 33.871 | 7.920 | 32.565 | 2 |
| 2025-04-14T20:40:00 | 54.532828 | 7.472193 | 2.0 | 7.721 | 2 | 33.859 | 7.907 | 32.564 | 2 |
| 2025-04-14T20:41:00 | 54.532870 | 7.474379 | 2.0 | 7.724 | 2 | 33.847 | 7.900 | 32.558 | 2 |
| 2025-04-14T20:42:00 | 54.532877 | 7.476568 | 2.0 | 7.730 | 2 | 33.850 | 7.902 | 32.559 | 2 |
| 2025-04-14T20:43:00 | 54.532854 | 7.478758 | 2.0 | 7.745 | 2 | 33.860 | 7.909 | 32.563 | 2 |
| 2025-04-14T20:44:00 | 54.532844 | 7.480942 | 2.0 | 7.773 | 2 | 33.863 | 7.926 | 32.550 | 2 |
| 2025-04-14T20:45:00 | 54.532862 | 7.483118 | 2.0 | 7.825 | 2 | 33.880 | 7.958 | 32.539 | 2 |
| 2025-04-14T20:46:00 | 54.532880 | 7.485306 | 2.0 | 7.840 | 2 | 33.920 | 8.003 | 32.540 | 2 |
| 2025-04-14T20:47:00 | 54.532879 | 7.487501 | 2.0 | 7.869 | 2 | 33.939 | 8.020 | 32.544 | 2 |
| 2025-04-14T20:48:00 | 54.532869 | 7.489702 | 2.0 | 7.891 | 2 | 33.966 | 8.047 | 32.548 | 2 |
| 2025-04-14T20:49:00 | 54.532849 | 7.491903 | 2.0 | 7.887 | 2 | 33.992 | 8.066 | 32.558 | 2 |
| 2025-04-14T20:50:00 | 54.532826 | 7.494104 | 2.0 | 7.885 | 2 | 33.999 | 8.060 | 32.571 | 2 |
| 2025-04-14T20:51:00 | 54.532815 | 7.496309 | 2.0 | 7.878 | 2 | 34.001 | 8.058 | 32.575 | 2 |
| 2025-04-14T20:52:00 | 54.532830 | 7.498529 | 2.0 | 7.869 | 2 | 33.983 | 8.053 | 32.560 | 2 |
| 2025-04-14T20:53:00 | 54.532846 | 7.500756 | 2.0 | 7.863 | 2 | 33.760 | 8.044 | 32.331 | 2 |
| 2025-04-14T20:54:00 | 54.532854 | 7.502987 | 2.0 | 7.847 | 2 | 33.637 | 8.035 | 32.209 | 2 |
| 2025-04-14T20:55:00 | 54.532865 | 7.505211 | 2.0 | 7.820 | 2 | 33.742 | 8.019 | 32.335 | 2 |
| 2025-04-14T20:56:00 | 54.532869 | 7.507429 | 2.0 | 7.804 | 2 | 33.621 | 7.993 | 32.231 | 2 |
| 2025-04-14T20:57:00 | 54.532880 | 7.509645 | 2.0 | 7.804 | 2 | 33.664 | 7.982 | 32.287 | 2 |
| 2025-04-14T20:58:00 | 54.532873 | 7.511872 | 2.0 | 7.799 | 2 | 33.943 | 7.980 | 32.585 | 2 |
| 2025-04-14T20:59:00 | 54.532848 | 7.514111 | 2.0 | 7.787 | 2 | 33.715 | 7.972 | 32.350 | 2 |
| 2025-04-14T21:00:00 | 54.532827 | 7.516330 | 2.0 | 7.784 | 2 | 33.582 | 7.963 | 32.217 | 2 |
| 2025-04-14T21:01:00 | 54.532812 | 7.518559 | 2.0 | 7.770 | 2 | 33.813 | 7.957 | 32.468 | 2 |
| 2025-04-14T21:02:00 | 54.532810 | 7.520795 | 2.0 | 7.814 | 2 | 33.842 | 7.954 | 32.502 | 2 |
| 2025-04-14T21:03:00 | 54.532847 | 7.523023 | 2.0 | 7.885 | 2 | 33.788 | 7.996 | 32.406 | 2 |
| 2025-04-14T21:04:00 | 54.532895 | 7.525242 | 2.0 | 7.961 | 2 | 33.962 | 8.071 | 32.521 | 2 |
| 2025-04-14T21:05:00 | 54.532928 | 7.527457 | 2.0 | 8.113 | 2 | 33.706 | 8.149 | 32.177 | 2 |
| 2025-04-14T21:06:00 | 54.532852 | 7.529673 | 2.0 | 8.197 | 2 | 34.051 | 8.308 | 32.396 | 2 |
| 2025-04-14T21:07:00 | 54.532504 | 7.531766 | 2.0 | 8.237 | 2 | 33.577 | 8.376 | 31.835 | 2 |
| 2025-04-14T21:08:00 | 54.532307 | 7.533840 | 2.0 | 8.244 | 2 | 33.684 | 8.407 | 31.919 | 2 |
| 2025-04-14T21:09:00 | 54.532964 | 7.535131 | 2.0 | 8.201 | 2 | 33.626 | 8.403 | 31.862 | 2 |
| 2025-04-14T21:10:00 | 54.533676 | 7.534427 | 2.0 | 8.151 | 2 | 34.000 | 8.360 | 32.294 | 2 |
| 2025-04-14T21:11:00 | 54.533804 | 7.532497 | 2.0 | 8.062 | 2 | 33.764 | 8.309 | 32.092 | 2 |
| 2025-04-14T21:12:00 | 54.534004 | 7.530277 | 2.0 | 7.955 | 2 | 33.885 | 8.215 | 32.306 | 2 |
| 2025-04-14T21:13:00 | 54.534194 | 7.528090 | 2.0 | 7.809 | 2 | 33.887 | 8.110 | 32.405 | 2 |
| 2025-04-14T21:14:00 | 54.534239 | 7.525928 | 2.0 | 7.777 | 2 | 33.724 | 7.984 | 32.349 | 2 |
| 2025-04-14T21:15:00 | 54.534232 | 7.523695 | 2.0 | 7.786 | 2 | 33.769 | 7.959 | 32.420 | 2 |
| 2025-04-14T21:16:00 | 54.534274 | 7.521407 | 2.0 | 7.792 | 2 | 33.743 | 7.967 | 32.385 | 2 |
| 2025-04-14T21:17:00 | 54.534299 | 7.519139 | 2.0 | 7.807 | 2 | 33.813 | 7.970 | 32.456 | 2 |
| 2025-04-14T21:18:00 | 54.534296 | 7.516904 | 2.0 | 7.838 | 2 | 33.607 | 7.989 | 32.219 | 2 |
| 2025-04-14T21:19:00 | 54.534262 | 7.514693 | 2.0 | 7.873 | 2 | 33.905 | 8.023 | 32.505 | 2 |
| 2025-04-14T21:20:00 | 54.534237 | 7.512488 | 2.0 | 7.814 | 2 | 33.810 | 8.039 | 32.389 | 2 |
| 2025-04-14T21:21:00 | 54.534239 | 7.510283 | 2.0 | 7.760 | 2 | 33.897 | 7.986 | 32.531 | 2 |
| 2025-04-14T21:22:00 | 54.534252 | 7.508090 | 2.0 | 7.725 | 2 | 33.831 | 7.934 | 32.509 | 2 |
| 2025-04-14T21:23:00 | 54.534260 | 7.505884 | 2.0 | 7.729 | 2 | 33.812 | 7.903 | 32.518 | 2 |
| 2025-04-14T21:24:00 | 54.534249 | 7.503670 | 2.0 | 7.756 | 2 | 33.636 | 7.912 | 32.321 | 2 |
| 2025-04-14T21:25:00 | 54.534233 | 7.501474 | 2.0 | 7.768 | 2 | 33.825 | 7.936 | 32.501 | 2 |
| 2025-04-14T21:26:00 | 54.534263 | 7.499286 | 2.0 | 7.771 | 2 | 33.785 | 7.943 | 32.452 | 2 |
| 2025-04-14T21:27:00 | 54.534303 | 7.497097 | 2.0 | 7.777 | 2 | 33.745 | 7.949 | 32.403 | 2 |
| 2025-04-14T21:28:00 | 54.534297 | 7.494896 | 2.0 | 7.791 | 2 | 33.756 | 7.954 | 32.410 | 2 |
| 2025-04-14T21:29:00 | 54.534270 | 7.492701 | 2.0 | 7.798 | 2 | 33.770 | 7.968 | 32.412 | 2 |
| 2025-04-14T21:30:00 | 54.534249 | 7.490512 | 2.0 | 7.799 | 2 | 33.717 | 7.973 | 32.351 | 2 |
| 2025-04-14T21:31:00 | 54.534264 | 7.488313 | 2.0 | 7.803 | 2 | 33.960 | 7.975 | 32.608 | 2 |
| 2025-04-14T21:32:00 | 54.534288 | 7.486107 | 2.0 | 7.826 | 2 | 33.836 | 7.981 | 32.471 | 2 |
| 2025-04-14T21:33:00 | 54.534270 | 7.483887 | 2.0 | 7.846 | 2 | 33.851 | 8.007 | 32.462 | 2 |
| 2025-04-14T21:34:00 | 54.534236 | 7.481663 | 2.0 | 7.841 | 2 | 33.845 | 8.018 | 32.446 | 2 |
| 2025-04-14T21:35:00 | 54.534253 | 7.479430 | 2.0 | 7.858 | 2 | 33.903 | 8.019 | 32.507 | 2 |
| 2025-04-14T21:36:00 | 54.534301 | 7.477194 | 2.0 | 7.873 | 2 | 33.901 | 8.035 | 32.490 | 2 |
| 2025-04-14T21:37:00 | 54.534276 | 7.474984 | 2.0 | 7.876 | 2 | 33.944 | 8.047 | 32.524 | 2 |
| 2025-04-14T21:38:00 | 54.534242 | 7.472817 | 2.0 | 7.876 | 2 | 33.973 | 8.050 | 32.552 | 2 |
| 2025-04-14T21:39:00 | 54.534244 | 7.470668 | 2.0 | 7.901 | 2 | 34.025 | 8.055 | 32.603 | 2 |
| 2025-04-14T21:40:00 | 54.534249 | 7.468498 | 2.0 | 7.920 | 2 | 34.039 | 8.076 | 32.598 | 2 |
| 2025-04-14T21:41:00 | 54.534246 | 7.466305 | 2.0 | 7.930 | 2 | 34.115 | 8.092 | 32.664 | 2 |
| 2025-04-14T21:42:00 | 54.534248 | 7.464100 | 2.0 | 7.967 | 2 | 34.156 | 8.113 | 32.688 | 2 |
| 2025-04-14T21:43:00 | 54.534259 | 7.461896 | 2.0 | 7.976 | 2 | 34.215 | 8.139 | 32.726 | 2 |
| 2025-04-14T21:44:00 | 54.534258 | 7.459685 | 2.0 | 7.987 | 2 | 34.219 | 8.152 | 32.719 | 2 |
| 2025-04-14T21:45:00 | 54.534258 | 7.457462 | 2.0 | 8.001 | 2 | 34.250 | 8.161 | 32.743 | 2 |
| 2025-04-14T21:46:00 | 54.534256 | 7.455241 | 2.0 | 7.996 | 2 | 34.249 | 8.173 | 32.731 | 2 |
| 2025-04-14T21:47:00 | 54.534239 | 7.453020 | 2.0 | 7.956 | 2 | 34.272 | 8.160 | 32.767 | 2 |
| 2025-04-14T21:48:00 | 54.534231 | 7.450790 | 2.0 | 7.946 | 2 | 34.259 | 8.127 | 32.784 | 2 |
| 2025-04-14T21:49:00 | 54.534243 | 7.448546 | 2.0 | 7.954 | 2 | 34.222 | 8.124 | 32.748 | 2 |
| 2025-04-14T21:50:00 | 54.534266 | 7.446301 | 2.0 | 7.966 | 2 | 34.239 | 8.130 | 32.760 | 2 |
| 2025-04-14T21:51:00 | 54.534280 | 7.444063 | 2.0 | 7.964 | 2 | 34.258 | 8.139 | 32.772 | 2 |
| 2025-04-14T21:52:00 | 54.534309 | 7.441829 | 2.0 | 7.968 | 2 | 34.263 | 8.138 | 32.778 | 2 |
| 2025-04-14T21:53:00 | 54.534729 | 7.439777 | 2.0 | 7.993 | 2 | 34.281 | 8.145 | 32.791 | 2 |
| 2025-04-14T21:54:00 | 54.535161 | 7.437686 | 2.0 | 8.021 | 2 | 34.300 | 8.169 | 32.789 | 2 |
| 2025-04-14T21:55:00 | 54.535003 | 7.435566 | 2.0 | 8.029 | 2 | 34.337 | 8.192 | 32.806 | 2 |
| 2025-04-14T21:56:00 | 54.533773 | 7.434713 | 2.0 | 8.030 | 2 | 34.336 | 8.201 | 32.797 | 2 |
| 2025-04-14T21:57:00 | 54.532558 | 7.436075 | 2.0 | 8.042 | 2 | 34.386 | 8.203 | 32.848 | 2 |
| 2025-04-14T21:58:00 | 54.532170 | 7.438478 | 2.0 | 8.026 | 2 | 34.378 | 8.212 | 32.831 | 2 |
| 2025-04-14T21:59:00 | 54.532076 | 7.440892 | 2.0 | 7.993 | 2 | 34.341 | 8.194 | 32.809 | 2 |
| 2025-04-14T22:00:00 | 54.532062 | 7.443218 | 2.0 | 7.963 | 2 | 34.343 | 8.163 | 32.840 | 2 |
| 2025-04-14T22:01:00 | 54.532056 | 7.445439 | 2.0 | 7.936 | 2 | 34.321 | 8.133 | 32.845 | 2 |
| 2025-04-14T22:02:00 | 54.532057 | 7.447588 | 2.0 | 7.929 | 2 | 34.312 | 8.110 | 32.857 | 2 |
| 2025-04-14T22:03:00 | 54.532089 | 7.449684 | 2.0 | 7.927 | 2 | 34.300 | 8.102 | 32.851 | 2 |
| 2025-04-14T22:04:00 | 54.532149 | 7.451743 | 2.0 | 7.934 | 2 | 34.316 | 8.102 | 32.868 | 2 |
| 2025-04-14T22:05:00 | 54.532187 | 7.453804 | 2.0 | 7.940 | 2 | 34.317 | 8.109 | 32.863 | 2 |
| 2025-04-14T22:06:00 | 54.532165 | 7.455956 | 2.0 | 7.946 | 2 | 34.323 | 8.115 | 32.864 | 2 |
| 2025-04-14T22:07:00 | 54.532125 | 7.458163 | 2.0 | 7.945 | 2 | 34.324 | 8.120 | 32.860 | 2 |
| 2025-04-14T22:08:00 | 54.532108 | 7.460404 | 2.0 | 7.931 | 2 | 34.322 | 8.116 | 32.862 | 2 |
| 2025-04-14T22:09:00 | 54.532101 | 7.462666 | 2.0 | 7.911 | 2 | 34.313 | 8.099 | 32.868 | 2 |
| 2025-04-14T22:10:00 | 54.532087 | 7.464927 | 2.0 | 7.931 | 2 | 34.305 | 8.085 | 32.873 | 2 |
| 2025-04-14T22:11:00 | 54.532089 | 7.467135 | 2.0 | 7.947 | 2 | 34.317 | 8.105 | 32.867 | 2 |
| 2025-04-14T22:12:00 | 54.532105 | 7.469309 | 2.0 | 7.960 | 2 | 34.331 | 8.122 | 32.866 | 2 |
| 2025-04-14T22:13:00 | 54.532122 | 7.471463 | 2.0 | 7.963 | 2 | 34.340 | 8.134 | 32.864 | 2 |
| 2025-04-14T22:14:00 | 54.532155 | 7.473627 | 2.0 | 7.967 | 2 | 34.349 | 8.135 | 32.873 | 2 |
| 2025-04-14T22:15:00 | 54.532208 | 7.475810 | 2.0 | 7.936 | 2 | 34.001 | 8.135 | 32.503 | 2 |
| 2025-04-14T22:16:00 | 54.532185 | 7.478025 | 2.0 | 7.921 | 2 | 33.737 | 8.104 | 32.252 | 2 |
| 2025-04-14T22:17:00 | 54.532138 | 7.480247 | 2.0 | 7.921 | 2 | 34.332 | 8.094 | 32.893 | 2 |
| 2025-04-14T22:18:00 | 54.532120 | 7.482457 | 2.0 | 7.927 | 2 | 33.950 | 8.095 | 32.486 | 2 |
| 2025-04-14T22:19:00 | 54.532124 | 7.484657 | 2.0 | 7.921 | 2 | 33.942 | 8.098 | 32.475 | 2 |
| 2025-04-14T22:20:00 | 54.532120 | 7.486848 | 2.0 | 7.924 | 2 | 33.905 | 8.094 | 32.439 | 2 |
| 2025-04-14T22:21:00 | 54.532084 | 7.489031 | 2.0 | 7.921 | 2 | 34.191 | 8.097 | 32.740 | 2 |
| 2025-04-14T22:22:00 | 54.532060 | 7.491215 | 2.0 | 7.904 | 2 | 33.334 | 8.089 | 31.838 | 2 |
| 2025-04-14T22:23:00 | 54.532091 | 7.493396 | 2.0 | 7.884 | 2 | 33.959 | 8.065 | 32.523 | 2 |
| 2025-04-14T22:24:00 | 54.532160 | 7.495571 | 2.0 | 7.897 | 2 | 34.196 | 8.058 | 32.782 | 2 |
| 2025-04-14T22:25:00 | 54.532199 | 7.497752 | 2.0 | 7.875 | 2 | 33.826 | 8.066 | 32.381 | 2 |
| 2025-04-14T22:26:00 | 54.532145 | 7.499947 | 2.0 | 7.844 | 2 | 34.231 | 8.042 | 32.834 | 2 |
| 2025-04-14T22:27:00 | 54.532114 | 7.502137 | 2.0 | 7.841 | 2 | 33.417 | 8.018 | 31.991 | 2 |
| 2025-04-14T22:28:00 | 54.532128 | 7.504311 | 2.0 | 7.830 | 2 | 33.720 | 8.013 | 32.318 | 2 |
| 2025-04-14T22:29:00 | 54.532134 | 7.506495 | 2.0 | 7.826 | 2 | 33.546 | 8.003 | 32.142 | 2 |
| 2025-04-14T22:30:00 | 54.532121 | 7.508693 | 2.0 | 7.840 | 2 | 33.873 | 7.996 | 32.496 | 2 |
| 2025-04-14T22:31:00 | 54.532118 | 7.510903 | 2.0 | 7.832 | 2 | 34.053 | 8.015 | 32.670 | 2 |
| 2025-04-14T22:32:00 | 54.532125 | 7.513111 | 2.0 | 7.798 | 2 | 33.755 | 8.004 | 32.363 | 2 |
| 2025-04-14T22:33:00 | 54.532110 | 7.515321 | 2.0 | 7.801 | 2 | 33.829 | 7.965 | 32.478 | 2 |
| 2025-04-14T22:34:00 | 54.532126 | 7.517528 | 2.0 | 7.799 | 2 | 33.993 | 7.973 | 32.645 | 2 |
| 2025-04-14T22:35:00 | 54.532172 | 7.519732 | 2.0 | 7.825 | 2 | 33.752 | 7.974 | 32.388 | 2 |
| 2025-04-14T22:36:00 | 54.532181 | 7.521957 | 2.0 | 7.848 | 2 | 34.106 | 8.004 | 32.737 | 2 |
| 2025-04-14T22:37:00 | 54.532146 | 7.524181 | 2.0 | 7.843 | 2 | 33.789 | 8.019 | 32.385 | 2 |
| 2025-04-14T22:38:00 | 54.532145 | 7.526393 | 2.0 | 7.836 | 2 | 33.578 | 8.007 | 32.172 | 2 |
| 2025-04-14T22:39:00 | 54.532207 | 7.528583 | 2.0 | 7.810 | 2 | 34.021 | 8.005 | 32.645 | 2 |
| 2025-04-14T22:40:00 | 54.532394 | 7.530725 | 2.0 | 7.768 | 2 | 33.935 | 7.976 | 32.581 | 2 |
| 2025-04-14T22:41:00 | 54.532535 | 7.532889 | 2.0 | 7.760 | 2 | 33.914 | 7.936 | 32.596 | 2 |
| 2025-04-14T22:42:00 | 54.532369 | 7.534990 | 2.0 | 7.750 | 2 | 33.831 | 7.930 | 32.513 | 2 |
| 2025-04-14T22:43:00 | 54.531494 | 7.536644 | 2.0 | 7.761 | 2 | 33.881 | 7.925 | 32.571 | 2 |
| 2025-04-14T22:44:00 | 54.530274 | 7.536485 | 2.0 | 7.781 | 2 | 33.874 | 7.938 | 32.551 | 2 |
| 2025-04-14T22:45:00 | 54.529919 | 7.534756 | 2.0 | 7.787 | 2 | 33.736 | 7.953 | 32.390 | 2 |
| 2025-04-14T22:46:00 | 54.529969 | 7.532598 | 2.0 | 7.795 | 2 | 33.930 | 7.960 | 32.590 | 2 |
| 2025-04-14T22:47:00 | 54.529926 | 7.530438 | 2.0 | 7.795 | 2 | 33.857 | 7.969 | 32.504 | 2 |
| 2025-04-14T22:48:00 | 54.529933 | 7.528280 | 2.0 | 7.802 | 2 | 33.804 | 7.969 | 32.448 | 2 |
| 2025-04-14T22:49:00 | 54.529966 | 7.526127 | 2.0 | 7.796 | 2 | 33.853 | 7.974 | 32.495 | 2 |
| 2025-04-14T22:50:00 | 54.529950 | 7.523961 | 2.0 | 7.797 | 2 | 34.015 | 7.970 | 32.672 | 2 |
| 2025-04-14T22:51:00 | 54.529888 | 7.521797 | 2.0 | 7.823 | 2 | 33.761 | 7.976 | 32.395 | 2 |
| 2025-04-14T22:52:00 | 54.529935 | 7.519642 | 2.0 | 7.821 | 2 | 33.985 | 7.994 | 32.617 | 2 |
| 2025-04-14T22:53:00 | 54.530009 | 7.517484 | 2.0 | 7.827 | 2 | 33.792 | 7.993 | 32.413 | 2 |
| 2025-04-14T22:54:00 | 54.529978 | 7.515315 | 2.0 | 7.814 | 2 | 33.989 | 7.997 | 32.619 | 2 |
| 2025-04-14T22:55:00 | 54.529920 | 7.513134 | 2.0 | 7.759 | 2 | 34.063 | 7.978 | 32.715 | 2 |
| 2025-04-14T22:56:00 | 54.529928 | 7.510957 | 2.0 | 7.785 | 2 | 34.048 | 7.934 | 32.740 | 2 |
| 2025-04-14T22:57:00 | 54.529950 | 7.508766 | 2.0 | 7.799 | 2 | 33.908 | 7.953 | 32.573 | 2 |
| 2025-04-14T22:58:00 | 54.529929 | 7.506562 | 2.0 | 7.809 | 2 | 34.041 | 7.981 | 32.689 | 2 |
| 2025-04-14T22:59:00 | 54.529929 | 7.504334 | 2.0 | 7.786 | 2 | 34.053 | 7.974 | 32.708 | 2 |
| 2025-04-14T23:00:00 | 54.529944 | 7.502104 | 2.0 | 7.844 | 2 | 34.015 | 7.957 | 32.684 | 2 |
| 2025-04-14T23:01:00 | 54.529934 | 7.499879 | 2.0 | 7.836 | 2 | 34.057 | 8.012 | 32.677 | 2 |
| 2025-04-14T23:02:00 | 54.529901 | 7.497653 | 2.0 | 7.834 | 2 | 34.081 | 8.005 | 32.709 | 2 |
| 2025-04-14T23:03:00 | 54.529914 | 7.495434 | 2.0 | 7.838 | 2 | 34.178 | 8.007 | 32.811 | 2 |
| 2025-04-14T23:04:00 | 54.529958 | 7.493225 | 2.0 | 7.810 | 2 | 34.107 | 8.008 | 32.734 | 2 |
| 2025-04-14T23:05:00 | 54.529963 | 7.491020 | 2.0 | 7.746 | 2 | 34.106 | 7.973 | 32.766 | 2 |
| 2025-04-14T23:06:00 | 54.529903 | 7.488797 | 2.0 | 7.756 | 2 | 34.017 | 7.921 | 32.719 | 2 |
| 2025-04-14T23:07:00 | 54.529882 | 7.486581 | 2.0 | 7.785 | 2 | 34.056 | 7.936 | 32.747 | 2 |
| 2025-04-14T23:08:00 | 54.529933 | 7.484384 | 2.0 | 7.804 | 2 | 34.045 | 7.960 | 32.713 | 2 |
| 2025-04-14T23:09:00 | 54.529951 | 7.482182 | 2.0 | 7.833 | 2 | 34.080 | 7.980 | 32.731 | 2 |
| 2025-04-14T23:10:00 | 54.529920 | 7.479952 | 2.0 | 7.835 | 2 | 34.067 | 8.002 | 32.697 | 2 |
| 2025-04-14T23:11:00 | 54.529900 | 7.477726 | 2.0 | 7.845 | 2 | 34.166 | 8.008 | 32.797 | 2 |
| 2025-04-14T23:12:00 | 54.529937 | 7.475484 | 2.0 | 7.907 | 2 | 34.179 | 8.026 | 32.794 | 2 |
| 2025-04-14T23:13:00 | 54.529956 | 7.473223 | 2.0 | 7.919 | 2 | 34.158 | 8.079 | 32.722 | 2 |
| 2025-04-14T23:14:00 | 54.529928 | 7.470948 | 2.0 | 7.905 | 2 | 34.260 | 8.083 | 32.827 | 2 |
| 2025-04-14T23:15:00 | 54.529936 | 7.468688 | 2.0 | 7.936 | 2 | 34.169 | 8.074 | 32.738 | 2 |
| 2025-04-14T23:16:00 | 54.529963 | 7.466456 | 2.0 | 7.961 | 2 | 34.179 | 8.110 | 32.715 | 2 |
| 2025-04-14T23:17:00 | 54.529940 | 7.464235 | 2.0 | 7.966 | 2 | 34.020 | 8.132 | 32.526 | 2 |
| 2025-04-14T23:18:00 | 54.529932 | 7.462015 | 2.0 | 7.961 | 2 | 34.276 | 8.135 | 32.795 | 2 |
| 2025-04-14T23:19:00 | 54.529967 | 7.459800 | 2.0 | 7.986 | 2 | 34.360 | 8.135 | 32.884 | 2 |
| 2025-04-14T23:20:00 | 54.529969 | 7.457583 | 2.0 | 8.055 | 2 | 34.379 | 8.169 | 32.872 | 2 |
| 2025-04-14T23:21:00 | 54.529941 | 7.455369 | 2.0 | 8.107 | 2 | 34.420 | 8.233 | 32.856 | 2 |
| 2025-04-14T23:22:00 | 54.529910 | 7.453157 | 2.0 | 8.125 | 2 | 34.454 | 8.279 | 32.849 | 2 |
| 2025-04-14T23:23:00 | 54.529924 | 7.450963 | 2.0 | 8.122 | 2 | 34.470 | 8.295 | 32.851 | 2 |
| 2025-04-14T23:24:00 | 54.529933 | 7.448773 | 2.0 | 8.093 | 2 | 34.457 | 8.283 | 32.848 | 2 |
| 2025-04-14T23:25:00 | 54.529903 | 7.446585 | 2.0 | 8.109 | 2 | 34.408 | 8.269 | 32.810 | 2 |
| 2025-04-14T23:26:00 | 54.529913 | 7.444402 | 2.0 | 8.129 | 2 | 34.397 | 8.284 | 32.784 | 2 |
| 2025-04-14T23:27:00 | 54.529944 | 7.442239 | 2.0 | 8.150 | 2 | 34.392 | 8.302 | 32.762 | 2 |
| 2025-04-14T23:28:00 | 54.529714 | 7.440142 | 2.0 | 8.211 | 2 | 34.394 | 8.330 | 32.738 | 2 |
| 2025-04-14T23:29:00 | 54.529252 | 7.438123 | 2.0 | 8.276 | 2 | 34.428 | 8.390 | 32.718 | 2 |
| 2025-04-14T23:30:00 | 54.528930 | 7.436085 | 2.0 | 8.336 | 2 | 34.467 | 8.448 | 32.705 | 2 |
| 2025-04-14T23:31:00 | 54.529555 | 7.434412 | 2.0 | 8.349 | 2 | 34.514 | 8.508 | 32.699 | 2 |
| 2025-04-14T23:32:00 | 54.530793 | 7.434496 | 2.0 | 8.342 | 2 | 34.517 | 8.511 | 32.700 | 2 |
| 2025-04-14T23:33:00 | 54.531485 | 7.436148 | 2.0 | 8.336 | 2 | 34.518 | 8.511 | 32.701 | 2 |
| 2025-04-14T23:34:00 | 54.531553 | 7.438131 | 2.0 | 8.300 | 2 | 34.512 | 8.496 | 32.708 | 2 |
| 2025-04-14T23:35:00 | 54.531417 | 7.440200 | 2.0 | 8.264 | 2 | 34.486 | 8.464 | 32.710 | 2 |
| 2025-04-14T23:36:00 | 54.531412 | 7.442382 | 2.0 | 8.210 | 2 | 34.459 | 8.427 | 32.716 | 2 |
| 2025-04-14T23:37:00 | 54.531407 | 7.444615 | 2.0 | 8.175 | 2 | 34.301 | 8.376 | 32.597 | 2 |
| 2025-04-14T23:38:00 | 54.531359 | 7.446841 | 2.0 | 8.152 | 2 | 34.405 | 8.342 | 32.738 | 2 |
| 2025-04-14T23:39:00 | 54.531358 | 7.449043 | 2.0 | 8.150 | 2 | 34.401 | 8.324 | 32.751 | 2 |
| 2025-04-14T23:40:00 | 54.531383 | 7.451226 | 2.0 | 8.144 | 2 | 34.410 | 8.322 | 32.762 | 2 |
| 2025-04-14T23:41:00 | 54.531381 | 7.453402 | 2.0 | 8.139 | 2 | 34.417 | 8.313 | 32.778 | 2 |
| 2025-04-14T23:42:00 | 54.531384 | 7.455575 | 2.0 | 8.120 | 2 | 34.428 | 8.310 | 32.793 | 2 |
| 2025-04-14T23:43:00 | 54.531410 | 7.457751 | 2.0 | 8.067 | 2 | 34.422 | 8.281 | 32.813 | 2 |
| 2025-04-14T23:44:00 | 54.531447 | 7.459919 | 2.0 | 8.034 | 2 | 34.415 | 8.238 | 32.846 | 2 |
| 2025-04-14T23:45:00 | 54.531454 | 7.462078 | 2.0 | 8.012 | 2 | 34.410 | 8.202 | 32.874 | 2 |
| 2025-04-14T23:46:00 | 54.531411 | 7.464224 | 2.0 | 7.995 | 2 | 34.398 | 8.183 | 32.880 | 2 |
| 2025-04-14T23:47:00 | 54.531386 | 7.466337 | 2.0 | 7.972 | 2 | 34.385 | 8.165 | 32.883 | 2 |
| 2025-04-14T23:48:00 | 54.531427 | 7.468439 | 2.0 | 7.926 | 2 | 34.370 | 8.139 | 32.891 | 2 |
| 2025-04-14T23:49:00 | 54.531444 | 7.470539 | 2.0 | 7.902 | 2 | 34.345 | 8.097 | 32.904 | 2 |
| 2025-04-14T23:50:00 | 54.531401 | 7.472633 | 2.0 | 7.885 | 2 | 34.326 | 8.074 | 32.905 | 2 |
| 2025-04-14T23:51:00 | 54.531397 | 7.474747 | 2.0 | 7.863 | 2 | 34.312 | 8.055 | 32.908 | 2 |
| 2025-04-14T23:52:00 | 54.531440 | 7.476861 | 2.0 | 7.838 | 2 | 34.295 | 8.031 | 32.913 | 2 |
| 2025-04-14T23:53:00 | 54.531441 | 7.478995 | 2.0 | 7.821 | 2 | 34.281 | 8.008 | 32.919 | 2 |
| 2025-04-14T23:54:00 | 54.531394 | 7.481134 | 2.0 | 7.810 | 2 | 34.272 | 7.993 | 32.924 | 2 |
| 2025-04-14T23:55:00 | 54.531399 | 7.483271 | 2.0 | 7.802 | 2 | 34.268 | 7.983 | 32.929 | 2 |
| 2025-04-14T23:56:00 | 54.531441 | 7.485394 | 2.0 | 7.803 | 2 | 34.266 | 7.975 | 32.935 | 2 |
| 2025-04-14T23:57:00 | 54.531447 | 7.487517 | 2.0 | 7.805 | 2 | 34.270 | 7.978 | 32.936 | 2 |
| 2025-04-14T23:58:00 | 54.531413 | 7.489656 | 2.0 | 7.793 | 2 | 34.276 | 7.974 | 32.946 | 2 |
| 2025-04-14T23:59:00 | 54.531416 | 7.491867 | 2.0 | 7.795 | 2 | 34.272 | 7.967 | 32.948 | 2 |
| 2025-04-15T00:00:00 | 54.531440 | 7.494116 | 2.0 | 7.805 | 2 | 34.273 | 7.968 | 32.949 | 2 |
| 2025-04-15T00:01:00 | 54.531427 | 7.496382 | 2.0 | 7.815 | 2 | 34.288 | 7.980 | 32.953 | 2 |
| 2025-04-15T00:02:00 | 54.531400 | 7.498632 | 2.0 | 7.814 | 2 | 34.300 | 7.987 | 32.959 | 2 |
| 2025-04-15T00:03:00 | 54.531422 | 7.500828 | 2.0 | 7.808 | 2 | 34.298 | 7.984 | 32.960 | 2 |
| 2025-04-15T00:04:00 | 54.531424 | 7.502994 | 2.0 | 7.803 | 2 | 34.306 | 7.979 | 32.973 | 2 |
| 2025-04-15T00:05:00 | 54.531431 | 7.505121 | 2.0 | 7.727 | 2 | 34.301 | 7.963 | 32.983 | 2 |
| 2025-04-15T00:06:00 | 54.531437 | 7.507239 | 2.0 | 7.746 | 2 | 34.267 | 7.912 | 32.995 | 2 |
| 2025-04-15T00:07:00 | 54.531426 | 7.509349 | 2.0 | 7.688 | 2 | 34.273 | 7.911 | 33.002 | 2 |
| 2025-04-15T00:08:00 | 54.531429 | 7.511485 | 2.0 | 7.617 | 2 | 34.221 | 7.850 | 33.004 | 2 |
| 2025-04-15T00:09:00 | 54.531435 | 7.513655 | 2.0 | 7.681 | 2 | 34.165 | 7.804 | 32.988 | 2 |
| 2025-04-15T00:10:00 | 54.531406 | 7.515852 | 2.0 | 7.681 | 2 | 34.197 | 7.855 | 32.974 | 2 |
| 2025-04-15T00:11:00 | 54.531392 | 7.518060 | 2.0 | 7.647 | 2 | 34.193 | 7.846 | 32.978 | 2 |
| 2025-04-15T00:12:00 | 54.531420 | 7.520282 | 2.0 | 7.680 | 2 | 34.163 | 7.825 | 32.966 | 2 |
| 2025-04-15T00:13:00 | 54.531429 | 7.522505 | 2.0 | 7.679 | 2 | 34.165 | 7.850 | 32.944 | 2 |
| 2025-04-15T00:14:00 | 54.531409 | 7.524716 | 2.0 | 7.689 | 2 | 34.154 | 7.850 | 32.933 | 2 |
| 2025-04-15T00:15:00 | 54.531419 | 7.526913 | 2.0 | 7.690 | 2 | 34.149 | 7.861 | 32.917 | 2 |
| 2025-04-15T00:16:00 | 54.531579 | 7.529069 | 2.0 | 7.682 | 2 | 34.139 | 7.860 | 32.907 | 2 |
| 2025-04-15T00:17:00 | 54.531934 | 7.531174 | 2.0 | 7.633 | 2 | 34.128 | 7.849 | 32.906 | 2 |
| 2025-04-15T00:18:00 | 54.532143 | 7.533318 | 2.0 | 7.626 | 2 | 34.095 | 7.802 | 32.915 | 2 |
| 2025-04-15T00:19:00 | 54.531491 | 7.535153 | 2.0 | 7.684 | 2 | 34.090 | 7.809 | 32.903 | 2 |
| 2025-04-15T00:20:00 | 54.530184 | 7.535385 | 2.0 | 7.735 | 2 | 34.108 | 7.862 | 32.872 | 2 |
| 2025-04-15T00:21:00 | 54.529318 | 7.533799 | 2.0 | 7.730 | 2 | 34.149 | 7.907 | 32.874 | 2 |
| 2025-04-15T00:22:00 | 54.529231 | 7.531567 | 2.0 | 7.685 | 2 | 34.154 | 7.887 | 32.898 | 2 |
| 2025-04-15T00:23:00 | 54.529354 | 7.529252 | 2.0 | 7.630 | 2 | 34.125 | 7.841 | 32.910 | 2 |
| 2025-04-15T00:24:00 | 54.529308 | 7.526994 | 2.0 | 7.649 | 2 | 34.104 | 7.809 | 32.918 | 2 |
| 2025-04-15T00:25:00 | 54.529247 | 7.524740 | 2.0 | 7.659 | 2 | 34.118 | 7.815 | 32.927 | 2 |
| 2025-04-15T00:26:00 | 54.529272 | 7.522479 | 2.0 | 7.681 | 2 | 34.143 | 7.841 | 32.929 | 2 |
| 2025-04-15T00:27:00 | 54.529297 | 7.520231 | 2.0 | 7.738 | 2 | 34.165 | 7.856 | 32.939 | 2 |
| 2025-04-15T00:28:00 | 54.529273 | 7.518003 | 2.0 | 7.743 | 2 | 34.217 | 7.913 | 32.941 | 2 |
| 2025-04-15T00:29:00 | 54.529243 | 7.515784 | 2.0 | 7.769 | 2 | 34.242 | 7.915 | 32.965 | 2 |
| 2025-04-15T00:30:00 | 54.529251 | 7.513582 | 2.0 | 7.773 | 2 | 34.261 | 7.945 | 32.957 | 2 |
| 2025-04-15T00:31:00 | 54.529273 | 7.511396 | 2.0 | 7.761 | 2 | 34.263 | 7.934 | 32.970 | 2 |
| 2025-04-15T00:32:00 | 54.529265 | 7.509203 | 2.0 | 7.788 | 2 | 34.264 | 7.936 | 32.969 | 2 |
| 2025-04-15T00:33:00 | 54.529248 | 7.507009 | 2.0 | 7.782 | 2 | 34.281 | 7.958 | 32.967 | 2 |
| 2025-04-15T00:34:00 | 54.529253 | 7.504804 | 2.0 | 7.782 | 2 | 34.272 | 7.952 | 32.963 | 2 |
| 2025-04-15T00:35:00 | 54.529263 | 7.502587 | 2.0 | 7.778 | 2 | 34.267 | 7.953 | 32.956 | 2 |
| 2025-04-15T00:36:00 | 54.529265 | 7.500372 | 2.0 | 7.778 | 2 | 34.260 | 7.949 | 32.953 | 2 |
| 2025-04-15T00:37:00 | 54.529261 | 7.498156 | 2.0 | 7.774 | 2 | 34.254 | 7.948 | 32.947 | 2 |
| 2025-04-15T00:38:00 | 54.529259 | 7.495938 | 2.0 | 7.778 | 2 | 34.254 | 7.946 | 32.949 | 2 |
| 2025-04-15T00:39:00 | 54.529254 | 7.493716 | 2.0 | 7.784 | 2 | 34.254 | 7.950 | 32.945 | 2 |
| 2025-04-15T00:40:00 | 54.529247 | 7.491510 | 2.0 | 7.801 | 2 | 34.248 | 7.957 | 32.932 | 2 |
| 2025-04-15T00:41:00 | 54.529271 | 7.489299 | 2.0 | 7.826 | 2 | 34.251 | 7.975 | 32.919 | 2 |
| 2025-04-15T00:42:00 | 54.529300 | 7.487077 | 2.0 | 7.850 | 2 | 34.266 | 8.001 | 32.910 | 2 |
| 2025-04-15T00:43:00 | 54.529276 | 7.484846 | 2.0 | 7.870 | 2 | 34.284 | 8.023 | 32.909 | 2 |
| 2025-04-15T00:44:00 | 54.529269 | 7.482603 | 2.0 | 7.886 | 2 | 34.298 | 8.042 | 32.906 | 2 |
| 2025-04-15T00:45:00 | 54.529296 | 7.480347 | 2.0 | 7.918 | 2 | 34.312 | 8.063 | 32.901 | 2 |
| 2025-04-15T00:46:00 | 54.529251 | 7.478124 | 2.0 | 7.950 | 2 | 34.328 | 8.089 | 32.893 | 2 |
| 2025-04-15T00:47:00 | 54.529232 | 7.475923 | 2.0 | 8.029 | 2 | 34.352 | 8.132 | 32.879 | 2 |
| 2025-04-15T00:48:00 | 54.529248 | 7.473742 | 2.0 | 8.074 | 2 | 34.399 | 8.203 | 32.862 | 2 |
| 2025-04-15T00:49:00 | 54.529256 | 7.471569 | 2.0 | 8.089 | 2 | 34.426 | 8.244 | 32.852 | 2 |
| 2025-04-15T00:50:00 | 54.529228 | 7.469418 | 2.0 | 8.122 | 2 | 34.411 | 8.262 | 32.819 | 2 |
| 2025-04-15T00:51:00 | 54.529234 | 7.467289 | 2.0 | 8.133 | 2 | 34.405 | 8.290 | 32.787 | 2 |
| 2025-04-15T00:52:00 | 54.529259 | 7.465124 | 2.0 | 8.134 | 2 | 34.399 | 8.300 | 32.771 | 2 |
| 2025-04-15T00:53:00 | 54.529265 | 7.462913 | 2.0 | 8.152 | 2 | 34.387 | 8.304 | 32.755 | 2 |
| 2025-04-15T00:54:00 | 54.529268 | 7.460672 | 2.0 | 8.173 | 2 | 34.387 | 8.323 | 32.737 | 2 |
| 2025-04-15T00:55:00 | 54.529270 | 7.458398 | 2.0 | 8.216 | 2 | 34.398 | 8.348 | 32.725 | 2 |
| 2025-04-15T00:56:00 | 54.529268 | 7.456127 | 2.0 | 8.259 | 2 | 34.421 | 8.389 | 32.712 | 2 |
| 2025-04-15T00:57:00 | 54.529268 | 7.453863 | 2.0 | 8.299 | 2 | 34.453 | 8.429 | 32.708 | 2 |
| 2025-04-15T00:58:00 | 54.529290 | 7.451608 | 2.0 | 8.320 | 2 | 34.486 | 8.470 | 32.705 | 2 |
| 2025-04-15T00:59:00 | 54.529299 | 7.449354 | 2.0 | 8.332 | 2 | 34.498 | 8.487 | 32.702 | 2 |
| 2025-04-15T01:00:00 | 54.529265 | 7.447101 | 2.0 | 8.312 | 2 | 34.503 | 8.498 | 32.697 | 2 |
| 2025-04-15T01:01:00 | 54.529237 | 7.444843 | 2.0 | 8.311 | 2 | 34.477 | 8.475 | 32.691 | 2 |
| 2025-04-15T01:02:00 | 54.529250 | 7.442595 | 2.0 | 8.323 | 2 | 34.481 | 8.485 | 32.686 | 2 |
| 2025-04-15T01:03:00 | 54.529299 | 7.440335 | 2.0 | 8.349 | 2 | 34.487 | 8.492 | 32.686 | 2 |
| 2025-04-15T01:04:00 | 54.529354 | 7.438078 | 2.0 | 8.431 | 2 | 34.533 | 8.536 | 32.693 | 2 |
| 2025-04-15T01:05:00 | 54.529139 | 7.435924 | 2.0 | 8.425 | 2 | 34.601 | 8.593 | 32.712 | 2 |
| 2025-04-15T01:06:00 | 54.528862 | 7.433790 | 2.0 | 8.406 | 2 | 34.603 | 8.588 | 32.719 | 2 |
| 2025-04-15T01:07:00 | 54.528610 | 7.431677 | 2.0 | 8.378 | 2 | 34.595 | 8.568 | 32.729 | 2 |
| 2025-04-15T01:08:00 | 54.529224 | 7.429691 | 2.0 | 8.333 | 2 | 34.574 | 8.540 | 32.733 | 2 |
| 2025-04-15T01:09:00 | 54.530395 | 7.429541 | 2.0 | 8.326 | 2 | 34.561 | 8.499 | 32.757 | 2 |
| 2025-04-15T01:10:00 | 54.531056 | 7.430998 | 2.0 | 8.386 | 2 | 34.564 | 8.508 | 32.752 | 2 |
| 2025-04-15T01:11:00 | 54.530917 | 7.433110 | 2.0 | 8.418 | 2 | 34.597 | 8.557 | 32.741 | 2 |
| 2025-04-15T01:12:00 | 54.530712 | 7.435252 | 2.0 | 8.438 | 2 | 34.614 | 8.587 | 32.731 | 2 |
| 2025-04-15T01:13:00 | 54.530721 | 7.437267 | 2.0 | 8.441 | 2 | 34.625 | 8.607 | 32.724 | 2 |
| 2025-04-15T01:14:00 | 54.530713 | 7.439275 | 2.0 | 8.360 | 2 | 34.611 | 8.595 | 32.720 | 2 |
| 2025-04-15T01:15:00 | 54.530654 | 7.441318 | 2.0 | 8.322 | 2 | 34.532 | 8.525 | 32.702 | 2 |
| 2025-04-15T01:16:00 | 54.530664 | 7.443469 | 2.0 | 8.313 | 2 | 34.494 | 8.495 | 32.690 | 2 |
| 2025-04-15T01:17:00 | 54.530679 | 7.445680 | 2.0 | 8.297 | 2 | 34.478 | 8.475 | 32.692 | 2 |
| 2025-04-15T01:18:00 | 54.530696 | 7.447930 | 2.0 | 8.321 | 2 | 34.474 | 8.473 | 32.689 | 2 |
| 2025-04-15T01:19:00 | 54.530665 | 7.450191 | 2.0 | 8.308 | 2 | 34.493 | 8.485 | 32.698 | 2 |
| 2025-04-15T01:20:00 | 54.530672 | 7.452398 | 2.0 | 8.297 | 2 | 34.492 | 8.478 | 32.704 | 2 |
| 2025-04-15T01:21:00 | 54.530675 | 7.454560 | 2.0 | 8.249 | 2 | 34.482 | 8.458 | 32.712 | 2 |
| 2025-04-15T01:22:00 | 54.530669 | 7.456697 | 2.0 | 8.223 | 2 | 34.449 | 8.415 | 32.717 | 2 |
| 2025-04-15T01:23:00 | 54.530691 | 7.458814 | 2.0 | 8.201 | 2 | 34.428 | 8.391 | 32.717 | 2 |
| 2025-04-15T01:24:00 | 54.530707 | 7.460925 | 2.0 | 8.167 | 2 | 34.413 | 8.365 | 32.725 | 2 |
| 2025-04-15T01:25:00 | 54.530683 | 7.463044 | 2.0 | 8.149 | 2 | 34.395 | 8.335 | 32.734 | 2 |
| 2025-04-15T01:26:00 | 54.530691 | 7.465181 | 2.0 | 8.140 | 2 | 34.387 | 8.319 | 32.741 | 2 |
| 2025-04-15T01:27:00 | 54.530729 | 7.467347 | 2.0 | 8.135 | 2 | 34.390 | 8.311 | 32.751 | 2 |
| 2025-04-15T01:28:00 | 54.530713 | 7.469519 | 2.0 | 8.131 | 2 | 34.396 | 8.303 | 32.765 | 2 |
| 2025-04-15T01:29:00 | 54.530667 | 7.471703 | 2.0 | 8.111 | 2 | 34.330 | 8.302 | 32.696 | 2 |
| 2025-04-15T01:30:00 | 54.530689 | 7.473885 | 2.0 | 8.054 | 2 | 34.342 | 8.270 | 32.739 | 2 |
| 2025-04-15T01:31:00 | 54.530756 | 7.476054 | 2.0 | 7.989 | 2 | 34.278 | 8.219 | 32.719 | 2 |
| 2025-04-15T01:32:00 | 54.530781 | 7.478206 | 2.0 | 7.926 | 2 | 34.338 | 8.150 | 32.847 | 2 |
| 2025-04-15T01:33:00 | 54.530766 | 7.480322 | 2.0 | 7.868 | 2 | 34.234 | 8.088 | 32.794 | 2 |
| 2025-04-15T01:34:00 | 54.530750 | 7.482408 | 2.0 | 7.836 | 2 | 34.233 | 8.039 | 32.839 | 2 |
| 2025-04-15T01:35:00 | 54.530741 | 7.484453 | 2.0 | 7.816 | 2 | 34.201 | 8.006 | 32.836 | 2 |
| 2025-04-15T01:36:00 | 54.530736 | 7.486473 | 2.0 | 7.814 | 2 | 34.237 | 7.990 | 32.889 | 2 |
| 2025-04-15T01:37:00 | 54.530733 | 7.488476 | 2.0 | 7.799 | 2 | 34.218 | 7.985 | 32.874 | 2 |
| 2025-04-15T01:38:00 | 54.530734 | 7.490489 | 2.0 | 7.781 | 2 | 34.190 | 7.967 | 32.861 | 2 |
| 2025-04-15T01:39:00 | 54.530738 | 7.492519 | 2.0 | 7.777 | 2 | 34.219 | 7.954 | 32.904 | 2 |
| 2025-04-15T01:40:00 | 54.530729 | 7.494564 | 2.0 | 7.766 | 2 | 34.184 | 7.949 | 32.871 | 2 |
| 2025-04-15T01:41:00 | 54.530721 | 7.496612 | 2.0 | 7.753 | 2 | 34.214 | 7.936 | 32.916 | 2 |
| 2025-04-15T01:42:00 | 54.530725 | 7.498645 | 2.0 | 7.735 | 2 | 34.185 | 7.923 | 32.897 | 2 |
| 2025-04-15T01:43:00 | 54.530727 | 7.500679 | 2.0 | 7.719 | 2 | 34.199 | 7.906 | 32.928 | 2 |
| 2025-04-15T01:44:00 | 54.530738 | 7.502735 | 2.0 | 7.716 | 2 | 34.198 | 7.891 | 32.941 | 2 |
| 2025-04-15T01:45:00 | 54.530748 | 7.504806 | 2.0 | 7.772 | 2 | 34.169 | 7.898 | 32.903 | 2 |
| 2025-04-15T01:46:00 | 54.530735 | 7.506890 | 2.0 | 7.763 | 2 | 34.182 | 7.940 | 32.878 | 2 |
| 2025-04-15T01:47:00 | 54.530712 | 7.508980 | 2.0 | 7.760 | 2 | 34.200 | 7.935 | 32.902 | 2 |
| 2025-04-15T01:48:00 | 54.530706 | 7.511060 | 2.0 | 7.763 | 2 | 34.202 | 7.930 | 32.909 | 2 |
| 2025-04-15T01:49:00 | 54.530724 | 7.513124 | 2.0 | 7.747 | 2 | 34.202 | 7.932 | 32.907 | 2 |
| 2025-04-15T01:50:00 | 54.530764 | 7.515163 | 2.0 | 7.732 | 2 | 34.187 | 7.919 | 32.903 | 2 |
| 2025-04-15T01:51:00 | 54.530787 | 7.517179 | 2.0 | 7.745 | 2 | 34.164 | 7.904 | 32.892 | 2 |
| 2025-04-15T01:52:00 | 54.530775 | 7.519198 | 2.0 | 7.744 | 2 | 34.162 | 7.916 | 32.879 | 2 |
| 2025-04-15T01:53:00 | 54.530765 | 7.521238 | 2.0 | 7.766 | 2 | 34.146 | 7.917 | 32.861 | 2 |
| 2025-04-15T01:54:00 | 54.530782 | 7.523306 | 2.0 | 7.781 | 2 | 34.107 | 7.939 | 32.799 | 2 |
| 2025-04-15T01:55:00 | 54.530762 | 7.525386 | 2.0 | 7.799 | 2 | 34.084 | 7.955 | 32.759 | 2 |
| 2025-04-15T01:56:00 | 54.530726 | 7.527469 | 2.0 | 7.812 | 2 | 34.060 | 7.971 | 32.719 | 2 |
| 2025-04-15T01:57:00 | 54.530816 | 7.529567 | 2.0 | 7.811 | 2 | 34.043 | 7.979 | 32.693 | 2 |
| 2025-04-15T01:58:00 | 54.531233 | 7.531615 | 2.0 | 7.802 | 2 | 34.028 | 7.980 | 32.676 | 2 |
| 2025-04-15T01:59:00 | 54.531651 | 7.533684 | 2.0 | 7.796 | 2 | 34.010 | 7.968 | 32.668 | 2 |
| 2025-04-15T02:00:00 | 54.531241 | 7.535723 | 2.0 | 7.808 | 2 | 33.992 | 7.967 | 32.650 | 2 |
| 2025-04-15T02:01:00 | 54.529990 | 7.536656 | 2.0 | 7.834 | 2 | 33.976 | 7.982 | 32.619 | 2 |
| 2025-04-15T02:02:00 | 54.528798 | 7.535580 | 2.0 | 7.915 | 2 | 33.968 | 8.014 | 32.580 | 2 |
| 2025-04-15T02:03:00 | 54.528631 | 7.533212 | 2.0 | 7.967 | 2 | 33.966 | 8.089 | 32.509 | 2 |
| 2025-04-15T02:04:00 | 54.528646 | 7.530765 | 2.0 | 7.992 | 2 | 33.938 | 8.139 | 32.433 | 2 |
| 2025-04-15T02:05:00 | 54.528561 | 7.528477 | 2.0 | 8.040 | 2 | 33.910 | 8.163 | 32.381 | 2 |
| 2025-04-15T02:06:00 | 54.528593 | 7.526251 | 2.0 | 8.031 | 2 | 33.878 | 8.205 | 32.308 | 2 |
| 2025-04-15T02:07:00 | 54.528577 | 7.524134 | 2.0 | 8.051 | 2 | 33.885 | 8.201 | 32.319 | 2 |
| 2025-04-15T02:08:00 | 54.528552 | 7.522073 | 2.0 | 8.058 | 2 | 33.845 | 8.219 | 32.260 | 2 |
| 2025-04-15T02:09:00 | 54.528518 | 7.520017 | 2.0 | 8.058 | 2 | 33.849 | 8.224 | 32.260 | 2 |
| 2025-04-15T02:10:00 | 54.528488 | 7.517943 | 2.0 | 8.011 | 2 | 33.861 | 8.224 | 32.273 | 2 |
| 2025-04-15T02:11:00 | 54.528479 | 7.515848 | 2.0 | 7.975 | 2 | 33.944 | 8.173 | 32.407 | 2 |
| 2025-04-15T02:12:00 | 54.528518 | 7.513720 | 2.0 | 8.042 | 2 | 33.950 | 8.141 | 32.443 | 2 |
| 2025-04-15T02:13:00 | 54.528607 | 7.511580 | 2.0 | 7.947 | 2 | 33.918 | 8.188 | 32.366 | 2 |
| 2025-04-15T02:14:00 | 54.528622 | 7.509437 | 2.0 | 7.996 | 2 | 34.001 | 8.140 | 32.498 | 2 |
| 2025-04-15T02:15:00 | 54.528620 | 7.507286 | 2.0 | 7.942 | 2 | 33.993 | 8.152 | 32.479 | 2 |
| 2025-04-15T02:16:00 | 54.528586 | 7.505132 | 2.0 | 7.921 | 2 | 34.052 | 8.111 | 32.579 | 2 |
| 2025-04-15T02:17:00 | 54.528578 | 7.502947 | 2.0 | 7.957 | 2 | 34.049 | 8.104 | 32.583 | 2 |
| 2025-04-15T02:18:00 | 54.528618 | 7.500748 | 2.0 | 7.920 | 2 | 34.036 | 8.116 | 32.558 | 2 |
| 2025-04-15T02:19:00 | 54.528609 | 7.498577 | 2.0 | 7.852 | 2 | 34.071 | 8.082 | 32.627 | 2 |
| 2025-04-15T02:20:00 | 54.528482 | 7.496459 | 2.0 | 7.848 | 2 | 34.058 | 8.030 | 32.661 | 2 |
| 2025-04-15T02:21:00 | 54.528483 | 7.494291 | 2.0 | 7.844 | 2 | 33.669 | 8.020 | 32.257 | 2 |
| 2025-04-15T02:22:00 | 54.528568 | 7.492081 | 2.0 | 7.842 | 2 | 33.625 | 8.015 | 32.215 | 2 |
| 2025-04-15T02:23:00 | 54.528624 | 7.489886 | 2.0 | 7.838 | 2 | 34.175 | 8.013 | 32.802 | 2 |
| 2025-04-15T02:24:00 | 54.528576 | 7.487757 | 2.0 | 7.832 | 2 | 33.550 | 8.008 | 32.141 | 2 |
| 2025-04-15T02:25:00 | 54.528544 | 7.485631 | 2.0 | 7.835 | 2 | 34.176 | 8.005 | 32.810 | 2 |
| 2025-04-15T02:26:00 | 54.528551 | 7.483478 | 2.0 | 7.830 | 2 | 34.095 | 8.005 | 32.724 | 2 |
| 2025-04-15T02:27:00 | 54.528574 | 7.481314 | 2.0 | 7.823 | 2 | 34.172 | 8.000 | 32.811 | 2 |
| 2025-04-15T02:28:00 | 54.528573 | 7.479173 | 2.0 | 7.819 | 2 | 33.883 | 7.994 | 32.509 | 2 |
| 2025-04-15T02:29:00 | 54.528554 | 7.477061 | 2.0 | 7.818 | 2 | 33.820 | 7.990 | 32.445 | 2 |
| 2025-04-15T02:30:00 | 54.528511 | 7.474958 | 2.0 | 7.830 | 2 | 33.425 | 7.989 | 32.026 | 2 |
| 2025-04-15T02:31:00 | 54.528484 | 7.472855 | 2.0 | 7.853 | 2 | 33.857 | 8.005 | 32.471 | 2 |
| 2025-04-15T02:32:00 | 54.528502 | 7.470746 | 2.0 | 7.884 | 2 | 34.122 | 8.029 | 32.730 | 2 |
| 2025-04-15T02:33:00 | 54.528565 | 7.468628 | 2.0 | 7.922 | 2 | 34.106 | 8.058 | 32.686 | 2 |
| 2025-04-15T02:34:00 | 54.528620 | 7.466516 | 2.0 | 7.963 | 2 | 34.018 | 8.100 | 32.554 | 2 |
| 2025-04-15T02:35:00 | 54.528589 | 7.464444 | 2.0 | 8.004 | 2 | 33.950 | 8.135 | 32.449 | 2 |
| 2025-04-15T02:36:00 | 54.528506 | 7.462379 | 2.0 | 8.096 | 2 | 34.013 | 8.185 | 32.469 | 2 |
| 2025-04-15T02:37:00 | 54.528485 | 7.460290 | 2.0 | 8.137 | 2 | 34.206 | 8.266 | 32.599 | 2 |
| 2025-04-15T02:38:00 | 54.528533 | 7.458176 | 2.0 | 8.156 | 2 | 34.322 | 8.306 | 32.684 | 2 |
| 2025-04-15T02:39:00 | 54.528558 | 7.456033 | 2.0 | 8.158 | 2 | 34.147 | 8.322 | 32.485 | 2 |
| 2025-04-15T02:40:00 | 54.528521 | 7.453872 | 2.0 | 8.179 | 2 | 34.107 | 8.327 | 32.438 | 2 |
| 2025-04-15T02:41:00 | 54.528468 | 7.451681 | 2.0 | 8.166 | 2 | 34.214 | 8.343 | 32.536 | 2 |
| 2025-04-15T02:42:00 | 54.528437 | 7.449479 | 2.0 | 8.186 | 2 | 33.983 | 8.331 | 32.303 | 2 |
| 2025-04-15T02:43:00 | 54.528433 | 7.447275 | 2.0 | 8.234 | 2 | 34.457 | 8.364 | 32.773 | 2 |
| 2025-04-15T02:44:00 | 54.528450 | 7.445066 | 2.0 | 8.255 | 2 | 34.283 | 8.403 | 32.553 | 2 |
| 2025-04-15T02:45:00 | 54.528486 | 7.442849 | 2.0 | 8.271 | 2 | 34.282 | 8.422 | 32.535 | 2 |
| 2025-04-15T02:46:00 | 54.528617 | 7.440632 | 2.0 | 8.275 | 2 | 34.506 | 8.439 | 32.755 | 2 |
| 2025-04-15T02:47:00 | 54.529061 | 7.438594 | 2.0 | 8.260 | 2 | 34.245 | 8.438 | 32.481 | 2 |
| 2025-04-15T02:48:00 | 54.529636 | 7.436700 | 2.0 | 8.204 | 2 | 34.221 | 8.422 | 32.470 | 2 |
| 2025-04-15T02:49:00 | 54.530030 | 7.434679 | 2.0 | 8.192 | 2 | 34.287 | 8.364 | 32.593 | 2 |
| 2025-04-15T02:50:00 | 54.529769 | 7.432733 | 2.0 | 8.230 | 2 | 34.238 | 8.368 | 32.538 | 2 |
| 2025-04-15T02:51:00 | 54.529005 | 7.431830 | 2.0 | 8.247 | 2 | 34.296 | 8.397 | 32.572 | 2 |
| 2025-04-15T02:52:00 | 54.528131 | 7.432205 | 2.0 | 8.229 | 2 | 34.090 | 8.409 | 32.344 | 2 |
| 2025-04-15T02:53:00 | 54.527463 | 7.433585 | 2.0 | 8.285 | 2 | 34.231 | 8.405 | 32.496 | 2 |
| 2025-04-15T02:54:00 | 54.526918 | 7.435420 | 2.0 | 8.320 | 2 | 34.268 | 8.453 | 32.491 | 2 |
| 2025-04-15T02:55:00 | 54.526665 | 7.437480 | 2.0 | 8.288 | 2 | 34.499 | 8.480 | 32.709 | 2 |
| 2025-04-15T02:56:00 | 54.526547 | 7.439626 | 2.0 | 8.325 | 2 | 34.419 | 8.458 | 32.645 | 2 |
| 2025-04-15T02:57:00 | 54.526500 | 7.441695 | 2.0 | 8.324 | 2 | 34.464 | 8.491 | 32.662 | 2 |
| 2025-04-15T02:58:00 | 54.526436 | 7.443691 | 2.0 | 8.313 | 2 | 34.483 | 8.490 | 32.683 | 2 |
| 2025-04-15T02:59:00 | 54.526554 | 7.445650 | 2.0 | 8.280 | 2 | 34.424 | 8.475 | 32.635 | 2 |
| 2025-04-15T03:00:00 | 54.526589 | 7.447697 | 2.0 | 8.196 | 2 | 34.424 | 8.436 | 32.671 | 2 |
| 2025-04-15T03:01:00 | 54.526611 | 7.449849 | 2.0 | 8.092 | 2 | 34.313 | 8.351 | 32.633 | 2 |
| 2025-04-15T03:02:00 | 54.526548 | 7.451992 | 2.0 | 8.023 | 2 | 34.271 | 8.253 | 32.680 | 2 |
| 2025-04-15T03:03:00 | 54.526529 | 7.454134 | 2.0 | 8.000 | 2 | 34.208 | 8.188 | 32.673 | 2 |
| 2025-04-15T03:04:00 | 54.526498 | 7.456276 | 2.0 | 8.007 | 2 | 34.228 | 8.176 | 32.706 | 2 |
| 2025-04-15T03:05:00 | 54.526475 | 7.458413 | 2.0 | 7.981 | 2 | 34.188 | 8.172 | 32.667 | 2 |
| 2025-04-15T03:06:00 | 54.526479 | 7.460550 | 2.0 | 7.962 | 2 | 34.173 | 8.149 | 32.673 | 2 |
| 2025-04-15T03:07:00 | 54.526514 | 7.462707 | 2.0 | 8.027 | 2 | 34.103 | 8.139 | 32.608 | 2 |
| 2025-04-15T03:08:00 | 54.526544 | 7.464814 | 2.0 | 8.081 | 2 | 34.048 | 8.201 | 32.492 | 2 |
| 2025-04-15T03:09:00 | 54.526471 | 7.466875 | 2.0 | 8.117 | 2 | 34.019 | 8.260 | 32.407 | 2 |
| 2025-04-15T03:10:00 | 54.526422 | 7.468950 | 2.0 | 8.132 | 2 | 33.966 | 8.285 | 32.327 | 2 |
| 2025-04-15T03:11:00 | 54.526444 | 7.471044 | 2.0 | 8.139 | 2 | 33.920 | 8.299 | 32.266 | 2 |
| 2025-04-15T03:12:00 | 54.526488 | 7.473162 | 2.0 | 8.142 | 2 | 33.917 | 8.306 | 32.256 | 2 |
| 2025-04-15T03:13:00 | 54.526486 | 7.475285 | 2.0 | 8.145 | 2 | 33.860 | 8.310 | 32.193 | 2 |
| 2025-04-15T03:14:00 | 54.526436 | 7.477375 | 2.0 | 8.146 | 2 | 33.771 | 8.312 | 32.097 | 2 |
| 2025-04-15T03:15:00 | 54.526436 | 7.479503 | 2.0 | 8.143 | 2 | 33.524 | 8.313 | 31.836 | 2 |
| 2025-04-15T03:16:00 | 54.526444 | 7.481658 | 2.0 | 8.148 | 2 | 33.682 | 8.312 | 32.003 | 2 |
| 2025-04-15T03:17:00 | 54.526465 | 7.483808 | 2.0 | 8.160 | 2 | 33.527 | 8.317 | 31.835 | 2 |
| 2025-04-15T03:18:00 | 54.526460 | 7.485919 | 2.0 | 8.170 | 2 | 33.694 | 8.328 | 32.001 | 2 |
| 2025-04-15T03:19:00 | 54.526416 | 7.488018 | 2.0 | 8.178 | 2 | 33.679 | 8.338 | 31.976 | 2 |
| 2025-04-15T03:20:00 | 54.526400 | 7.490094 | 2.0 | 8.182 | 2 | 33.552 | 8.347 | 31.835 | 2 |
| 2025-04-15T03:21:00 | 54.526419 | 7.492176 | 2.0 | 8.186 | 2 | 33.824 | 8.350 | 32.118 | 2 |
| 2025-04-15T03:22:00 | 54.526437 | 7.494276 | 2.0 | 8.188 | 2 | 33.805 | 8.353 | 32.095 | 2 |
| 2025-04-15T03:23:00 | 54.526439 | 7.496382 | 2.0 | 8.191 | 2 | 33.787 | 8.356 | 32.074 | 2 |
| 2025-04-15T03:24:00 | 54.526457 | 7.498499 | 2.0 | 8.196 | 2 | 33.768 | 8.359 | 32.051 | 2 |
| 2025-04-15T03:25:00 | 54.526464 | 7.500651 | 2.0 | 8.203 | 2 | 33.757 | 8.364 | 32.035 | 2 |
| 2025-04-15T03:26:00 | 54.526457 | 7.502816 | 2.0 | 8.209 | 2 | 33.744 | 8.371 | 32.015 | 2 |
| 2025-04-15T03:27:00 | 54.526435 | 7.504961 | 2.0 | 8.213 | 2 | 33.740 | 8.377 | 32.005 | 2 |
| 2025-04-15T03:28:00 | 54.526440 | 7.507104 | 2.0 | 8.209 | 2 | 33.726 | 8.380 | 31.988 | 2 |
| 2025-04-15T03:29:00 | 54.526452 | 7.509226 | 2.0 | 8.205 | 2 | 33.713 | 8.376 | 31.978 | 2 |
| 2025-04-15T03:30:00 | 54.526467 | 7.511305 | 2.0 | 8.198 | 2 | 33.700 | 8.371 | 31.968 | 2 |
| 2025-04-15T03:31:00 | 54.526447 | 7.513349 | 2.0 | 8.194 | 2 | 33.695 | 8.365 | 31.969 | 2 |
| 2025-04-15T03:32:00 | 54.526426 | 7.515374 | 2.0 | 8.189 | 2 | 33.689 | 8.360 | 31.967 | 2 |
| 2025-04-15T03:33:00 | 54.526418 | 7.517392 | 2.0 | 8.188 | 2 | 33.689 | 8.356 | 31.971 | 2 |
| 2025-04-15T03:34:00 | 54.526413 | 7.519417 | 2.0 | 8.191 | 2 | 33.697 | 8.356 | 31.979 | 2 |
| 2025-04-15T03:35:00 | 54.526406 | 7.521426 | 2.0 | 8.194 | 2 | 33.706 | 8.359 | 31.986 | 2 |
| 2025-04-15T03:36:00 | 54.526396 | 7.523446 | 2.0 | 8.205 | 2 | 33.714 | 8.364 | 31.990 | 2 |
| 2025-04-15T03:37:00 | 54.526380 | 7.525470 | 2.0 | 8.208 | 2 | 33.724 | 8.373 | 31.992 | 2 |
| 2025-04-15T03:38:00 | 54.526389 | 7.527528 | 2.0 | 8.202 | 2 | 33.731 | 8.375 | 31.997 | 2 |
| 2025-04-15T03:39:00 | 54.526059 | 7.529369 | 2.0 | 8.196 | 2 | 33.731 | 8.370 | 32.002 | 2 |
| 2025-04-15T03:40:00 | 54.525470 | 7.530959 | 2.0 | 8.190 | 2 | 33.729 | 8.363 | 32.006 | 2 |
| 2025-04-15T03:41:00 | 54.525007 | 7.532645 | 2.0 | 8.182 | 2 | 33.725 | 8.358 | 32.007 | 2 |
| 2025-04-15T03:42:00 | 54.524716 | 7.534377 | 2.0 | 8.165 | 2 | 33.717 | 8.347 | 32.008 | 2 |
| 2025-04-15T03:43:00 | 54.525116 | 7.536097 | 2.0 | 8.134 | 2 | 33.694 | 8.328 | 32.001 | 2 |
| 2025-04-15T03:44:00 | 54.526198 | 7.537274 | 2.0 | 8.116 | 2 | 33.685 | 8.299 | 32.018 | 2 |
| 2025-04-15T03:45:00 | 54.527690 | 7.537149 | 2.0 | 8.111 | 2 | 33.692 | 8.285 | 32.038 | 2 |
| 2025-04-15T03:46:00 | 54.528688 | 7.535340 | 2.0 | 8.119 | 2 | 33.706 | 8.281 | 32.057 | 2 |
| 2025-04-15T03:47:00 | 54.528705 | 7.533227 | 2.0 | 8.142 | 2 | 33.717 | 8.292 | 32.058 | 2 |
| 2025-04-15T03:48:00 | 54.528334 | 7.531152 | 2.0 | 8.165 | 2 | 33.720 | 8.313 | 32.042 | 2 |
| 2025-04-15T03:49:00 | 54.528087 | 7.528817 | 2.0 | 8.176 | 2 | 33.727 | 8.334 | 32.031 | 2 |
| 2025-04-15T03:50:00 | 54.527884 | 7.526504 | 2.0 | 8.184 | 2 | 33.729 | 8.345 | 32.023 | 2 |
| 2025-04-15T03:51:00 | 54.527887 | 7.524202 | 2.0 | 8.194 | 2 | 33.729 | 8.352 | 32.016 | 2 |
| 2025-04-15T03:52:00 | 54.527942 | 7.521937 | 2.0 | 8.201 | 2 | 33.727 | 8.362 | 32.005 | 2 |
| 2025-04-15T03:53:00 | 54.527886 | 7.519755 | 2.0 | 8.203 | 2 | 33.726 | 8.369 | 31.998 | 2 |
| 2025-04-15T03:54:00 | 54.527774 | 7.517656 | 2.0 | 8.199 | 2 | 33.725 | 8.370 | 31.996 | 2 |
| 2025-04-15T03:55:00 | 54.527769 | 7.515526 | 2.0 | 8.191 | 2 | 33.721 | 8.365 | 31.996 | 2 |
| 2025-04-15T03:56:00 | 54.527844 | 7.513357 | 2.0 | 8.185 | 2 | 33.692 | 8.358 | 31.972 | 2 |
| 2025-04-15T03:57:00 | 54.527849 | 7.511213 | 2.0 | 8.182 | 2 | 33.703 | 8.354 | 31.987 | 2 |
| 2025-04-15T03:58:00 | 54.527766 | 7.509131 | 2.0 | 8.177 | 2 | 33.696 | 8.349 | 31.984 | 2 |
| 2025-04-15T03:59:00 | 54.527733 | 7.507033 | 2.0 | 8.176 | 2 | 33.687 | 8.345 | 31.978 | 2 |
| 2025-04-15T04:00:00 | 54.527776 | 7.504912 | 2.0 | 8.172 | 2 | 33.681 | 8.344 | 31.973 | 2 |
| 2025-04-15T04:01:00 | 54.527847 | 7.502776 | 2.0 | 8.167 | 2 | 33.679 | 8.339 | 31.975 | 2 |
| 2025-04-15T04:02:00 | 54.527902 | 7.500642 | 2.0 | 8.167 | 2 | 33.615 | 8.335 | 31.912 | 2 |
| 2025-04-15T04:03:00 | 54.527871 | 7.498549 | 2.0 | 8.175 | 2 | 33.679 | 8.336 | 31.978 | 2 |
| 2025-04-15T04:04:00 | 54.527777 | 7.496521 | 2.0 | 8.174 | 2 | 33.677 | 8.343 | 31.970 | 2 |
| 2025-04-15T04:05:00 | 54.527698 | 7.494509 | 2.0 | 8.174 | 2 | 33.431 | 8.340 | 31.714 | 2 |
| 2025-04-15T04:06:00 | 54.527675 | 7.492451 | 2.0 | 8.184 | 2 | 33.658 | 8.343 | 31.950 | 2 |
| 2025-04-15T04:07:00 | 54.527761 | 7.490315 | 2.0 | 8.199 | 2 | 33.680 | 8.355 | 31.962 | 2 |
| 2025-04-15T04:08:00 | 54.527855 | 7.488148 | 2.0 | 8.212 | 2 | 33.681 | 8.370 | 31.949 | 2 |
| 2025-04-15T04:09:00 | 54.527880 | 7.485992 | 2.0 | 8.220 | 2 | 33.690 | 8.381 | 31.949 | 2 |
| 2025-04-15T04:10:00 | 54.527832 | 7.483913 | 2.0 | 8.225 | 2 | 33.703 | 8.388 | 31.956 | 2 |
| 2025-04-15T04:11:00 | 54.527788 | 7.481848 | 2.0 | 8.226 | 2 | 33.470 | 8.393 | 31.707 | 2 |
| 2025-04-15T04:12:00 | 54.527818 | 7.479761 | 2.0 | 8.225 | 2 | 33.586 | 8.394 | 31.828 | 2 |
| 2025-04-15T04:13:00 | 54.527864 | 7.477675 | 2.0 | 8.222 | 2 | 33.436 | 8.392 | 31.672 | 2 |
| 2025-04-15T04:14:00 | 54.527886 | 7.475607 | 2.0 | 8.219 | 2 | 33.748 | 8.389 | 32.003 | 2 |
| 2025-04-15T04:15:00 | 54.527867 | 7.473550 | 2.0 | 8.220 | 2 | 33.451 | 8.387 | 31.692 | 2 |
| 2025-04-15T04:16:00 | 54.527813 | 7.471520 | 2.0 | 8.221 | 2 | 33.751 | 8.387 | 32.008 | 2 |
| 2025-04-15T04:17:00 | 54.527761 | 7.469497 | 2.0 | 8.223 | 2 | 33.567 | 8.389 | 31.812 | 2 |
| 2025-04-15T04:18:00 | 54.527723 | 7.467466 | 2.0 | 8.225 | 2 | 33.598 | 8.391 | 31.843 | 2 |
| 2025-04-15T04:19:00 | 54.527727 | 7.465413 | 2.0 | 8.224 | 2 | 33.632 | 8.393 | 31.877 | 2 |
| 2025-04-15T04:20:00 | 54.527754 | 7.463347 | 2.0 | 8.217 | 2 | 33.644 | 8.391 | 31.891 | 2 |
| 2025-04-15T04:21:00 | 54.527802 | 7.461255 | 2.0 | 8.210 | 2 | 33.454 | 8.385 | 31.697 | 2 |
| 2025-04-15T04:22:00 | 54.527849 | 7.459162 | 2.0 | 8.203 | 2 | 33.472 | 8.377 | 31.723 | 2 |
| 2025-04-15T04:23:00 | 54.527847 | 7.457089 | 2.0 | 8.199 | 2 | 33.570 | 8.370 | 31.833 | 2 |
| 2025-04-15T04:24:00 | 54.527800 | 7.455049 | 2.0 | 8.202 | 2 | 33.748 | 8.368 | 32.022 | 2 |
| 2025-04-15T04:25:00 | 54.527743 | 7.453033 | 2.0 | 8.210 | 2 | 33.471 | 8.371 | 31.728 | 2 |
| 2025-04-15T04:26:00 | 54.527682 | 7.451043 | 2.0 | 8.214 | 2 | 33.838 | 8.378 | 32.107 | 2 |
| 2025-04-15T04:27:00 | 54.527662 | 7.449027 | 2.0 | 8.206 | 2 | 33.689 | 8.380 | 31.949 | 2 |
| 2025-04-15T04:28:00 | 54.527660 | 7.446996 | 2.0 | 8.193 | 2 | 33.715 | 8.371 | 31.984 | 2 |
| 2025-04-15T04:29:00 | 54.527736 | 7.444928 | 2.0 | 8.187 | 2 | 33.508 | 8.360 | 31.776 | 2 |
| 2025-04-15T04:30:00 | 54.527904 | 7.442848 | 2.0 | 8.184 | 2 | 33.850 | 8.355 | 32.141 | 2 |
| 2025-04-15T04:31:00 | 54.528158 | 7.440799 | 2.0 | 8.182 | 2 | 33.662 | 8.352 | 31.946 | 2 |
| 2025-04-15T04:32:00 | 54.528733 | 7.438974 | 2.0 | 8.181 | 2 | 33.740 | 8.350 | 32.030 | 2 |
| 2025-04-15T04:33:00 | 54.529461 | 7.437360 | 2.0 | 8.179 | 2 | 33.841 | 8.348 | 32.138 | 2 |
| 2025-04-15T04:34:00 | 54.530060 | 7.435481 | 2.0 | 8.177 | 2 | 33.823 | 8.346 | 32.121 | 2 |
| 2025-04-15T04:35:00 | 54.530057 | 7.433526 | 2.0 | 8.176 | 2 | 33.400 | 8.343 | 31.678 | 2 |
| 2025-04-15T04:36:00 | 54.529487 | 7.432253 | 2.0 | 8.177 | 2 | 33.528 | 8.342 | 31.814 | 2 |
| 2025-04-15T04:37:00 | 54.528619 | 7.431947 | 2.0 | 8.182 | 2 | 34.000 | 8.345 | 32.308 | 2 |
| 2025-04-15T04:38:00 | 54.527625 | 7.432524 | 2.0 | 8.186 | 2 | 33.981 | 8.349 | 32.285 | 2 |
| 2025-04-15T04:39:00 | 54.526706 | 7.433785 | 2.0 | 8.192 | 2 | 33.947 | 8.354 | 32.244 | 2 |
| 2025-04-15T04:40:00 | 54.526116 | 7.435481 | 2.0 | 8.197 | 2 | 33.909 | 8.360 | 32.199 | 2 |
| 2025-04-15T04:41:00 | 54.525901 | 7.437526 | 2.0 | 8.197 | 2 | 33.875 | 8.364 | 32.159 | 2 |
| 2025-04-15T04:42:00 | 54.525864 | 7.439713 | 2.0 | 8.210 | 2 | 33.847 | 8.367 | 32.127 | 2 |
| 2025-04-15T04:43:00 | 54.525862 | 7.441843 | 2.0 | 8.216 | 2 | 33.828 | 8.378 | 32.097 | 2 |
| 2025-04-15T04:44:00 | 54.525850 | 7.443900 | 2.0 | 8.216 | 2 | 33.805 | 8.383 | 32.068 | 2 |
| 2025-04-15T04:45:00 | 54.525796 | 7.445908 | 2.0 | 8.227 | 2 | 33.777 | 8.385 | 32.037 | 2 |
| 2025-04-15T04:46:00 | 54.525761 | 7.447919 | 2.0 | 8.252 | 2 | 33.763 | 8.398 | 32.010 | 2 |
| 2025-04-15T04:47:00 | 54.525768 | 7.449928 | 2.0 | 8.252 | 2 | 33.750 | 8.418 | 31.978 | 2 |
| 2025-04-15T04:48:00 | 54.525744 | 7.451916 | 2.0 | 8.244 | 2 | 33.742 | 8.417 | 31.971 | 2 |
| 2025-04-15T04:49:00 | 54.525732 | 7.453873 | 2.0 | 8.243 | 2 | 33.730 | 8.411 | 31.964 | 2 |
| 2025-04-15T04:50:00 | 54.525733 | 7.455813 | 2.0 | 8.242 | 2 | 33.717 | 8.410 | 31.951 | 2 |
| 2025-04-15T04:51:00 | 54.525741 | 7.457781 | 2.0 | 8.232 | 2 | 33.702 | 8.409 | 31.936 | 2 |
| 2025-04-15T04:52:00 | 54.525745 | 7.459792 | 2.0 | 8.219 | 2 | 33.677 | 8.397 | 31.921 | 2 |
| 2025-04-15T04:53:00 | 54.525739 | 7.461832 | 2.0 | 8.225 | 2 | 33.477 | 8.389 | 31.718 | 2 |
| 2025-04-15T04:54:00 | 54.525742 | 7.463865 | 2.0 | 8.229 | 2 | 33.667 | 8.392 | 31.915 | 2 |
| 2025-04-15T04:55:00 | 54.525745 | 7.465895 | 2.0 | 8.230 | 2 | 33.678 | 8.397 | 31.922 | 2 |
| 2025-04-15T04:56:00 | 54.525746 | 7.467887 | 2.0 | 8.228 | 2 | 33.686 | 8.397 | 31.930 | 2 |
| 2025-04-15T04:57:00 | 54.525725 | 7.469888 | 2.0 | 8.224 | 2 | 33.690 | 8.395 | 31.936 | 2 |
| 2025-04-15T04:58:00 | 54.525723 | 7.471889 | 2.0 | 8.218 | 2 | 33.685 | 8.391 | 31.935 | 2 |
| 2025-04-15T04:59:00 | 54.525750 | 7.473867 | 2.0 | 8.202 | 2 | 33.686 | 8.383 | 31.943 | 2 |
| 2025-04-15T05:00:00 | 54.525747 | 7.475842 | 2.0 | 8.163 | 2 | 33.653 | 8.363 | 31.926 | 2 |
| 2025-04-15T05:01:00 | 54.525748 | 7.477795 | 2.0 | 8.142 | 2 | 33.669 | 8.330 | 31.973 | 2 |
| 2025-04-15T05:02:00 | 54.525743 | 7.479764 | 2.0 | 8.144 | 2 | 33.660 | 8.313 | 31.979 | 2 |
| 2025-04-15T05:03:00 | 54.525740 | 7.481739 | 2.0 | 8.142 | 2 | 33.527 | 8.312 | 31.840 | 2 |
| 2025-04-15T05:04:00 | 54.525718 | 7.483709 | 2.0 | 8.141 | 2 | 33.571 | 8.311 | 31.887 | 2 |
| 2025-04-15T05:05:00 | 54.525701 | 7.485677 | 2.0 | 8.140 | 2 | 33.664 | 8.308 | 31.988 | 2 |
| 2025-04-15T05:06:00 | 54.525708 | 7.487642 | 2.0 | 8.139 | 2 | 33.598 | 8.308 | 31.918 | 2 |
| 2025-04-15T05:07:00 | 54.525725 | 7.489621 | 2.0 | 8.138 | 2 | 33.654 | 8.307 | 31.978 | 2 |
| 2025-04-15T05:08:00 | 54.525717 | 7.491598 | 2.0 | 8.138 | 2 | 33.653 | 8.307 | 31.977 | 2 |
| 2025-04-15T05:09:00 | 54.525721 | 7.493584 | 2.0 | 8.132 | 2 | 33.650 | 8.305 | 31.976 | 2 |
| 2025-04-15T05:10:00 | 54.525717 | 7.495601 | 2.0 | 8.124 | 2 | 33.647 | 8.301 | 31.976 | 2 |
| 2025-04-15T05:11:00 | 54.525698 | 7.497641 | 2.0 | 8.115 | 2 | 33.304 | 8.293 | 31.622 | 2 |
| 2025-04-15T05:12:00 | 54.525699 | 7.499691 | 2.0 | 8.108 | 2 | 33.210 | 8.283 | 31.532 | 2 |
| 2025-04-15T05:13:00 | 54.525711 | 7.501731 | 2.0 | 8.084 | 2 | 33.041 | 8.273 | 31.363 | 2 |
| 2025-04-15T05:14:00 | 54.525719 | 7.503769 | 2.0 | 8.079 | 2 | 33.583 | 8.252 | 31.953 | 2 |
| 2025-04-15T05:15:00 | 54.525716 | 7.505818 | 2.0 | 8.075 | 2 | 33.438 | 8.248 | 31.804 | 2 |
| 2025-04-15T05:16:00 | 54.525706 | 7.507881 | 2.0 | 8.054 | 2 | 33.525 | 8.242 | 31.901 | 2 |
| 2025-04-15T05:17:00 | 54.525714 | 7.509949 | 2.0 | 8.046 | 2 | 33.249 | 8.221 | 31.629 | 2 |
| 2025-04-15T05:18:00 | 54.525707 | 7.512043 | 2.0 | 8.012 | 2 | 33.446 | 8.207 | 31.850 | 2 |
| 2025-04-15T05:19:00 | 54.525694 | 7.514145 | 2.0 | 7.999 | 2 | 33.167 | 8.184 | 31.576 | 2 |
| 2025-04-15T05:20:00 | 54.525692 | 7.516251 | 2.0 | 7.958 | 2 | 33.339 | 8.157 | 31.782 | 2 |
| 2025-04-15T05:21:00 | 54.525697 | 7.518366 | 2.0 | 7.952 | 2 | 33.367 | 8.131 | 31.835 | 2 |
| 2025-04-15T05:22:00 | 54.525703 | 7.520487 | 2.0 | 7.927 | 2 | 33.260 | 8.117 | 31.735 | 2 |
| 2025-04-15T05:23:00 | 54.525700 | 7.522618 | 2.0 | 7.910 | 2 | 33.151 | 8.096 | 31.638 | 2 |
| 2025-04-15T05:24:00 | 54.525696 | 7.524761 | 2.0 | 7.886 | 2 | 33.346 | 8.079 | 31.860 | 2 |
| 2025-04-15T05:25:00 | 54.525700 | 7.526922 | 2.0 | 7.823 | 2 | 33.185 | 8.046 | 31.719 | 2 |
| 2025-04-15T05:27:00 | 54.525093 | 7.530861 | 2.0 | 7.809 | 2 | 33.399 | 7.979 | 32.008 | 2 |
| 2025-04-15T05:28:00 | 54.524581 | 7.532646 | 2.0 | 7.817 | 2 | 33.392 | 7.980 | 31.999 | 2 |
| 2025-04-15T05:29:00 | 54.524901 | 7.534811 | 2.0 | 7.821 | 2 | 33.387 | 7.989 | 31.986 | 2 |
| 2025-04-15T05:30:00 | 54.526360 | 7.535641 | 2.0 | 7.812 | 2 | 33.374 | 7.988 | 31.973 | 2 |
| 2025-04-15T05:31:00 | 54.527550 | 7.534130 | 2.0 | 7.831 | 2 | 33.369 | 7.989 | 31.967 | 2 |
| 2025-04-15T05:32:00 | 54.527643 | 7.531940 | 2.0 | 7.821 | 2 | 33.390 | 7.998 | 31.981 | 2 |
| 2025-04-15T05:33:00 | 54.527244 | 7.529677 | 2.0 | 7.812 | 2 | 33.398 | 7.990 | 31.996 | 2 |
| 2025-04-15T05:34:00 | 54.527013 | 7.527166 | 2.0 | 7.811 | 2 | 33.401 | 7.982 | 32.007 | 2 |
| 2025-04-15T05:35:00 | 54.527196 | 7.524527 | 2.0 | 7.812 | 2 | 33.403 | 7.981 | 32.010 | 2 |
| 2025-04-15T05:36:00 | 54.527176 | 7.521985 | 2.0 | 7.847 | 2 | 33.407 | 7.984 | 32.011 | 2 |
| 2025-04-15T05:37:00 | 54.526980 | 7.519530 | 2.0 | 7.900 | 2 | 33.436 | 8.026 | 32.004 | 2 |
| 2025-04-15T05:38:00 | 54.527005 | 7.517014 | 2.0 | 7.918 | 2 | 33.468 | 8.068 | 31.999 | 2 |
| 2025-04-15T05:39:00 | 54.527070 | 7.514507 | 2.0 | 7.924 | 2 | 33.482 | 8.087 | 31.997 | 2 |
| 2025-04-15T05:40:00 | 54.527062 | 7.512046 | 2.0 | 7.937 | 2 | 33.486 | 8.095 | 31.994 | 2 |
| 2025-04-15T05:41:00 | 54.527066 | 7.509599 | 2.0 | 7.950 | 2 | 33.496 | 8.106 | 31.994 | 2 |
| 2025-04-15T05:42:00 | 54.527079 | 7.507155 | 2.0 | 7.961 | 2 | 33.508 | 8.117 | 31.997 | 2 |
| 2025-04-15T05:43:00 | 54.527095 | 7.504695 | 2.0 | 7.975 | 2 | 33.521 | 8.132 | 31.997 | 2 |
| 2025-04-15T05:44:00 | 54.527108 | 7.502225 | 2.0 | 7.989 | 2 | 33.527 | 8.144 | 31.993 | 2 |
| 2025-04-15T05:45:00 | 54.527119 | 7.499767 | 2.0 | 8.013 | 2 | 33.536 | 8.163 | 31.985 | 2 |
| 2025-04-15T05:46:00 | 54.527126 | 7.497310 | 2.0 | 8.019 | 2 | 33.547 | 8.176 | 31.985 | 2 |
| 2025-04-15T05:47:00 | 54.527113 | 7.494869 | 2.0 | 8.029 | 2 | 33.555 | 8.193 | 31.977 | 2 |
| 2025-04-15T05:48:00 | 54.527099 | 7.492417 | 2.0 | 8.019 | 2 | 33.560 | 8.193 | 31.983 | 2 |
| 2025-04-15T05:49:00 | 54.527078 | 7.489956 | 2.0 | 8.057 | 2 | 33.564 | 8.200 | 31.981 | 2 |
| 2025-04-15T05:50:00 | 54.527070 | 7.487475 | 2.0 | 8.055 | 2 | 33.585 | 8.223 | 31.982 | 2 |
| 2025-04-15T05:51:00 | 54.527062 | 7.484997 | 2.0 | 8.064 | 2 | 33.578 | 8.221 | 31.976 | 2 |
| 2025-04-15T05:52:00 | 54.527050 | 7.482510 | 2.0 | 8.061 | 2 | 33.598 | 8.233 | 31.986 | 2 |
| 2025-04-15T05:53:00 | 54.527059 | 7.480005 | 2.0 | 8.072 | 2 | 33.597 | 8.231 | 31.987 | 2 |
| 2025-04-15T05:54:00 | 54.527073 | 7.477482 | 2.0 | 8.077 | 2 | 33.605 | 8.236 | 31.991 | 2 |
| 2025-04-15T05:55:00 | 54.527086 | 7.474943 | 2.0 | 8.083 | 2 | 33.589 | 8.246 | 31.965 | 2 |
| 2025-04-15T05:56:00 | 54.527097 | 7.472384 | 2.0 | 8.083 | 2 | 33.623 | 8.250 | 31.997 | 2 |
| 2025-04-15T05:57:00 | 54.527109 | 7.469818 | 2.0 | 8.081 | 2 | 33.639 | 8.252 | 32.012 | 2 |
| 2025-04-15T05:58:00 | 54.527118 | 7.467273 | 2.0 | 8.069 | 2 | 33.658 | 8.246 | 32.038 | 2 |
| 2025-04-15T05:59:00 | 54.527129 | 7.464733 | 2.0 | 8.052 | 2 | 33.672 | 8.232 | 32.066 | 2 |
| 2025-04-15T06:00:00 | 54.527139 | 7.462193 | 2.0 | 8.052 | 2 | 33.644 | 8.220 | 32.047 | 2 |
| 2025-04-15T06:01:00 | 54.527153 | 7.459653 | 2.0 | 8.050 | 2 | 33.692 | 8.218 | 32.099 | 2 |
| 2025-04-15T06:02:00 | 54.527163 | 7.457113 | 2.0 | 8.048 | 2 | 33.478 | 8.217 | 31.874 | 2 |
| 2025-04-15T06:03:00 | 54.527182 | 7.454564 | 2.0 | 8.055 | 2 | 33.690 | 8.219 | 32.096 | 2 |
| 2025-04-15T06:04:00 | 54.527193 | 7.452027 | 2.0 | 8.050 | 2 | 33.710 | 8.222 | 32.115 | 2 |
| 2025-04-15T06:05:00 | 54.527185 | 7.449511 | 2.0 | 8.055 | 2 | 33.359 | 8.217 | 31.749 | 2 |
| 2025-04-15T06:06:00 | 54.527168 | 7.447004 | 2.0 | 8.054 | 2 | 33.252 | 8.225 | 31.629 | 2 |
| 2025-04-15T06:07:00 | 54.527153 | 7.444516 | 2.0 | 8.056 | 2 | 33.397 | 8.222 | 31.784 | 2 |
| 2025-04-15T06:08:00 | 54.527143 | 7.442051 | 2.0 | 8.057 | 2 | 33.079 | 8.222 | 31.449 | 2 |
| 2025-04-15T06:09:00 | 54.527128 | 7.439641 | 2.0 | 8.061 | 2 | 33.480 | 8.227 | 31.867 | 2 |
| 2025-04-15T06:10:00 | 54.527122 | 7.437347 | 2.0 | 8.072 | 2 | 33.618 | 8.233 | 32.008 | 2 |
| 2025-04-15T06:11:00 | 54.527121 | 7.435143 | 2.0 | 8.087 | 2 | 33.542 | 8.239 | 31.922 | 2 |
| 2025-04-15T06:12:00 | 54.527128 | 7.432986 | 2.0 | 8.103 | 2 | 33.044 | 8.255 | 31.383 | 2 |
| 2025-04-15T06:13:00 | 54.527145 | 7.430857 | 2.0 | 8.119 | 2 | 33.339 | 8.272 | 31.678 | 2 |
| 2025-04-15T06:14:00 | 54.527143 | 7.428768 | 2.0 | 8.133 | 2 | 33.432 | 8.285 | 31.764 | 2 |
| 2025-04-15T06:15:00 | 54.527144 | 7.426702 | 2.0 | 8.153 | 2 | 33.280 | 8.301 | 31.590 | 2 |
| 2025-04-15T06:16:00 | 54.527163 | 7.424650 | 2.0 | 8.166 | 2 | 33.455 | 8.321 | 31.756 | 2 |
| 2025-04-15T06:17:00 | 54.527462 | 7.423081 | 2.0 | 8.177 | 2 | 33.626 | 8.333 | 31.925 | 2 |
| 2025-04-15T06:18:00 | 54.527925 | 7.422555 | 2.0 | 8.180 | 2 | 33.430 | 8.342 | 31.711 | 2 |
| 2025-04-15T06:19:00 | 54.528248 | 7.422306 | 2.0 | 8.183 | 2 | 33.563 | 8.347 | 31.846 | 2 |
| 2025-04-15T06:20:00 | 54.528475 | 7.422136 | 2.0 | 8.185 | 2 | 33.240 | 8.350 | 31.504 | 2 |
| 2025-04-15T06:21:00 | 54.528639 | 7.422000 | 2.0 | 8.185 | 2 | 33.310 | 8.351 | 31.576 | 2 |
| 2025-04-15T06:22:00 | 54.528721 | 7.421794 | 2.0 | 8.185 | 2 | 33.379 | 8.351 | 31.649 | 2 |
| 2025-04-15T06:23:00 | 54.528782 | 7.421523 | 2.0 | 8.185 | 2 | 33.466 | 8.353 | 31.739 | 2 |
| 2025-04-15T06:24:00 | 54.528837 | 7.421206 | 2.0 | 8.188 | 2 | 33.576 | 8.353 | 31.854 | 2 |
| 2025-04-15T06:25:00 | 54.528920 | 7.420920 | 2.0 | 8.187 | 2 | 33.529 | 8.355 | 31.803 | 2 |
| 2025-04-15T06:26:00 | 54.529019 | 7.420663 | 2.0 | 8.182 | 2 | 33.385 | 8.353 | 31.653 | 2 |
| 2025-04-15T06:27:00 | 54.529103 | 7.420396 | 2.0 | 8.183 | 2 | 33.442 | 8.349 | 31.717 | 2 |
| 2025-04-15T06:28:00 | 54.529194 | 7.420107 | 2.0 | 8.186 | 2 | 33.447 | 8.350 | 31.721 | 2 |
| 2025-04-15T06:29:00 | 54.529300 | 7.419843 | 2.0 | 8.188 | 2 | 33.535 | 8.354 | 31.810 | 2 |
| 2025-04-15T06:30:00 | 54.529401 | 7.419608 | 2.0 | 8.188 | 2 | 33.363 | 8.355 | 31.629 | 2 |
| 2025-04-15T06:31:00 | 54.529485 | 7.419392 | 2.0 | 8.187 | 2 | 33.299 | 8.353 | 31.563 | 2 |
| 2025-04-15T06:32:00 | 54.529550 | 7.419356 | 2.0 | 8.182 | 2 | 33.729 | 8.354 | 32.014 | 2 |
| 2025-04-15T06:33:00 | 54.529606 | 7.419445 | 2.0 | 8.177 | 2 | 33.729 | 8.347 | 32.021 | 2 |
| 2025-04-15T06:34:00 | 54.529637 | 7.419567 | 2.0 | 8.179 | 2 | 33.729 | 8.345 | 32.023 | 2 |
| 2025-04-15T06:35:00 | 54.529617 | 7.419994 | 2.0 | 8.167 | 2 | 33.729 | 8.342 | 32.025 | 2 |
| 2025-04-15T06:36:00 | 54.529401 | 7.421625 | 2.0 | 8.152 | 2 | 33.734 | 8.332 | 32.040 | 2 |
| 2025-04-15T06:37:00 | 54.529126 | 7.423627 | 2.0 | 8.135 | 2 | 33.740 | 8.317 | 32.060 | 2 |
| 2025-04-15T06:38:00 | 54.528839 | 7.425672 | 2.0 | 8.108 | 2 | 33.737 | 8.299 | 32.073 | 2 |
| 2025-04-15T06:39:00 | 54.528546 | 7.427749 | 2.0 | 8.089 | 2 | 33.736 | 8.275 | 32.094 | 2 |
| 2025-04-15T06:40:00 | 54.528268 | 7.429669 | 2.0 | 8.068 | 2 | 33.743 | 8.254 | 32.120 | 2 |
| 2025-04-15T06:41:00 | 54.528058 | 7.431198 | 2.0 | 8.038 | 2 | 33.748 | 8.231 | 32.147 | 2 |
| 2025-04-15T06:42:00 | 54.527885 | 7.432466 | 2.0 | 8.031 | 2 | 33.746 | 8.209 | 32.165 | 2 |
| 2025-04-15T06:43:00 | 54.527739 | 7.433585 | 2.0 | 8.032 | 2 | 33.742 | 8.201 | 32.168 | 2 |
| 2025-04-15T06:44:00 | 54.527615 | 7.434554 | 2.0 | 8.020 | 2 | 33.734 | 8.199 | 32.161 | 2 |
| 2025-04-15T06:45:00 | 54.527507 | 7.435439 | 2.0 | 8.022 | 2 | 33.737 | 8.189 | 32.174 | 2 |
| 2025-04-15T06:46:00 | 54.527412 | 7.436234 | 2.0 | 8.022 | 2 | 33.741 | 8.188 | 32.179 | 2 |
| 2025-04-15T06:47:00 | 54.527331 | 7.436885 | 2.0 | 8.038 | 2 | 33.740 | 8.192 | 32.174 | 2 |
| 2025-04-15T06:48:00 | 54.527259 | 7.437459 | 2.0 | 8.042 | 2 | 33.621 | 8.207 | 32.034 | 2 |
| 2025-04-15T06:49:00 | 54.527205 | 7.438007 | 2.0 | 8.023 | 2 | 33.738 | 8.206 | 32.159 | 2 |
| 2025-04-15T06:50:00 | 54.527148 | 7.438505 | 2.0 | 8.019 | 2 | 33.741 | 8.190 | 32.177 | 2 |
| 2025-04-15T06:51:00 | 54.527098 | 7.438966 | 2.0 | 8.019 | 2 | 33.738 | 8.188 | 32.176 | 2 |
| 2025-04-15T06:52:00 | 54.527056 | 7.439422 | 2.0 | 8.020 | 2 | 33.738 | 8.188 | 32.176 | 2 |
| 2025-04-15T06:53:00 | 54.526994 | 7.439894 | 2.0 | 8.020 | 2 | 33.742 | 8.187 | 32.181 | 2 |
| 2025-04-15T06:54:00 | 54.527004 | 7.440854 | 2.0 | 8.016 | 2 | 33.723 | 8.185 | 32.162 | 2 |
| 2025-04-15T06:55:00 | 54.527075 | 7.442907 | 2.0 | 8.009 | 2 | 33.740 | 8.182 | 32.183 | 2 |
| 2025-04-15T06:56:00 | 54.527134 | 7.445789 | 2.0 | 8.004 | 2 | 33.743 | 8.174 | 32.194 | 2 |
| 2025-04-15T06:57:00 | 54.527174 | 7.449473 | 2.0 | 8.015 | 2 | 33.735 | 8.177 | 32.182 | 2 |
| 2025-04-15T06:58:00 | 54.527378 | 7.453660 | 2.0 | 8.021 | 2 | 33.721 | 8.185 | 32.160 | 2 |
| 2025-04-15T06:59:00 | 54.527861 | 7.457946 | 2.0 | 8.010 | 2 | 33.707 | 8.186 | 32.145 | 2 |
| 2025-04-15T07:00:00 | 54.528348 | 7.462312 | 2.0 | 8.021 | 2 | 33.683 | 8.184 | 32.121 | 2 |
| 2025-04-15T07:01:00 | 54.528812 | 7.466705 | 2.0 | 8.016 | 2 | 33.215 | 8.187 | 31.624 | 2 |
| 2025-04-15T07:02:00 | 54.529064 | 7.471137 | 2.0 | 8.000 | 2 | 33.633 | 8.185 | 32.067 | 2 |
| 2025-04-15T07:03:00 | 54.529302 | 7.475606 | 2.0 | 8.004 | 2 | 33.431 | 8.172 | 31.866 | 2 |
| 2025-04-15T07:04:00 | 54.529547 | 7.480106 | 2.0 | 7.977 | 2 | 33.297 | 8.174 | 31.722 | 2 |
| 2025-04-15T07:05:00 | 54.529784 | 7.484596 | 2.0 | 7.921 | 2 | 33.448 | 8.138 | 31.914 | 2 |
| 2025-04-15T07:06:00 | 54.530021 | 7.489089 | 2.0 | 7.900 | 2 | 33.509 | 8.090 | 32.023 | 2 |
| 2025-04-15T07:07:00 | 54.530252 | 7.493596 | 2.0 | 7.898 | 2 | 33.442 | 8.072 | 31.968 | 2 |
| 2025-04-15T07:09:00 | 54.530713 | 7.502617 | 2.0 | 7.850 | 2 | 33.468 | 8.048 | 32.018 | 2 |
| 2025-04-15T07:10:00 | 54.530937 | 7.507137 | 2.0 | 7.839 | 2 | 33.438 | 8.021 | 32.011 | 2 |
| 2025-04-15T07:11:00 | 54.531080 | 7.511181 | 2.0 | 7.832 | 2 | 33.410 | 8.012 | 31.989 | 2 |
| 2025-04-15T07:12:00 | 54.531116 | 7.513664 | 2.0 | 7.829 | 2 | 33.392 | 8.001 | 31.980 | 2 |
| 2025-04-15T07:13:00 | 54.531054 | 7.515059 | 2.0 | 7.832 | 2 | 33.370 | 7.999 | 31.958 | 2 |
| 2025-04-15T07:14:00 | 54.530843 | 7.515771 | 2.0 | 7.838 | 2 | 33.369 | 8.003 | 31.954 | 2 |
| 2025-04-15T07:15:00 | 54.530793 | 7.516248 | 2.0 | 7.837 | 2 | 33.373 | 8.006 | 31.955 | 2 |
| 2025-04-15T07:16:00 | 54.530705 | 7.516475 | 2.0 | 7.837 | 2 | 33.371 | 8.004 | 31.955 | 2 |
| 2025-04-15T07:17:00 | 54.530628 | 7.516489 | 2.0 | 7.840 | 2 | 33.372 | 8.006 | 31.954 | 2 |
| 2025-04-15T07:18:00 | 54.530620 | 7.516413 | 2.0 | 7.836 | 2 | 33.373 | 8.007 | 31.954 | 2 |
| 2025-04-15T07:19:00 | 54.530657 | 7.516335 | 2.0 | 7.832 | 2 | 33.372 | 8.003 | 31.957 | 2 |
| 2025-04-15T07:20:00 | 54.530694 | 7.516262 | 2.0 | 7.835 | 2 | 33.371 | 8.001 | 31.958 | 2 |
| 2025-04-15T07:21:00 | 54.530729 | 7.516178 | 2.0 | 7.834 | 2 | 33.373 | 8.002 | 31.959 | 2 |
| 2025-04-15T07:22:00 | 54.530765 | 7.516110 | 2.0 | 7.831 | 2 | 33.376 | 8.002 | 31.962 | 2 |
| 2025-04-15T07:23:00 | 54.530801 | 7.516107 | 2.0 | 7.835 | 2 | 33.404 | 7.999 | 31.995 | 2 |
| 2025-04-15T07:24:00 | 54.530819 | 7.516153 | 2.0 | 7.839 | 2 | 33.401 | 8.005 | 31.986 | 2 |
| 2025-04-15T07:25:00 | 54.530821 | 7.516168 | 2.0 | 7.840 | 2 | 33.384 | 8.006 | 31.967 | 2 |
| 2025-04-15T07:26:00 | 54.530822 | 7.516170 | 2.0 | 7.835 | 2 | 33.386 | 8.007 | 31.968 | 2 |
| 2025-04-15T07:27:00 | 54.530822 | 7.516177 | 2.0 | 7.841 | 2 | 33.387 | 8.005 | 31.971 | 2 |
| 2025-04-15T07:28:00 | 54.530804 | 7.516192 | 2.0 | 7.841 | 2 | 33.386 | 8.008 | 31.967 | 2 |
| 2025-04-15T07:29:00 | 54.530820 | 7.516159 | 2.0 | 7.840 | 2 | 33.386 | 8.008 | 31.967 | 2 |
| 2025-04-15T07:30:00 | 54.530855 | 7.516122 | 2.0 | 7.842 | 2 | 33.386 | 8.009 | 31.966 | 2 |
| 2025-04-15T07:31:00 | 54.530853 | 7.516111 | 2.0 | 7.839 | 2 | 33.390 | 8.008 | 31.971 | 2 |
| 2025-04-15T07:32:00 | 54.530857 | 7.516110 | 2.0 | 7.848 | 2 | 33.398 | 8.009 | 31.979 | 2 |
| 2025-04-15T07:33:00 | 54.530883 | 7.516123 | 2.0 | 7.835 | 2 | 33.399 | 8.012 | 31.977 | 2 |
| 2025-04-15T07:34:00 | 54.530896 | 7.516166 | 2.0 | 7.838 | 2 | 33.419 | 8.005 | 32.005 | 2 |
| 2025-04-15T07:35:00 | 54.530897 | 7.516238 | 2.0 | 7.851 | 2 | 33.417 | 8.007 | 32.001 | 2 |
| 2025-04-15T07:36:00 | 54.530917 | 7.516312 | 2.0 | 7.841 | 2 | 33.406 | 8.017 | 31.980 | 2 |
| 2025-04-15T07:37:00 | 54.530953 | 7.516323 | 2.0 | 7.840 | 2 | 33.411 | 8.009 | 31.993 | 2 |
| 2025-04-15T07:38:00 | 54.530968 | 7.516250 | 2.0 | 7.839 | 2 | 33.410 | 8.010 | 31.991 | 2 |
| 2025-04-15T07:39:00 | 54.530959 | 7.516144 | 2.0 | 7.837 | 2 | 33.451 | 8.004 | 32.040 | 2 |
| 2025-04-15T07:40:00 | 54.530934 | 7.515967 | 2.0 | 7.829 | 2 | 33.454 | 8.004 | 32.043 | 2 |
| 2025-04-15T07:41:00 | 54.530846 | 7.515890 | 2.0 | 7.831 | 2 | 33.440 | 7.999 | 32.033 | 2 |
| 2025-04-15T07:42:00 | 54.530812 | 7.515832 | 2.0 | 7.834 | 2 | 33.424 | 7.999 | 32.016 | 2 |
| 2025-04-15T07:43:00 | 54.530866 | 7.515777 | 2.0 | 7.844 | 2 | 33.415 | 8.004 | 32.002 | 2 |
| 2025-04-15T07:44:00 | 54.530972 | 7.515728 | 2.0 | 7.848 | 2 | 33.420 | 8.013 | 31.999 | 2 |
| 2025-04-15T07:45:00 | 54.531146 | 7.515692 | 2.0 | 7.845 | 2 | 33.405 | 8.014 | 31.982 | 2 |
| 2025-04-15T07:46:00 | 54.531319 | 7.515679 | 2.0 | 7.847 | 2 | 33.405 | 8.013 | 31.983 | 2 |
| 2025-04-15T07:47:00 | 54.531505 | 7.515838 | 2.0 | 7.850 | 2 | 33.409 | 8.016 | 31.984 | 2 |
| 2025-04-15T07:48:00 | 54.531632 | 7.515839 | 2.0 | 7.856 | 2 | 33.413 | 8.019 | 31.986 | 2 |
| 2025-04-15T07:49:00 | 54.531695 | 7.515841 | 2.0 | 7.865 | 2 | 33.419 | 8.026 | 31.986 | 2 |
| 2025-04-15T07:50:00 | 54.531629 | 7.515853 | 2.0 | 7.854 | 2 | 33.427 | 8.032 | 31.989 | 2 |
| 2025-04-15T07:51:00 | 54.531480 | 7.515936 | 2.0 | 7.853 | 2 | 33.434 | 8.022 | 32.005 | 2 |
| 2025-04-15T07:52:00 | 54.531314 | 7.516114 | 2.0 | 7.854 | 2 | 33.431 | 8.023 | 32.001 | 2 |
| 2025-04-15T07:53:00 | 54.531229 | 7.516196 | 2.0 | 7.857 | 2 | 33.424 | 8.023 | 31.994 | 2 |
| 2025-04-15T07:54:00 | 54.531228 | 7.516282 | 2.0 | 7.857 | 2 | 33.423 | 8.024 | 31.992 | 2 |
| 2025-04-15T07:55:00 | 54.531036 | 7.516337 | 2.0 | 7.854 | 2 | 33.424 | 8.025 | 31.992 | 2 |
| 2025-04-15T07:56:00 | 54.530797 | 7.515398 | 2.0 | 7.852 | 2 | 33.418 | 8.021 | 31.989 | 2 |
| 2025-04-15T07:57:00 | 54.530688 | 7.513563 | 2.0 | 7.851 | 2 | 33.420 | 8.021 | 31.991 | 2 |
| 2025-04-15T07:58:00 | 54.530639 | 7.511310 | 2.0 | 7.858 | 2 | 33.436 | 8.024 | 32.006 | 2 |
| 2025-04-15T07:59:00 | 54.530721 | 7.508845 | 2.0 | 7.869 | 2 | 33.462 | 8.041 | 32.018 | 2 |
| 2025-04-15T08:00:00 | 54.530805 | 7.506267 | 2.0 | 7.883 | 2 | 33.470 | 8.057 | 32.012 | 2 |
| 2025-04-15T08:01:00 | 54.531344 | 7.505295 | 2.0 | 7.893 | 2 | 33.494 | 8.070 | 32.025 | 2 |
| 2025-04-15T08:02:00 | 54.531710 | 7.505396 | 2.0 | 7.892 | 2 | 33.506 | 8.079 | 32.030 | 2 |
| 2025-04-15T08:03:00 | 54.531954 | 7.505540 | 2.0 | 7.894 | 2 | 33.505 | 8.082 | 32.026 | 2 |
| 2025-04-15T08:04:00 | 54.532145 | 7.505663 | 2.0 | 7.897 | 2 | 33.508 | 8.086 | 32.025 | 2 |
| 2025-04-15T08:05:00 | 54.532244 | 7.505636 | 2.0 | 7.907 | 2 | 33.512 | 8.091 | 32.025 | 2 |
| 2025-04-15T08:06:00 | 54.532307 | 7.505473 | 2.0 | 7.910 | 2 | 33.523 | 8.101 | 32.028 | 2 |
| 2025-04-15T08:07:00 | 54.532350 | 7.505290 | 2.0 | 7.916 | 2 | 33.532 | 8.104 | 32.034 | 2 |
| 2025-04-15T08:08:00 | 54.532247 | 7.505228 | 2.0 | 7.931 | 2 | 33.538 | 8.112 | 32.033 | 2 |
| 2025-04-15T08:09:00 | 54.532084 | 7.505291 | 2.0 | 7.932 | 2 | 33.545 | 8.125 | 32.029 | 2 |
| 2025-04-15T08:10:00 | 54.531929 | 7.505355 | 2.0 | 7.931 | 2 | 33.543 | 8.126 | 32.026 | 2 |
| 2025-04-15T08:11:00 | 54.531773 | 7.505533 | 2.0 | 7.935 | 2 | 33.547 | 8.127 | 32.029 | 2 |
| 2025-04-15T08:12:00 | 54.531655 | 7.505689 | 2.0 | 7.929 | 2 | 33.550 | 8.128 | 32.031 | 2 |
| 2025-04-15T08:13:00 | 54.531517 | 7.505857 | 2.0 | 7.933 | 2 | 33.548 | 8.126 | 32.031 | 2 |
| 2025-04-15T08:14:00 | 54.531432 | 7.505950 | 2.0 | 7.928 | 2 | 33.546 | 8.128 | 32.027 | 2 |
| 2025-04-15T08:15:00 | 54.531418 | 7.505937 | 2.0 | 7.924 | 2 | 33.541 | 8.123 | 32.027 | 2 |
| 2025-04-15T08:16:00 | 54.531469 | 7.505949 | 2.0 | 7.929 | 2 | 33.539 | 8.121 | 32.026 | 2 |
| 2025-04-15T08:17:00 | 54.531536 | 7.506072 | 2.0 | 7.927 | 2 | 33.542 | 8.124 | 32.027 | 2 |
| 2025-04-15T08:18:00 | 54.531607 | 7.506533 | 2.0 | 7.931 | 2 | 33.544 | 8.125 | 32.028 | 2 |
| 2025-04-15T08:19:00 | 54.531689 | 7.507307 | 2.0 | 7.925 | 2 | 33.568 | 8.129 | 32.050 | 2 |
| 2025-04-15T08:20:00 | 54.531758 | 7.508066 | 2.0 | 7.931 | 2 | 33.620 | 8.122 | 32.111 | 2 |
| 2025-04-15T08:21:00 | 54.531809 | 7.508987 | 2.0 | 7.935 | 2 | 33.593 | 8.130 | 32.075 | 2 |
| 2025-04-15T08:22:00 | 54.531849 | 7.509968 | 2.0 | 7.930 | 2 | 33.567 | 8.134 | 32.044 | 2 |
| 2025-04-15T08:23:00 | 54.531903 | 7.510606 | 2.0 | 7.915 | 2 | 33.562 | 8.128 | 32.044 | 2 |
| 2025-04-15T08:24:00 | 54.531948 | 7.510742 | 2.0 | 7.929 | 2 | 33.598 | 8.116 | 32.093 | 2 |
| 2025-04-15T08:25:00 | 54.531986 | 7.510732 | 2.0 | 7.936 | 2 | 33.588 | 8.129 | 32.071 | 2 |
| 2025-04-15T08:26:00 | 54.532001 | 7.511074 | 2.0 | 7.941 | 2 | 33.594 | 8.137 | 32.070 | 2 |
| 2025-04-15T08:27:00 | 54.531987 | 7.511674 | 2.0 | 7.937 | 2 | 33.595 | 8.142 | 32.066 | 2 |
| 2025-04-15T08:28:00 | 54.531853 | 7.513364 | 2.0 | 7.924 | 2 | 33.610 | 8.135 | 32.089 | 2 |
| 2025-04-15T08:29:00 | 54.531148 | 7.513631 | 2.0 | 7.929 | 2 | 33.605 | 8.126 | 32.092 | 2 |
| 2025-04-15T08:30:00 | 54.530074 | 7.512579 | 2.0 | 7.924 | 2 | 33.559 | 8.130 | 32.039 | 2 |
| 2025-04-15T08:31:00 | 54.529916 | 7.510174 | 2.0 | 7.933 | 2 | 33.558 | 8.129 | 32.039 | 2 |
| 2025-04-15T08:32:00 | 54.530351 | 7.507315 | 2.0 | 7.958 | 2 | 33.562 | 8.140 | 32.033 | 2 |
| 2025-04-15T08:33:00 | 54.530868 | 7.504218 | 2.0 | 7.967 | 2 | 33.577 | 8.164 | 32.027 | 2 |
| 2025-04-15T08:34:00 | 54.531848 | 7.504144 | 2.0 | 7.964 | 2 | 33.596 | 8.168 | 32.044 | 2 |
| 2025-04-15T08:35:00 | 54.532967 | 7.504170 | 2.0 | 7.962 | 2 | 33.602 | 8.168 | 32.050 | 2 |
| 2025-04-15T08:36:00 | 54.534068 | 7.502974 | 2.0 | 7.976 | 2 | 33.605 | 8.169 | 32.052 | 2 |
| 2025-04-15T08:37:00 | 54.535228 | 7.501353 | 2.0 | 8.043 | 2 | 33.623 | 8.192 | 32.050 | 2 |
| 2025-04-15T08:38:00 | 54.536304 | 7.499842 | 2.0 | 8.094 | 2 | 33.684 | 8.251 | 32.061 | 2 |
| 2025-04-15T08:39:00 | 54.537202 | 7.498639 | 2.0 | 8.090 | 2 | 33.733 | 8.292 | 32.075 | 2 |
| 2025-04-15T08:40:00 | 54.537959 | 7.498263 | 2.0 | 8.090 | 2 | 33.765 | 8.288 | 32.113 | 2 |
| 2025-04-15T08:41:00 | 54.538288 | 7.498902 | 2.0 | 8.090 | 2 | 33.777 | 8.293 | 32.121 | 2 |
| 2025-04-15T08:42:00 | 54.538401 | 7.499301 | 2.0 | 8.096 | 2 | 33.779 | 8.291 | 32.125 | 2 |
| 2025-04-15T08:43:00 | 54.538413 | 7.499357 | 2.0 | 8.093 | 2 | 33.781 | 8.296 | 32.122 | 2 |
| 2025-04-15T08:44:00 | 54.538615 | 7.499568 | 2.0 | 8.080 | 2 | 33.789 | 8.292 | 32.134 | 2 |
| 2025-04-15T08:45:00 | 54.538791 | 7.499837 | 2.0 | 8.084 | 2 | 33.789 | 8.283 | 32.142 | 2 |
| 2025-04-15T08:46:00 | 54.538920 | 7.500074 | 2.0 | 8.085 | 2 | 33.790 | 8.285 | 32.142 | 2 |
| 2025-04-15T08:47:00 | 54.538998 | 7.500290 | 2.0 | 8.091 | 2 | 33.795 | 8.289 | 32.143 | 2 |
| 2025-04-15T08:48:00 | 54.539048 | 7.500651 | 2.0 | 8.084 | 2 | 33.799 | 8.292 | 32.145 | 2 |
| 2025-04-15T08:49:00 | 54.539054 | 7.500769 | 2.0 | 8.094 | 2 | 33.803 | 8.289 | 32.152 | 2 |
| 2025-04-15T08:50:00 | 54.539048 | 7.500745 | 2.0 | 8.077 | 2 | 33.809 | 8.295 | 32.153 | 2 |
| 2025-04-15T08:51:00 | 54.539089 | 7.500774 | 2.0 | 8.085 | 2 | 33.809 | 8.285 | 32.162 | 2 |
| 2025-04-15T08:52:00 | 54.539133 | 7.500889 | 2.0 | 8.055 | 2 | 33.807 | 8.279 | 32.165 | 2 |
| 2025-04-15T08:53:00 | 54.539211 | 7.501184 | 2.0 | 8.058 | 2 | 33.800 | 8.262 | 32.173 | 2 |
| 2025-04-15T08:54:00 | 54.539247 | 7.501179 | 2.0 | 8.080 | 2 | 33.746 | 8.264 | 32.114 | 2 |
| 2025-04-15T08:55:00 | 54.539232 | 7.501238 | 2.0 | 8.008 | 2 | 33.746 | 8.273 | 32.106 | 2 |
| 2025-04-15T08:56:00 | 54.539228 | 7.501248 | 2.0 | 8.002 | 2 | 33.774 | 8.214 | 32.190 | 2 |
| 2025-04-15T08:57:00 | 54.539277 | 7.501498 | 2.0 | 8.004 | 2 | 33.744 | 8.215 | 32.157 | 2 |
| 2025-04-15T08:58:00 | 54.539350 | 7.501719 | 2.0 | 8.064 | 2 | 33.806 | 8.231 | 32.208 | 2 |
| 2025-04-15T08:59:00 | 54.539538 | 7.502169 | 2.0 | 8.082 | 2 | 33.750 | 8.272 | 32.111 | 2 |
| 2025-04-15T09:00:00 | 54.539759 | 7.503052 | 2.0 | 8.097 | 2 | 33.734 | 8.295 | 32.073 | 2 |
| 2025-04-15T09:01:00 | 54.539721 | 7.505321 | 2.0 | 8.103 | 2 | 33.759 | 8.307 | 32.089 | 2 |
| 2025-04-15T09:02:00 | 54.538165 | 7.507438 | 2.0 | 8.080 | 2 | 33.755 | 8.297 | 32.094 | 2 |
| 2025-04-15T09:03:00 | 54.536877 | 7.505083 | 2.0 | 8.102 | 2 | 33.750 | 8.301 | 32.085 | 2 |
| 2025-04-15T09:04:00 | 54.536462 | 7.500867 | 2.0 | 8.107 | 2 | 33.754 | 8.314 | 32.077 | 2 |
| 2025-04-15T09:05:00 | 54.537692 | 7.497235 | 2.0 | 8.093 | 2 | 33.801 | 8.319 | 32.122 | 2 |
| 2025-04-15T09:06:00 | 54.540266 | 7.495765 | 2.0 | 8.101 | 2 | 33.851 | 8.307 | 32.186 | 2 |
| 2025-04-15T09:07:00 | 54.543115 | 7.496113 | 2.0 | 8.144 | 2 | 33.863 | 8.320 | 32.187 | 2 |
| 2025-04-15T09:08:00 | 54.545985 | 7.496436 | 2.0 | 8.145 | 2 | 33.882 | 8.359 | 32.171 | 2 |
| 2025-04-15T09:09:00 | 54.548412 | 7.497166 | 2.0 | 8.156 | 2 | 33.905 | 8.360 | 32.194 | 2 |
| 2025-04-15T09:10:00 | 54.550229 | 7.498163 | 2.0 | 8.165 | 2 | 33.902 | 8.369 | 32.183 | 2 |
| 2025-04-15T09:11:00 | 54.551446 | 7.499175 | 2.0 | 8.168 | 2 | 33.899 | 8.374 | 32.175 | 2 |
| 2025-04-15T09:12:00 | 54.551673 | 7.500082 | 2.0 | 8.167 | 2 | 33.897 | 8.372 | 32.175 | 2 |
| 2025-04-15T09:13:00 | 54.551758 | 7.500053 | 2.0 | 8.168 | 2 | 33.898 | 8.375 | 32.173 | 2 |
| 2025-04-15T09:14:00 | 54.551784 | 7.499918 | 2.0 | 8.157 | 2 | 33.900 | 8.377 | 32.174 | 2 |
| 2025-04-15T09:15:00 | 54.551793 | 7.500101 | 2.0 | 8.141 | 2 | 33.906 | 8.362 | 32.194 | 2 |
| 2025-04-15T09:16:00 | 54.551774 | 7.500158 | 2.0 | 8.125 | 2 | 33.915 | 8.348 | 32.216 | 2 |
| 2025-04-15T09:17:00 | 54.551792 | 7.500476 | 2.0 | 8.088 | 2 | 33.922 | 8.337 | 32.233 | 2 |
| 2025-04-15T09:18:00 | 54.551820 | 7.501602 | 2.0 | 8.160 | 2 | 33.942 | 8.307 | 32.282 | 2 |
| 2025-04-15T09:19:00 | 54.551844 | 7.503419 | 2.0 | 8.129 | 2 | 33.919 | 8.353 | 32.215 | 2 |
| 2025-04-15T09:20:00 | 54.551877 | 7.504742 | 2.0 | 8.085 | 2 | 33.917 | 8.351 | 32.215 | 2 |
| 2025-04-15T09:21:00 | 54.551865 | 7.505465 | 2.0 | 8.039 | 2 | 33.948 | 8.267 | 32.325 | 2 |
| 2025-04-15T09:22:00 | 54.551832 | 7.505735 | 2.0 | 8.128 | 2 | 33.937 | 8.275 | 32.306 | 2 |
| 2025-04-15T09:23:00 | 54.551857 | 7.506097 | 2.0 | 8.146 | 2 | 33.922 | 8.337 | 32.233 | 2 |
| 2025-04-15T09:24:00 | 54.551908 | 7.506398 | 2.0 | 8.150 | 2 | 33.925 | 8.361 | 32.214 | 2 |
| 2025-04-15T09:25:00 | 54.552189 | 7.507253 | 2.0 | 8.176 | 2 | 33.927 | 8.364 | 32.214 | 2 |
| 2025-04-15T09:26:00 | 54.552683 | 7.509203 | 2.0 | 8.178 | 2 | 33.920 | 8.386 | 32.186 | 2 |
| 2025-04-15T09:27:00 | 54.553148 | 7.511782 | 2.0 | 8.182 | 2 | 33.916 | 8.397 | 32.172 | 2 |
| 2025-04-15T09:28:00 | 54.552491 | 7.513018 | 2.0 | 8.186 | 2 | 33.918 | 8.397 | 32.174 | 2 |
| 2025-04-15T09:29:00 | 54.551196 | 7.514039 | 2.0 | 8.188 | 2 | 33.924 | 8.405 | 32.173 | 2 |
| 2025-04-15T09:30:00 | 54.549530 | 7.514457 | 2.0 | 8.179 | 2 | 33.930 | 8.403 | 32.181 | 2 |
| 2025-04-15T09:31:00 | 54.547696 | 7.515007 | 2.0 | 8.183 | 2 | 33.930 | 8.396 | 32.188 | 2 |
| 2025-04-15T09:32:00 | 54.545835 | 7.515866 | 2.0 | 8.188 | 2 | 33.918 | 8.394 | 32.177 | 2 |
| 2025-04-15T09:33:00 | 54.543922 | 7.516775 | 2.0 | 8.164 | 2 | 33.901 | 8.383 | 32.169 | 2 |
| 2025-04-15T09:34:00 | 54.542042 | 7.517727 | 2.0 | 8.132 | 2 | 33.894 | 8.355 | 32.187 | 2 |
| 2025-04-15T09:35:00 | 54.540287 | 7.518608 | 2.0 | 8.128 | 2 | 33.899 | 8.326 | 32.219 | 2 |
| 2025-04-15T09:36:00 | 54.538632 | 7.519444 | 2.0 | 8.135 | 2 | 33.893 | 8.321 | 32.217 | 2 |
| 2025-04-15T09:37:00 | 54.537009 | 7.520266 | 2.0 | 8.137 | 2 | 33.876 | 8.328 | 32.193 | 2 |
| 2025-04-15T09:38:00 | 54.535471 | 7.521065 | 2.0 | 8.132 | 2 | 33.857 | 8.323 | 32.178 | 2 |
| 2025-04-15T09:39:00 | 54.534020 | 7.521807 | 2.0 | 8.114 | 2 | 33.836 | 8.317 | 32.161 | 2 |
| 2025-04-15T09:40:00 | 54.532598 | 7.522534 | 2.0 | 8.099 | 2 | 33.826 | 8.299 | 32.167 | 2 |
| 2025-04-15T09:41:00 | 54.531214 | 7.523242 | 2.0 | 8.084 | 2 | 33.828 | 8.282 | 32.185 | 2 |
| 2025-04-15T09:42:00 | 54.530204 | 7.523039 | 2.0 | 8.084 | 2 | 33.828 | 8.274 | 32.192 | 2 |
| 2025-04-15T09:43:00 | 54.529539 | 7.521646 | 2.0 | 8.073 | 2 | 33.812 | 8.261 | 32.187 | 2 |
| 2025-04-15T09:44:00 | 54.529022 | 7.519454 | 2.0 | 8.087 | 2 | 33.815 | 8.263 | 32.188 | 2 |
| 2025-04-15T09:45:00 | 54.528587 | 7.517188 | 2.0 | 8.086 | 2 | 33.819 | 8.271 | 32.185 | 2 |
| 2025-04-15T09:46:00 | 54.528177 | 7.515011 | 2.0 | 8.086 | 2 | 33.824 | 8.270 | 32.191 | 2 |
| 2025-04-15T09:47:00 | 54.527929 | 7.512869 | 2.0 | 8.087 | 2 | 33.819 | 8.269 | 32.187 | 2 |
| 2025-04-15T09:48:00 | 54.527923 | 7.510726 | 2.0 | 8.109 | 2 | 33.812 | 8.275 | 32.174 | 2 |
| 2025-04-15T09:49:00 | 54.527924 | 7.508568 | 2.0 | 8.124 | 2 | 33.821 | 8.294 | 32.166 | 2 |
| 2025-04-15T09:50:00 | 54.527922 | 7.506418 | 2.0 | 8.123 | 2 | 33.836 | 8.303 | 32.174 | 2 |
| 2025-04-15T09:51:00 | 54.527930 | 7.504302 | 2.0 | 8.150 | 2 | 33.843 | 8.304 | 32.180 | 2 |
| 2025-04-15T09:52:00 | 54.528432 | 7.503832 | 2.0 | 8.142 | 2 | 33.834 | 8.341 | 32.137 | 2 |
| 2025-04-15T09:53:00 | 54.528760 | 7.504437 | 2.0 | 8.130 | 2 | 33.859 | 8.320 | 32.182 | 2 |
| 2025-04-15T09:54:00 | 54.528926 | 7.505000 | 2.0 | 8.143 | 2 | 33.864 | 8.312 | 32.195 | 2 |
| 2025-04-15T09:55:00 | 54.529066 | 7.505633 | 2.0 | 8.141 | 2 | 33.870 | 8.323 | 32.191 | 2 |
| 2025-04-15T09:56:00 | 54.529057 | 7.506317 | 2.0 | 8.127 | 2 | 33.870 | 8.319 | 32.195 | 2 |
| 2025-04-15T09:57:00 | 54.528898 | 7.506971 | 2.0 | 8.151 | 2 | 33.866 | 8.309 | 32.200 | 2 |
| 2025-04-15T09:58:00 | 54.528638 | 7.507522 | 2.0 | 8.148 | 2 | 33.877 | 8.328 | 32.194 | 2 |
| 2025-04-15T09:59:00 | 54.528348 | 7.507983 | 2.0 | 8.190 | 2 | 33.866 | 8.339 | 32.172 | 2 |
| 2025-04-15T10:00:00 | 54.528124 | 7.508622 | 2.0 | 8.189 | 2 | 33.848 | 8.364 | 32.131 | 2 |
| 2025-04-15T10:01:00 | 54.527954 | 7.509188 | 2.0 | 8.196 | 2 | 33.837 | 8.372 | 32.112 | 2 |
| 2025-04-15T10:02:00 | 54.527852 | 7.509584 | 2.0 | 8.192 | 2 | 33.828 | 8.372 | 32.102 | 2 |
| 2025-04-15T10:03:00 | 54.527855 | 7.509893 | 2.0 | 8.191 | 2 | 33.828 | 8.371 | 32.103 | 2 |
| 2025-04-15T10:04:00 | 54.527957 | 7.510227 | 2.0 | 8.181 | 2 | 33.827 | 8.370 | 32.103 | 2 |
| 2025-04-15T10:05:00 | 54.528145 | 7.510612 | 2.0 | 8.172 | 2 | 33.827 | 8.356 | 32.116 | 2 |
| 2025-04-15T10:06:00 | 54.528356 | 7.511087 | 2.0 | 8.173 | 2 | 33.829 | 8.351 | 32.122 | 2 |
| 2025-04-15T10:07:00 | 54.528473 | 7.511499 | 2.0 | 8.189 | 2 | 33.826 | 8.354 | 32.117 | 2 |
| 2025-04-15T10:08:00 | 54.528518 | 7.511896 | 2.0 | 8.220 | 2 | 33.819 | 8.374 | 32.091 | 2 |
| 2025-04-15T10:09:00 | 54.528498 | 7.512260 | 2.0 | 8.184 | 2 | 33.803 | 8.393 | 32.057 | 2 |
| 2025-04-15T10:10:00 | 54.528453 | 7.512588 | 2.0 | 8.220 | 2 | 33.763 | 8.363 | 32.042 | 2 |
| 2025-04-15T10:11:00 | 54.528358 | 7.512973 | 2.0 | 8.237 | 2 | 33.709 | 8.399 | 31.953 | 2 |
| 2025-04-15T10:12:00 | 54.528266 | 7.513347 | 2.0 | 8.241 | 2 | 33.809 | 8.413 | 32.045 | 2 |
| 2025-04-15T10:13:00 | 54.528190 | 7.513750 | 2.0 | 8.235 | 2 | 33.681 | 8.417 | 31.907 | 2 |
| 2025-04-15T10:14:00 | 54.528179 | 7.514045 | 2.0 | 8.230 | 2 | 33.788 | 8.410 | 32.026 | 2 |
| 2025-04-15T10:15:00 | 54.528218 | 7.514240 | 2.0 | 8.204 | 2 | 33.696 | 8.402 | 31.936 | 2 |
| 2025-04-15T10:16:00 | 54.528297 | 7.514384 | 2.0 | 8.219 | 2 | 33.812 | 8.382 | 32.076 | 2 |
| 2025-04-15T10:17:00 | 54.528487 | 7.514532 | 2.0 | 8.229 | 2 | 33.800 | 8.399 | 32.048 | 2 |
| 2025-04-15T10:18:00 | 54.528694 | 7.514735 | 2.0 | 8.236 | 2 | 33.643 | 8.405 | 31.878 | 2 |
| 2025-04-15T10:19:00 | 54.528918 | 7.514930 | 2.0 | 8.238 | 2 | 33.369 | 8.411 | 31.585 | 2 |
| 2025-04-15T10:20:00 | 54.529206 | 7.515274 | 2.0 | 8.240 | 2 | 33.807 | 8.414 | 32.042 | 2 |
| 2025-04-15T10:21:00 | 54.529399 | 7.515840 | 2.0 | 8.240 | 2 | 33.565 | 8.417 | 31.785 | 2 |
| 2025-04-15T10:22:00 | 54.528976 | 7.516304 | 2.0 | 8.213 | 2 | 33.807 | 8.410 | 32.046 | 2 |
| 2025-04-15T10:23:00 | 54.528606 | 7.514614 | 2.0 | 8.200 | 2 | 33.574 | 8.385 | 31.823 | 2 |
| 2025-04-15T10:24:00 | 54.528672 | 7.511784 | 2.0 | 8.198 | 2 | 33.796 | 8.388 | 32.054 | 2 |
| 2025-04-15T10:25:00 | 54.529079 | 7.508597 | 2.0 | 8.208 | 2 | 33.814 | 8.397 | 32.065 | 2 |
| 2025-04-15T10:26:00 | 54.529431 | 7.505630 | 2.0 | 8.228 | 2 | 33.826 | 8.411 | 32.065 | 2 |
| 2025-04-15T10:27:00 | 54.530285 | 7.503630 | 2.0 | 8.217 | 2 | 33.842 | 8.422 | 32.071 | 2 |
| 2025-04-15T10:28:00 | 54.531357 | 7.503754 | 2.0 | 8.210 | 2 | 33.844 | 8.415 | 32.080 | 2 |
| 2025-04-15T10:29:00 | 54.531880 | 7.504834 | 2.0 | 8.207 | 2 | 33.835 | 8.411 | 32.074 | 2 |
| 2025-04-15T10:30:00 | 54.531882 | 7.505870 | 2.0 | 8.210 | 2 | 33.829 | 8.409 | 32.070 | 2 |
| 2025-04-15T10:31:00 | 54.531722 | 7.506632 | 2.0 | 8.227 | 2 | 33.834 | 8.414 | 32.070 | 2 |
| 2025-04-15T10:32:00 | 54.531494 | 7.507202 | 2.0 | 8.227 | 2 | 33.844 | 8.425 | 32.071 | 2 |
| 2025-04-15T10:33:00 | 54.531437 | 7.507250 | 2.0 | 8.237 | 2 | 33.852 | 8.429 | 32.076 | 2 |
| 2025-04-15T10:34:00 | 54.531324 | 7.507249 | 2.0 | 8.237 | 2 | 33.862 | 8.440 | 32.076 | 2 |
| 2025-04-15T10:35:00 | 54.531377 | 7.507159 | 2.0 | 8.238 | 2 | 33.868 | 8.444 | 32.079 | 2 |
| 2025-04-15T10:36:00 | 54.531328 | 7.507125 | 2.0 | 8.214 | 2 | 33.874 | 8.439 | 32.090 | 2 |
| 2025-04-15T10:37:00 | 54.531286 | 7.507085 | 2.0 | 8.242 | 2 | 33.869 | 8.432 | 32.091 | 2 |
| 2025-04-15T10:38:00 | 54.531379 | 7.507054 | 2.0 | 8.255 | 2 | 33.877 | 8.452 | 32.081 | 2 |
| 2025-04-15T10:39:00 | 54.531298 | 7.506935 | 2.0 | 8.259 | 2 | 33.890 | 8.467 | 32.081 | 2 |
| 2025-04-15T10:40:00 | 54.531319 | 7.506822 | 2.0 | 8.264 | 2 | 33.897 | 8.470 | 32.086 | 2 |
| 2025-04-15T10:41:00 | 54.531424 | 7.506728 | 2.0 | 8.268 | 2 | 33.905 | 8.477 | 32.088 | 2 |
| 2025-04-15T10:42:00 | 54.531429 | 7.506585 | 2.0 | 8.269 | 2 | 33.912 | 8.484 | 32.089 | 2 |
| 2025-04-15T10:43:00 | 54.531385 | 7.506555 | 2.0 | 8.290 | 2 | 33.918 | 8.492 | 32.088 | 2 |
| 2025-04-15T10:44:00 | 54.531261 | 7.506836 | 2.0 | 8.293 | 2 | 33.935 | 8.509 | 32.090 | 2 |
| 2025-04-15T10:45:00 | 54.531148 | 7.506972 | 2.0 | 8.297 | 2 | 33.939 | 8.511 | 32.092 | 2 |
| 2025-04-15T10:46:00 | 54.530896 | 7.507183 | 2.0 | 8.299 | 2 | 33.944 | 8.513 | 32.096 | 2 |
| 2025-04-15T10:47:00 | 54.530647 | 7.506389 | 2.0 | 8.278 | 2 | 33.944 | 8.507 | 32.101 | 2 |
| 2025-04-15T10:48:00 | 54.531538 | 7.506382 | 2.0 | 8.286 | 2 | 33.937 | 8.499 | 32.101 | 2 |
| 2025-04-15T10:49:00 | 54.532441 | 7.508432 | 2.0 | 8.283 | 2 | 33.938 | 8.505 | 32.097 | 2 |
| 2025-04-15T10:50:00 | 54.532914 | 7.511473 | 2.0 | 8.273 | 2 | 33.926 | 8.498 | 32.091 | 2 |
| 2025-04-15T10:51:00 | 54.532522 | 7.513798 | 2.0 | 8.239 | 2 | 33.913 | 8.491 | 32.083 | 2 |
| 2025-04-15T10:52:00 | 54.531703 | 7.513863 | 2.0 | 8.208 | 2 | 33.920 | 8.449 | 32.129 | 2 |
| 2025-04-15T10:53:00 | 54.531533 | 7.513255 | 2.0 | 8.222 | 2 | 33.929 | 8.430 | 32.156 | 2 |
| 2025-04-15T10:54:00 | 54.531613 | 7.512612 | 2.0 | 8.244 | 2 | 33.922 | 8.444 | 32.136 | 2 |
| 2025-04-15T10:55:00 | 54.531672 | 7.511749 | 2.0 | 8.248 | 2 | 33.933 | 8.461 | 32.132 | 2 |
| 2025-04-15T10:56:00 | 54.531688 | 7.511196 | 2.0 | 8.304 | 2 | 33.942 | 8.471 | 32.132 | 2 |
| 2025-04-15T10:57:00 | 54.531755 | 7.510938 | 2.0 | 8.256 | 2 | 33.954 | 8.517 | 32.103 | 2 |
| 2025-04-15T10:58:00 | 54.531784 | 7.510904 | 2.0 | 8.237 | 2 | 33.978 | 8.465 | 32.175 | 2 |
| 2025-04-15T10:59:00 | 54.531888 | 7.509960 | 2.0 | 8.296 | 2 | 33.963 | 8.474 | 32.151 | 2 |
| 2025-04-15T11:00:00 | 54.532072 | 7.509642 | 2.0 | 8.305 | 2 | 33.958 | 8.505 | 32.118 | 2 |
| 2025-04-15T11:01:00 | 54.532415 | 7.509602 | 2.0 | 8.334 | 2 | 33.971 | 8.527 | 32.111 | 2 |
| 2025-04-15T11:02:00 | 54.533322 | 7.509619 | 2.0 | 8.343 | 2 | 33.989 | 8.556 | 32.104 | 2 |
| 2025-04-15T11:03:00 | 54.534582 | 7.509150 | 2.0 | 8.412 | 2 | 33.648 | 8.576 | 31.729 | 2 |
| 2025-04-15T11:04:00 | 54.536013 | 7.508286 | 2.0 | 8.455 | 2 | 34.034 | 8.638 | 32.076 | 2 |
| 2025-04-15T11:05:00 | 54.537559 | 7.507320 | 2.0 | 8.504 | 2 | 34.058 | 8.687 | 32.057 | 2 |
| 2025-04-15T11:06:00 | 54.538226 | 7.505895 | 2.0 | 8.528 | 2 | 34.114 | 8.729 | 32.078 | 2 |
| 2025-04-15T11:07:00 | 54.538570 | 7.504488 | 2.0 | 8.535 | 2 | 34.111 | 8.742 | 32.063 | 2 |
| 2025-04-15T11:08:00 | 54.538846 | 7.503296 | 2.0 | 8.533 | 2 | 34.179 | 8.754 | 32.123 | 2 |
| 2025-04-15T11:09:00 | 54.538983 | 7.502434 | 2.0 | 8.540 | 2 | 34.196 | 8.751 | 32.143 | 2 |
| 2025-04-15T11:10:00 | 54.539049 | 7.501989 | 2.0 | 8.536 | 2 | 34.208 | 8.761 | 32.147 | 2 |
| 2025-04-15T11:11:00 | 54.539138 | 7.502080 | 2.0 | 8.551 | 2 | 34.216 | 8.760 | 32.156 | 2 |
| 2025-04-15T11:12:00 | 54.539160 | 7.501986 | 2.0 | 8.537 | 2 | 34.057 | 8.752 | 31.997 | 2 |
| 2025-04-15T11:13:00 | 54.539084 | 7.501906 | 2.0 | 8.551 | 2 | 34.231 | 8.769 | 32.163 | 2 |
| 2025-04-15T11:14:00 | 54.539044 | 7.501565 | 2.0 | 8.560 | 2 | 34.234 | 8.772 | 32.164 | 2 |
| 2025-04-15T11:15:00 | 54.539058 | 7.501576 | 2.0 | 8.549 | 2 | 33.912 | 8.777 | 31.824 | 2 |
| 2025-04-15T11:16:00 | 54.538950 | 7.501374 | 2.0 | 8.578 | 2 | 34.248 | 8.781 | 32.170 | 2 |
| 2025-04-15T11:17:00 | 54.538937 | 7.501025 | 2.0 | 8.564 | 2 | 34.171 | 8.796 | 32.076 | 2 |
| 2025-04-15T11:18:00 | 54.539215 | 7.500566 | 2.0 | 8.550 | 2 | 34.028 | 8.787 | 31.935 | 2 |
| 2025-04-15T11:19:00 | 54.540142 | 7.501123 | 2.0 | 8.532 | 2 | 34.068 | 8.770 | 31.992 | 2 |
| 2025-04-15T11:20:00 | 54.541455 | 7.502505 | 2.0 | 8.522 | 2 | 34.274 | 8.756 | 32.220 | 2 |
| 2025-04-15T11:21:00 | 54.543278 | 7.504323 | 2.0 | 8.524 | 2 | 34.193 | 8.749 | 32.142 | 2 |
| 2025-04-15T11:22:00 | 54.545339 | 7.506363 | 2.0 | 8.524 | 2 | 34.253 | 8.751 | 32.203 | 2 |
| 2025-04-15T11:23:00 | 54.547479 | 7.508407 | 2.0 | 8.519 | 2 | 34.042 | 8.752 | 31.982 | 2 |
| 2025-04-15T11:24:00 | 54.549457 | 7.510056 | 2.0 | 8.497 | 2 | 33.886 | 8.739 | 31.831 | 2 |
| 2025-04-15T11:25:00 | 54.550926 | 7.510748 | 2.0 | 8.478 | 2 | 33.973 | 8.719 | 31.939 | 2 |
| 2025-04-15T11:26:00 | 54.551344 | 7.509884 | 2.0 | 8.481 | 2 | 34.360 | 8.706 | 32.355 | 2 |
| 2025-04-15T11:27:00 | 54.551418 | 7.508877 | 2.0 | 8.481 | 2 | 34.097 | 8.707 | 32.080 | 2 |
| 2025-04-15T11:28:00 | 54.551490 | 7.507732 | 2.0 | 8.465 | 2 | 34.299 | 8.703 | 32.294 | 2 |
| 2025-04-15T11:29:00 | 54.551531 | 7.506553 | 2.0 | 8.415 | 2 | 34.111 | 8.680 | 32.119 | 2 |
| 2025-04-15T11:30:00 | 54.551620 | 7.505934 | 2.0 | 8.300 | 2 | 34.298 | 8.596 | 32.391 | 2 |
| 2025-04-15T11:31:00 | 54.551628 | 7.505773 | 2.0 | 8.126 | 2 | 34.105 | 8.484 | 32.291 | 2 |
| 2025-04-15T11:32:00 | 54.551615 | 7.505749 | 2.0 | 8.386 | 2 | 34.400 | 8.383 | 32.695 | 2 |
| 2025-04-15T11:33:00 | 54.551632 | 7.505267 | 2.0 | 8.461 | 2 | 34.337 | 8.623 | 32.407 | 2 |
| 2025-04-15T11:34:00 | 54.551616 | 7.504326 | 2.0 | 8.460 | 2 | 34.070 | 8.683 | 32.073 | 2 |
| 2025-04-15T11:35:00 | 54.551541 | 7.502944 | 2.0 | 8.466 | 2 | 34.511 | 8.688 | 32.530 | 2 |
| 2025-04-15T11:36:00 | 54.551476 | 7.501640 | 2.0 | 8.447 | 2 | 34.523 | 8.680 | 32.550 | 2 |
| 2025-04-15T11:37:00 | 54.551473 | 7.500690 | 2.0 | 8.451 | 2 | 34.366 | 8.668 | 32.396 | 2 |
| 2025-04-15T11:38:00 | 54.551505 | 7.500465 | 2.0 | 8.470 | 2 | 34.291 | 8.679 | 32.308 | 2 |
| 2025-04-15T11:39:00 | 54.551567 | 7.500047 | 2.0 | 8.467 | 2 | 34.349 | 8.686 | 32.362 | 2 |
| 2025-04-15T11:40:00 | 54.551606 | 7.499902 | 2.0 | 8.456 | 2 | 34.299 | 8.688 | 32.308 | 2 |
| 2025-04-15T11:41:00 | 54.551630 | 7.499566 | 2.0 | 8.460 | 2 | 34.288 | 8.686 | 32.298 | 2 |
| 2025-04-15T11:42:00 | 54.551624 | 7.498996 | 2.0 | 8.454 | 2 | 34.484 | 8.689 | 32.501 | 2 |
| 2025-04-15T11:43:00 | 54.551592 | 7.498237 | 2.0 | 8.453 | 2 | 34.443 | 8.679 | 32.467 | 2 |
| 2025-04-15T11:44:00 | 54.551548 | 7.497341 | 2.0 | 8.446 | 2 | 34.602 | 8.675 | 32.637 | 2 |
| 2025-04-15T11:45:00 | 54.551480 | 7.496345 | 2.0 | 8.439 | 2 | 34.591 | 8.672 | 32.628 | 2 |
| 2025-04-15T11:46:00 | 54.551420 | 7.495284 | 2.0 | 8.435 | 2 | 34.464 | 8.671 | 32.496 | 2 |
| 2025-04-15T11:47:00 | 54.551458 | 7.493823 | 2.0 | 8.439 | 2 | 34.438 | 8.657 | 32.482 | 2 |
| 2025-04-15T11:48:00 | 54.551838 | 7.491509 | 2.0 | 8.429 | 2 | 34.463 | 8.651 | 32.514 | 2 |
| 2025-04-15T11:49:00 | 54.552325 | 7.488686 | 2.0 | 8.368 | 2 | 34.522 | 8.625 | 32.599 | 2 |
| 2025-04-15T11:50:00 | 54.553212 | 7.485908 | 2.0 | 8.330 | 2 | 34.459 | 8.569 | 32.585 | 2 |
| 2025-04-15T11:51:00 | 54.554306 | 7.483144 | 2.0 | 8.290 | 2 | 34.509 | 8.523 | 32.680 | 2 |
| 2025-04-15T11:52:00 | 54.555419 | 7.480311 | 2.0 | 8.275 | 2 | 34.486 | 8.496 | 32.681 | 2 |
| 2025-04-15T11:53:00 | 54.556742 | 7.477770 | 2.0 | 8.224 | 2 | 34.512 | 8.465 | 32.737 | 2 |
| 2025-04-15T11:54:00 | 54.558141 | 7.475243 | 2.0 | 8.212 | 2 | 34.479 | 8.425 | 32.739 | 2 |
| 2025-04-15T11:55:00 | 54.559570 | 7.472626 | 2.0 | 8.156 | 2 | 34.356 | 8.411 | 32.623 | 2 |
| 2025-04-15T11:56:00 | 54.561015 | 7.469974 | 2.0 | 8.164 | 2 | 34.484 | 8.355 | 32.810 | 2 |
| 2025-04-15T11:57:00 | 54.562669 | 7.466900 | 2.0 | 8.203 | 2 | 34.465 | 8.370 | 32.776 | 2 |
| 2025-04-15T11:58:00 | 54.564553 | 7.463390 | 2.0 | 8.253 | 2 | 34.436 | 8.403 | 32.714 | 2 |
| 2025-04-15T11:59:00 | 54.566519 | 7.459772 | 2.0 | 8.337 | 2 | 34.413 | 8.459 | 32.638 | 2 |
| 2025-04-15T12:00:00 | 54.568518 | 7.456106 | 2.0 | 8.428 | 2 | 34.433 | 8.545 | 32.580 | 2 |
| 2025-04-15T12:01:00 | 54.570518 | 7.452416 | 2.0 | 8.459 | 2 | 34.504 | 8.622 | 32.583 | 2 |
| 2025-04-15T12:02:00 | 54.572535 | 7.448702 | 2.0 | 8.445 | 2 | 34.520 | 8.651 | 32.573 | 2 |
| 2025-04-15T12:03:00 | 54.574536 | 7.445014 | 2.0 | 8.433 | 2 | 34.526 | 8.641 | 32.589 | 2 |
| 2025-04-15T12:04:00 | 54.576541 | 7.441281 | 2.0 | 8.409 | 2 | 34.546 | 8.619 | 32.630 | 2 |
| 2025-04-15T12:05:00 | 54.578544 | 7.437560 | 2.0 | 8.388 | 2 | 34.593 | 8.598 | 32.699 | 2 |
| 2025-04-15T12:06:00 | 54.580549 | 7.433821 | 2.0 | 8.387 | 2 | 34.716 | 8.579 | 32.846 | 2 |
| 2025-04-15T12:07:00 | 54.582558 | 7.430071 | 2.0 | 8.398 | 2 | 34.735 | 8.582 | 32.863 | 2 |
| 2025-04-15T12:08:00 | 54.584575 | 7.426306 | 2.0 | 8.395 | 2 | 34.753 | 8.590 | 32.874 | 2 |
| 2025-04-15T12:09:00 | 54.586594 | 7.422513 | 2.0 | 8.343 | 2 | 34.767 | 8.573 | 32.905 | 2 |
| 2025-04-15T12:10:00 | 54.588602 | 7.418718 | 2.0 | 8.362 | 2 | 34.757 | 8.542 | 32.923 | 2 |
| 2025-04-15T12:11:00 | 54.590493 | 7.414797 | 2.0 | 8.391 | 2 | 34.779 | 8.559 | 32.930 | 2 |
| 2025-04-15T12:12:00 | 54.592175 | 7.410621 | 2.0 | 8.398 | 2 | 34.810 | 8.582 | 32.942 | 2 |
| 2025-04-15T12:13:00 | 54.593881 | 7.406454 | 2.0 | 8.405 | 2 | 34.834 | 8.588 | 32.961 | 2 |
| 2025-04-15T12:14:00 | 54.595688 | 7.402382 | 2.0 | 8.412 | 2 | 34.852 | 8.595 | 32.974 | 2 |
| 2025-04-15T12:15:00 | 54.597527 | 7.398320 | 2.0 | 8.367 | 2 | 34.864 | 8.597 | 32.984 | 2 |
| 2025-04-15T12:16:00 | 54.599356 | 7.394275 | 2.0 | 8.316 | 2 | 34.857 | 8.548 | 33.023 | 2 |
| 2025-04-15T12:17:00 | 54.601185 | 7.390236 | 2.0 | 8.296 | 2 | 34.843 | 8.505 | 33.048 | 2 |
| 2025-04-15T12:18:00 | 54.603029 | 7.386189 | 2.0 | 8.291 | 2 | 34.843 | 8.489 | 33.063 | 2 |
| 2025-04-15T12:19:00 | 54.604867 | 7.382154 | 2.0 | 8.301 | 2 | 34.853 | 8.483 | 33.079 | 2 |
| 2025-04-15T12:20:00 | 54.606711 | 7.378136 | 2.0 | 8.261 | 2 | 34.873 | 8.483 | 33.101 | 2 |
| 2025-04-15T12:21:00 | 54.608550 | 7.374131 | 2.0 | 8.233 | 2 | 34.872 | 8.445 | 33.135 | 2 |
| 2025-04-15T12:22:00 | 54.610391 | 7.370119 | 2.0 | 8.224 | 2 | 34.869 | 8.423 | 33.153 | 2 |
| 2025-04-15T12:23:00 | 54.612225 | 7.366100 | 2.0 | 8.227 | 2 | 34.878 | 8.416 | 33.169 | 2 |
| 2025-04-15T12:24:00 | 54.613957 | 7.361967 | 2.0 | 8.246 | 2 | 34.891 | 8.417 | 33.182 | 2 |
| 2025-04-15T12:25:00 | 54.615680 | 7.357840 | 2.0 | 8.261 | 2 | 34.919 | 8.437 | 33.192 | 2 |
| 2025-04-15T12:26:00 | 54.617426 | 7.353671 | 2.0 | 8.265 | 2 | 34.933 | 8.451 | 33.194 | 2 |
| 2025-04-15T12:27:00 | 54.619165 | 7.349439 | 2.0 | 8.114 | 2 | 34.917 | 8.417 | 33.209 | 2 |
| 2025-04-15T12:28:00 | 54.620905 | 7.345158 | 2.0 | 7.848 | 2 | 34.821 | 8.265 | 33.251 | 2 |
| 2025-04-15T12:29:00 | 54.622682 | 7.340912 | 2.0 | 7.816 | 2 | 34.641 | 8.032 | 33.281 | 2 |
| 2025-04-15T12:30:00 | 54.624464 | 7.336697 | 2.0 | 7.858 | 2 | 34.588 | 8.016 | 33.239 | 2 |
| 2025-04-15T12:31:00 | 54.626270 | 7.332454 | 2.0 | 7.870 | 2 | 34.606 | 8.051 | 33.225 | 2 |
| 2025-04-15T12:32:00 | 54.628076 | 7.328233 | 2.0 | 7.884 | 2 | 34.621 | 8.065 | 33.228 | 2 |
| 2025-04-15T12:33:00 | 54.629886 | 7.324048 | 2.0 | 7.924 | 2 | 34.629 | 8.077 | 33.225 | 2 |
| 2025-04-15T12:34:00 | 54.631704 | 7.319867 | 2.0 | 7.993 | 2 | 34.659 | 8.122 | 33.214 | 2 |
| 2025-04-15T12:35:00 | 54.633528 | 7.315694 | 2.0 | 8.160 | 2 | 34.705 | 8.205 | 33.185 | 2 |
| 2025-04-15T12:36:00 | 54.635348 | 7.311549 | 2.0 | 8.207 | 2 | 34.774 | 8.338 | 33.132 | 2 |
| 2025-04-15T12:37:00 | 54.637152 | 7.307430 | 2.0 | 8.221 | 2 | 34.804 | 8.393 | 33.112 | 2 |
| 2025-04-15T12:38:00 | 54.638939 | 7.303299 | 2.0 | 8.252 | 2 | 34.803 | 8.409 | 33.096 | 2 |
| 2025-04-15T12:39:00 | 54.640717 | 7.299178 | 2.0 | 8.265 | 2 | 34.811 | 8.433 | 33.082 | 2 |
| 2025-04-15T12:40:00 | 54.642512 | 7.295033 | 2.0 | 8.263 | 2 | 34.816 | 8.444 | 33.077 | 2 |
| 2025-04-15T12:41:00 | 54.644309 | 7.290885 | 2.0 | 8.264 | 2 | 34.806 | 8.443 | 33.067 | 2 |
| 2025-04-15T12:42:00 | 54.646118 | 7.286730 | 2.0 | 8.277 | 2 | 34.801 | 8.450 | 33.056 | 2 |
| 2025-04-15T12:43:00 | 54.647939 | 7.282561 | 2.0 | 8.296 | 2 | 34.797 | 8.460 | 33.042 | 2 |
| 2025-04-15T12:44:00 | 54.649760 | 7.278374 | 2.0 | 8.332 | 2 | 34.801 | 8.482 | 33.026 | 2 |
| 2025-04-15T12:45:00 | 54.651584 | 7.274203 | 2.0 | 8.375 | 2 | 34.827 | 8.523 | 33.015 | 2 |
| 2025-04-15T12:46:00 | 54.653413 | 7.270021 | 2.0 | 8.402 | 2 | 34.855 | 8.558 | 33.011 | 2 |
| 2025-04-15T12:47:00 | 54.655247 | 7.265834 | 2.0 | 8.426 | 2 | 34.875 | 8.583 | 33.009 | 2 |
| 2025-04-15T12:48:00 | 54.657086 | 7.261619 | 2.0 | 8.444 | 2 | 34.903 | 8.611 | 33.012 | 2 |
| 2025-04-15T12:49:00 | 54.658936 | 7.257401 | 2.0 | 8.463 | 2 | 34.921 | 8.627 | 33.016 | 2 |
| 2025-04-15T12:50:00 | 54.660784 | 7.253181 | 2.0 | 8.477 | 2 | 34.468 | 8.646 | 32.523 | 2 |
| 2025-04-15T12:51:00 | 54.662619 | 7.248973 | 2.0 | 8.477 | 2 | 34.973 | 8.659 | 33.041 | 2 |
| 2025-04-15T12:52:00 | 54.664447 | 7.244723 | 2.0 | 8.508 | 2 | 34.983 | 8.667 | 33.044 | 2 |
| 2025-04-15T12:53:00 | 54.666270 | 7.240477 | 2.0 | 8.549 | 2 | 35.003 | 8.697 | 33.037 | 2 |
| 2025-04-15T12:54:00 | 54.668093 | 7.236206 | 2.0 | 8.520 | 2 | 35.039 | 8.725 | 33.048 | 2 |
| 2025-04-15T12:55:00 | 54.669926 | 7.231936 | 2.0 | 8.526 | 2 | 35.039 | 8.702 | 33.070 | 2 |
| 2025-04-15T12:56:00 | 54.671720 | 7.227743 | 2.0 | 8.542 | 2 | 35.043 | 8.709 | 33.068 | 2 |
| 2025-04-15T12:57:00 | 54.673204 | 7.224318 | 2.0 | 8.560 | 2 | 35.052 | 8.722 | 33.065 | 2 |
| 2025-04-15T12:58:00 | 54.674448 | 7.221439 | 2.0 | 8.563 | 2 | 35.063 | 8.737 | 33.062 | 2 |
| 2025-04-15T12:59:00 | 54.675570 | 7.218827 | 2.0 | 8.569 | 2 | 35.075 | 8.744 | 33.068 | 2 |
| 2025-04-15T13:00:00 | 54.676629 | 7.216341 | 2.0 | 8.566 | 2 | 35.091 | 8.752 | 33.078 | 2 |
| 2025-04-15T13:01:00 | 54.677813 | 7.214286 | 2.0 | 8.557 | 2 | 35.092 | 8.739 | 33.091 | 2 |
| 2025-04-15T13:02:00 | 54.679056 | 7.214141 | 2.0 | 8.577 | 2 | 35.099 | 8.741 | 33.096 | 2 |
| 2025-04-15T13:03:00 | 54.679782 | 7.214670 | 2.0 | 8.569 | 2 | 35.108 | 8.748 | 33.099 | 2 |
| 2025-04-15T13:04:00 | 54.680262 | 7.215099 | 2.0 | 8.562 | 2 | 35.103 | 8.744 | 33.098 | 2 |
| 2025-04-15T13:05:00 | 54.680660 | 7.215321 | 2.0 | 8.573 | 2 | 35.096 | 8.743 | 33.091 | 2 |
| 2025-04-15T13:06:00 | 54.680988 | 7.215379 | 2.0 | 8.582 | 2 | 35.099 | 8.751 | 33.087 | 2 |
| 2025-04-15T13:07:00 | 54.681283 | 7.215302 | 2.0 | 8.589 | 2 | 35.104 | 8.760 | 33.084 | 2 |
| 2025-04-15T13:08:00 | 54.681608 | 7.215120 | 2.0 | 8.594 | 2 | 35.109 | 8.766 | 33.083 | 2 |
| 2025-04-15T13:09:00 | 54.681889 | 7.214946 | 2.0 | 8.599 | 2 | 35.113 | 8.771 | 33.083 | 2 |
| 2025-04-15T13:10:00 | 54.682118 | 7.214625 | 2.0 | 8.601 | 2 | 35.117 | 8.776 | 33.082 | 2 |
| 2025-04-15T13:11:00 | 54.682398 | 7.214499 | 2.0 | 8.600 | 2 | 35.120 | 8.778 | 33.084 | 2 |
| 2025-04-15T13:12:00 | 54.682605 | 7.214225 | 2.0 | 8.603 | 2 | 35.121 | 8.779 | 33.084 | 2 |
| 2025-04-15T13:13:00 | 54.682771 | 7.213818 | 2.0 | 8.611 | 2 | 35.122 | 8.779 | 33.085 | 2 |
| 2025-04-15T13:14:00 | 54.682939 | 7.213393 | 2.0 | 8.602 | 2 | 35.130 | 8.787 | 33.086 | 2 |
| 2025-04-15T13:15:00 | 54.683098 | 7.212910 | 2.0 | 8.595 | 2 | 35.126 | 8.779 | 33.089 | 2 |
| 2025-04-15T13:16:00 | 54.683339 | 7.212499 | 2.0 | 8.600 | 2 | 35.119 | 8.769 | 33.091 | 2 |
| 2025-04-15T13:17:00 | 54.683670 | 7.212315 | 2.0 | 8.612 | 2 | 35.125 | 8.777 | 33.090 | 2 |
| 2025-04-15T13:18:00 | 54.683830 | 7.212430 | 2.0 | 8.612 | 2 | 35.135 | 8.788 | 33.090 | 2 |
| 2025-04-15T13:19:00 | 54.683931 | 7.212961 | 2.0 | 8.615 | 2 | 35.136 | 8.787 | 33.092 | 2 |
| 2025-04-15T13:20:00 | 54.684068 | 7.213588 | 2.0 | 8.609 | 2 | 35.140 | 8.790 | 33.093 | 2 |
| 2025-04-15T13:21:00 | 54.684199 | 7.214260 | 2.0 | 8.605 | 2 | 35.133 | 8.784 | 33.092 | 2 |
| 2025-04-15T13:22:00 | 54.684317 | 7.215678 | 2.0 | 8.610 | 2 | 35.126 | 8.784 | 33.084 | 2 |
| 2025-04-15T13:23:00 | 54.684678 | 7.217544 | 2.0 | 8.607 | 2 | 35.124 | 8.787 | 33.080 | 2 |
| 2025-04-15T13:24:00 | 54.684976 | 7.219457 | 2.0 | 8.604 | 2 | 35.108 | 8.785 | 33.065 | 2 |
| 2025-04-15T13:25:00 | 54.685219 | 7.221412 | 2.0 | 8.624 | 2 | 35.092 | 8.779 | 33.054 | 2 |
| 2025-04-15T13:26:00 | 54.685465 | 7.223374 | 2.0 | 8.602 | 2 | 35.102 | 8.798 | 33.046 | 2 |
| 2025-04-15T13:27:00 | 54.685949 | 7.225075 | 2.0 | 8.597 | 2 | 35.083 | 8.785 | 33.038 | 2 |
| 2025-04-15T13:28:00 | 54.686782 | 7.226464 | 2.0 | 8.585 | 2 | 35.062 | 8.776 | 33.025 | 2 |
| 2025-04-15T13:29:00 | 54.687550 | 7.228064 | 2.0 | 8.558 | 2 | 35.030 | 8.757 | 33.009 | 2 |
| 2025-04-15T13:30:00 | 54.688202 | 7.229814 | 2.0 | 8.553 | 2 | 34.999 | 8.735 | 32.997 | 2 |
| 2025-04-15T13:31:00 | 54.688850 | 7.231597 | 2.0 | 8.546 | 2 | 34.977 | 8.728 | 32.981 | 2 |
| 2025-04-15T13:32:00 | 54.689597 | 7.233309 | 2.0 | 8.551 | 2 | 34.957 | 8.724 | 32.963 | 2 |
| 2025-04-15T13:33:00 | 54.690297 | 7.235088 | 2.0 | 8.564 | 2 | 34.951 | 8.730 | 32.952 | 2 |
| 2025-04-15T13:34:00 | 54.691076 | 7.236839 | 2.0 | 8.548 | 2 | 34.944 | 8.735 | 32.940 | 2 |
| 2025-04-15T13:35:00 | 54.691831 | 7.238617 | 2.0 | 8.530 | 2 | 34.921 | 8.723 | 32.927 | 2 |
| 2025-04-15T13:36:00 | 54.692543 | 7.240405 | 2.0 | 8.449 | 2 | 34.885 | 8.682 | 32.927 | 2 |
| 2025-04-15T13:37:00 | 54.693249 | 7.242178 | 2.0 | 8.413 | 2 | 34.852 | 8.640 | 32.932 | 2 |
| 2025-04-15T13:38:00 | 54.694005 | 7.243909 | 2.0 | 8.418 | 2 | 34.813 | 8.588 | 32.939 | 2 |
| 2025-04-15T13:39:00 | 54.694790 | 7.245623 | 2.0 | 8.453 | 2 | 34.838 | 8.621 | 32.935 | 2 |
| 2025-04-15T13:40:00 | 54.695556 | 7.247351 | 2.0 | 8.389 | 2 | 34.839 | 8.608 | 32.948 | 2 |
| 2025-04-15T13:41:00 | 54.696289 | 7.249071 | 2.0 | 8.335 | 2 | 34.809 | 8.568 | 32.954 | 2 |
| 2025-04-15T13:42:00 | 54.696995 | 7.250778 | 2.0 | 8.257 | 2 | 34.767 | 8.493 | 32.979 | 2 |
| 2025-04-15T13:43:00 | 54.697686 | 7.252459 | 2.0 | 8.284 | 2 | 34.714 | 8.442 | 32.971 | 2 |
| 2025-04-15T13:44:00 | 54.698381 | 7.254139 | 2.0 | 8.307 | 2 | 34.724 | 8.469 | 32.957 | 2 |
| 2025-04-15T13:45:00 | 54.699103 | 7.255804 | 2.0 | 8.341 | 2 | 34.721 | 8.489 | 32.935 | 2 |
| 2025-04-15T13:46:00 | 54.699868 | 7.257454 | 2.0 | 8.347 | 2 | 34.723 | 8.520 | 32.908 | 2 |
| 2025-04-15T13:47:00 | 54.700647 | 7.259087 | 2.0 | 8.335 | 2 | 34.712 | 8.521 | 32.895 | 2 |
| 2025-04-15T13:48:00 | 54.701405 | 7.260745 | 2.0 | 8.343 | 2 | 34.687 | 8.511 | 32.878 | 2 |
| 2025-04-15T13:49:00 | 54.702165 | 7.262409 | 2.0 | 8.338 | 2 | 34.674 | 8.520 | 32.856 | 2 |
| 2025-04-15T13:50:00 | 54.702883 | 7.264085 | 2.0 | 8.355 | 2 | 34.660 | 8.515 | 32.846 | 2 |
| 2025-04-15T13:51:00 | 54.703646 | 7.265765 | 2.0 | 8.369 | 2 | 34.657 | 8.530 | 32.829 | 2 |
| 2025-04-15T13:52:00 | 54.704674 | 7.267037 | 2.0 | 8.379 | 2 | 34.655 | 8.543 | 32.815 | 2 |
| 2025-04-15T13:53:00 | 54.705978 | 7.267697 | 2.0 | 8.339 | 2 | 34.652 | 8.549 | 32.806 | 2 |
| 2025-04-15T13:54:00 | 54.707271 | 7.268337 | 2.0 | 8.347 | 2 | 34.635 | 8.522 | 32.813 | 2 |
| 2025-04-15T13:55:00 | 54.708464 | 7.269072 | 2.0 | 8.328 | 2 | 34.626 | 8.518 | 32.808 | 2 |
| 2025-04-15T13:56:00 | 54.709205 | 7.270408 | 2.0 | 8.319 | 2 | 34.610 | 8.505 | 32.803 | 2 |
| 2025-04-15T13:57:00 | 54.709181 | 7.272084 | 2.0 | 8.307 | 2 | 34.592 | 8.492 | 32.796 | 2 |
| 2025-04-15T13:58:00 | 54.708315 | 7.273354 | 2.0 | 8.324 | 2 | 34.582 | 8.488 | 32.789 | 2 |
| 2025-04-15T13:59:00 | 54.707027 | 7.273633 | 2.0 | 8.317 | 2 | 34.587 | 8.499 | 32.784 | 2 |
| 2025-04-15T14:00:00 | 54.705869 | 7.272541 | 2.0 | 8.341 | 2 | 34.591 | 8.498 | 32.789 | 2 |
| 2025-04-15T14:01:00 | 54.704912 | 7.270871 | 2.0 | 8.359 | 2 | 34.618 | 8.521 | 32.796 | 2 |
| 2025-04-15T14:02:00 | 54.704092 | 7.269109 | 2.0 | 8.357 | 2 | 34.633 | 8.534 | 32.800 | 2 |
| 2025-04-15T14:03:00 | 54.703401 | 7.267340 | 2.0 | 8.369 | 2 | 34.644 | 8.533 | 32.813 | 2 |
| 2025-04-15T14:04:00 | 54.702697 | 7.265770 | 2.0 | 8.368 | 2 | 34.665 | 8.549 | 32.820 | 2 |
| 2025-04-15T14:05:00 | 54.702031 | 7.264128 | 2.0 | 8.347 | 2 | 34.668 | 8.544 | 32.828 | 2 |
| 2025-04-15T14:06:00 | 54.701332 | 7.262463 | 2.0 | 8.366 | 2 | 34.665 | 8.529 | 32.838 | 2 |
| 2025-04-15T14:07:00 | 54.700596 | 7.260812 | 2.0 | 8.337 | 2 | 34.693 | 8.539 | 32.859 | 2 |
| 2025-04-15T14:08:00 | 54.699839 | 7.259167 | 2.0 | 8.313 | 2 | 34.698 | 8.512 | 32.889 | 2 |
| 2025-04-15T14:09:00 | 54.699076 | 7.257464 | 2.0 | 8.281 | 2 | 34.700 | 8.485 | 32.916 | 2 |
| 2025-04-15T14:10:00 | 54.698326 | 7.255713 | 2.0 | 8.285 | 2 | 34.693 | 8.458 | 32.934 | 2 |
| 2025-04-15T14:11:00 | 54.697587 | 7.253948 | 2.0 | 8.319 | 2 | 34.627 | 8.462 | 32.861 | 2 |
| 2025-04-15T14:12:00 | 54.696838 | 7.252176 | 2.0 | 8.427 | 2 | 34.762 | 8.513 | 32.955 | 2 |
| 2025-04-15T14:13:00 | 54.696092 | 7.250426 | 2.0 | 8.483 | 2 | 34.835 | 8.615 | 32.937 | 2 |
| 2025-04-15T14:14:00 | 54.695325 | 7.248732 | 2.0 | 8.478 | 2 | 34.829 | 8.652 | 32.896 | 2 |
| 2025-04-15T14:15:00 | 54.694561 | 7.247021 | 2.0 | 8.471 | 2 | 34.817 | 8.649 | 32.886 | 2 |
| 2025-04-15T14:16:00 | 54.693804 | 7.245282 | 2.0 | 8.460 | 2 | 34.823 | 8.645 | 32.897 | 2 |
| 2025-04-15T14:17:00 | 54.693053 | 7.243536 | 2.0 | 8.456 | 2 | 34.805 | 8.634 | 32.888 | 2 |
| 2025-04-15T14:18:00 | 54.692307 | 7.241769 | 2.0 | 8.493 | 2 | 34.838 | 8.637 | 32.920 | 2 |
| 2025-04-15T14:19:00 | 54.691547 | 7.240079 | 2.0 | 8.539 | 2 | 34.879 | 8.674 | 32.928 | 2 |
| 2025-04-15T14:20:00 | 54.690778 | 7.238404 | 2.0 | 8.590 | 2 | 34.928 | 8.715 | 32.941 | 2 |
| 2025-04-15T14:21:00 | 54.690018 | 7.236669 | 2.0 | 8.590 | 2 | 34.976 | 8.762 | 32.948 | 2 |
| 2025-04-15T14:22:00 | 54.689260 | 7.234900 | 2.0 | 8.571 | 2 | 34.971 | 8.756 | 32.948 | 2 |
| 2025-04-15T14:23:00 | 54.688504 | 7.233099 | 2.0 | 8.617 | 2 | 34.978 | 8.756 | 32.956 | 2 |
| 2025-04-15T14:24:00 | 54.687747 | 7.231301 | 2.0 | 8.616 | 2 | 35.012 | 8.786 | 32.963 | 2 |
| 2025-04-15T14:25:00 | 54.686982 | 7.229553 | 2.0 | 8.618 | 2 | 35.026 | 8.788 | 32.976 | 2 |
| 2025-04-15T14:26:00 | 54.686197 | 7.227859 | 2.0 | 8.628 | 2 | 35.041 | 8.787 | 32.993 | 2 |
| 2025-04-15T14:27:00 | 54.685423 | 7.226146 | 2.0 | 8.628 | 2 | 35.053 | 8.798 | 32.995 | 2 |
| 2025-04-15T14:28:00 | 54.684682 | 7.224369 | 2.0 | 8.629 | 2 | 35.078 | 8.811 | 33.009 | 2 |
| 2025-04-15T14:29:00 | 54.684380 | 7.222145 | 2.0 | 8.628 | 2 | 35.079 | 8.803 | 33.018 | 2 |
| 2025-04-15T14:30:00 | 54.684571 | 7.219667 | 2.0 | 8.631 | 2 | 34.960 | 8.800 | 32.896 | 2 |
| 2025-04-15T14:31:00 | 54.684536 | 7.217279 | 2.0 | 8.625 | 2 | 35.055 | 8.802 | 32.993 | 2 |
| 2025-04-15T14:32:00 | 54.683906 | 7.215861 | 2.0 | 8.616 | 2 | 34.999 | 8.801 | 32.936 | 2 |
| 2025-04-15T14:33:00 | 54.683038 | 7.215714 | 2.0 | 8.632 | 2 | 35.028 | 8.792 | 32.974 | 2 |
| 2025-04-15T14:34:00 | 54.682316 | 7.216734 | 2.0 | 8.637 | 2 | 35.061 | 8.800 | 33.001 | 2 |
| 2025-04-15T14:35:00 | 54.682013 | 7.218528 | 2.0 | 8.661 | 2 | 35.065 | 8.814 | 32.993 | 2 |
| 2025-04-15T14:36:00 | 54.682463 | 7.220324 | 2.0 | 8.649 | 2 | 35.080 | 8.829 | 32.994 | 2 |
| 2025-04-15T14:37:00 | 54.683145 | 7.222028 | 2.0 | 8.627 | 2 | 35.060 | 8.819 | 32.983 | 2 |
| 2025-04-15T14:38:00 | 54.683735 | 7.223803 | 2.0 | 8.627 | 2 | 35.051 | 8.804 | 32.987 | 2 |
| 2025-04-15T14:39:00 | 54.684425 | 7.225565 | 2.0 | 8.626 | 2 | 35.037 | 8.804 | 32.973 | 2 |
| 2025-04-15T14:40:00 | 54.685161 | 7.227329 | 2.0 | 8.632 | 2 | 35.028 | 8.799 | 32.968 | 2 |
| 2025-04-15T14:41:00 | 54.685894 | 7.229125 | 2.0 | 8.619 | 2 | 35.024 | 8.802 | 32.961 | 2 |
| 2025-04-15T14:42:00 | 54.686647 | 7.230935 | 2.0 | 8.589 | 2 | 35.017 | 8.790 | 32.965 | 2 |
| 2025-04-15T14:43:00 | 54.687426 | 7.232689 | 2.0 | 8.594 | 2 | 34.960 | 8.769 | 32.925 | 2 |
| 2025-04-15T14:44:00 | 54.688191 | 7.234384 | 2.0 | 8.566 | 2 | 34.992 | 8.765 | 32.962 | 2 |
| 2025-04-15T14:45:00 | 54.688949 | 7.236044 | 2.0 | 8.572 | 2 | 34.952 | 8.745 | 32.939 | 2 |
| 2025-04-15T14:46:00 | 54.689687 | 7.237682 | 2.0 | 8.564 | 2 | 34.956 | 8.742 | 32.946 | 2 |
| 2025-04-15T14:47:00 | 54.690402 | 7.239318 | 2.0 | 8.554 | 2 | 34.939 | 8.738 | 32.932 | 2 |
| 2025-04-15T14:48:00 | 54.691092 | 7.240960 | 2.0 | 8.558 | 2 | 34.925 | 8.729 | 32.925 | 2 |
| 2025-04-15T14:49:00 | 54.691786 | 7.242590 | 2.0 | 8.554 | 2 | 34.921 | 8.727 | 32.923 | 2 |
| 2025-04-15T14:50:00 | 54.692496 | 7.244203 | 2.0 | 8.546 | 2 | 34.928 | 8.728 | 32.929 | 2 |
| 2025-04-15T14:51:00 | 54.693218 | 7.245837 | 2.0 | 8.529 | 2 | 34.918 | 8.721 | 32.925 | 2 |
| 2025-04-15T14:52:00 | 54.693984 | 7.247564 | 2.0 | 8.521 | 2 | 34.907 | 8.704 | 32.930 | 2 |
| 2025-04-15T14:53:00 | 54.694761 | 7.249343 | 2.0 | 8.528 | 2 | 34.898 | 8.696 | 32.928 | 2 |
| 2025-04-15T14:54:00 | 54.695531 | 7.251098 | 2.0 | 8.519 | 2 | 34.909 | 8.700 | 32.935 | 2 |
| 2025-04-15T14:55:00 | 54.696276 | 7.252847 | 2.0 | 8.506 | 2 | 34.909 | 8.690 | 32.945 | 2 |
| 2025-04-15T14:56:00 | 54.697020 | 7.254590 | 2.0 | 8.487 | 2 | 34.909 | 8.676 | 32.958 | 2 |
| 2025-04-15T14:57:00 | 54.697772 | 7.256304 | 2.0 | 8.468 | 2 | 34.906 | 8.662 | 32.968 | 2 |
| 2025-04-15T14:58:00 | 54.698552 | 7.258001 | 2.0 | 8.374 | 2 | 34.895 | 8.630 | 32.986 | 2 |
| 2025-04-15T14:59:00 | 54.699340 | 7.259679 | 2.0 | 8.328 | 2 | 34.826 | 8.545 | 32.993 | 2 |
| 2025-04-15T15:00:00 | 54.700071 | 7.261358 | 2.0 | 8.312 | 2 | 34.762 | 8.500 | 32.968 | 2 |
| 2025-04-15T15:01:00 | 54.700779 | 7.263022 | 2.0 | 8.297 | 2 | 34.727 | 8.487 | 32.943 | 2 |
| 2025-04-15T15:02:00 | 54.701507 | 7.264689 | 2.0 | 8.294 | 2 | 34.697 | 8.473 | 32.924 | 2 |
| 2025-04-15T15:03:00 | 54.702234 | 7.266360 | 2.0 | 8.278 | 2 | 34.670 | 8.465 | 32.903 | 2 |
| 2025-04-15T15:04:00 | 54.703034 | 7.267954 | 2.0 | 8.288 | 2 | 34.641 | 8.456 | 32.881 | 2 |
| 2025-04-15T15:05:00 | 54.704105 | 7.269246 | 2.0 | 8.264 | 2 | 34.627 | 8.459 | 32.864 | 2 |
| 2025-04-15T15:06:00 | 54.705379 | 7.270153 | 2.0 | 8.255 | 2 | 34.587 | 8.438 | 32.841 | 2 |
| 2025-04-15T15:07:00 | 54.706636 | 7.271010 | 2.0 | 8.280 | 2 | 34.578 | 8.441 | 32.829 | 2 |
| 2025-04-15T15:08:00 | 54.707310 | 7.272470 | 2.0 | 8.293 | 2 | 34.582 | 8.458 | 32.817 | 2 |
| 2025-04-15T15:09:00 | 54.707125 | 7.274109 | 2.0 | 8.297 | 2 | 34.581 | 8.464 | 32.811 | 2 |
| 2025-04-15T15:10:00 | 54.706081 | 7.275244 | 2.0 | 8.281 | 2 | 34.583 | 8.469 | 32.808 | 2 |
| 2025-04-15T15:11:00 | 54.704666 | 7.274868 | 2.0 | 8.286 | 2 | 34.584 | 8.460 | 32.817 | 2 |
| 2025-04-15T15:12:00 | 54.703744 | 7.272931 | 2.0 | 8.254 | 2 | 34.591 | 8.455 | 32.829 | 2 |
| 2025-04-15T15:13:00 | 54.703004 | 7.271043 | 2.0 | 8.243 | 2 | 34.581 | 8.428 | 32.844 | 2 |
| 2025-04-15T15:14:00 | 54.702363 | 7.269283 | 2.0 | 8.246 | 2 | 34.583 | 8.417 | 32.856 | 2 |
| 2025-04-15T15:15:00 | 54.701761 | 7.267607 | 2.0 | 8.239 | 2 | 34.593 | 8.417 | 32.867 | 2 |
| 2025-04-15T15:16:00 | 54.701108 | 7.265996 | 2.0 | 8.269 | 2 | 34.604 | 8.417 | 32.879 | 2 |
| 2025-04-15T15:17:00 | 54.700465 | 7.264261 | 2.0 | 8.309 | 2 | 34.639 | 8.450 | 32.885 | 2 |
| 2025-04-15T15:18:00 | 54.699788 | 7.262520 | 2.0 | 8.323 | 2 | 34.684 | 8.487 | 32.898 | 2 |
| 2025-04-15T15:19:00 | 54.699078 | 7.260827 | 2.0 | 8.324 | 2 | 34.709 | 8.495 | 32.916 | 2 |
| 2025-04-15T15:20:00 | 54.698356 | 7.259213 | 2.0 | 8.318 | 2 | 34.731 | 8.498 | 32.937 | 2 |
| 2025-04-15T15:21:00 | 54.697614 | 7.257627 | 2.0 | 8.478 | 2 | 34.776 | 8.526 | 32.958 | 2 |
| 2025-04-15T15:22:00 | 54.696858 | 7.256098 | 2.0 | 8.487 | 2 | 34.904 | 8.635 | 32.991 | 2 |
| 2025-04-15T15:23:00 | 54.696101 | 7.254542 | 2.0 | 8.511 | 2 | 34.916 | 8.662 | 32.978 | 2 |
| 2025-04-15T15:24:00 | 54.695367 | 7.252893 | 2.0 | 8.492 | 2 | 34.914 | 8.677 | 32.962 | 2 |
| 2025-04-15T15:25:00 | 54.694656 | 7.251166 | 2.0 | 8.499 | 2 | 34.886 | 8.660 | 32.949 | 2 |
| 2025-04-15T15:26:00 | 54.693948 | 7.249403 | 2.0 | 8.506 | 2 | 34.889 | 8.674 | 32.939 | 2 |
| 2025-04-15T15:27:00 | 54.693217 | 7.247667 | 2.0 | 8.492 | 2 | 34.891 | 8.675 | 32.940 | 2 |
| 2025-04-15T15:28:00 | 54.692467 | 7.245943 | 2.0 | 8.537 | 2 | 34.890 | 8.673 | 32.941 | 2 |
| 2025-04-15T15:29:00 | 54.691714 | 7.244199 | 2.0 | 8.552 | 2 | 34.919 | 8.705 | 32.941 | 2 |
| 2025-04-15T15:30:00 | 54.690965 | 7.242455 | 2.0 | 8.583 | 2 | 34.938 | 8.726 | 32.942 | 2 |
| 2025-04-15T15:31:00 | 54.690196 | 7.240740 | 2.0 | 8.614 | 2 | 34.968 | 8.759 | 32.942 | 2 |
| 2025-04-15T15:32:00 | 54.689427 | 7.239027 | 2.0 | 8.618 | 2 | 34.996 | 8.785 | 32.947 | 2 |
| 2025-04-15T15:33:00 | 54.688656 | 7.237314 | 2.0 | 8.606 | 2 | 35.006 | 8.786 | 32.957 | 2 |
| 2025-04-15T15:34:00 | 54.687901 | 7.235558 | 2.0 | 8.599 | 2 | 35.005 | 8.777 | 32.964 | 2 |
| 2025-04-15T15:35:00 | 54.687159 | 7.233775 | 2.0 | 8.601 | 2 | 35.012 | 8.775 | 32.974 | 2 |
| 2025-04-15T15:36:00 | 54.686420 | 7.232020 | 2.0 | 8.590 | 2 | 35.018 | 8.769 | 32.985 | 2 |
| 2025-04-15T15:37:00 | 54.685658 | 7.230296 | 2.0 | 8.584 | 2 | 35.020 | 8.762 | 32.994 | 2 |
| 2025-04-15T15:38:00 | 54.684890 | 7.228589 | 2.0 | 8.579 | 2 | 35.025 | 8.756 | 33.005 | 2 |
| 2025-04-15T15:39:00 | 54.684110 | 7.226883 | 2.0 | 8.573 | 2 | 35.027 | 8.747 | 33.015 | 2 |
| 2025-04-15T15:40:00 | 54.683427 | 7.225016 | 2.0 | 8.562 | 2 | 35.032 | 8.745 | 33.022 | 2 |
| 2025-04-15T15:41:00 | 54.683288 | 7.222549 | 2.0 | 8.574 | 2 | 35.033 | 8.737 | 33.031 | 2 |
| 2025-04-15T15:42:00 | 54.683528 | 7.219919 | 2.0 | 8.562 | 2 | 35.044 | 8.743 | 33.037 | 2 |
| 2025-04-15T15:43:00 | 54.683319 | 7.217689 | 2.0 | 8.582 | 2 | 35.043 | 8.734 | 33.044 | 2 |
| 2025-04-15T15:44:00 | 54.682616 | 7.216607 | 2.0 | 8.614 | 2 | 35.063 | 8.756 | 33.045 | 2 |
| 2025-04-15T15:45:00 | 54.681761 | 7.216795 | 2.0 | 8.652 | 2 | 35.098 | 8.788 | 33.051 | 2 |
| 2025-04-15T15:46:00 | 54.681203 | 7.218093 | 2.0 | 8.662 | 2 | 35.141 | 8.824 | 33.063 | 2 |
| 2025-04-15T15:47:00 | 54.681278 | 7.220040 | 2.0 | 8.638 | 2 | 35.147 | 8.826 | 33.067 | 2 |
| 2025-04-15T15:48:00 | 54.681833 | 7.222066 | 2.0 | 8.596 | 2 | 35.114 | 8.799 | 33.058 | 2 |
| 2025-04-15T15:49:00 | 54.682353 | 7.223963 | 2.0 | 8.570 | 2 | 35.069 | 8.764 | 33.043 | 2 |
| 2025-04-15T15:50:00 | 54.682916 | 7.225668 | 2.0 | 8.543 | 2 | 35.041 | 8.741 | 33.036 | 2 |
| 2025-04-15T15:51:00 | 54.683549 | 7.227331 | 2.0 | 8.554 | 2 | 35.012 | 8.718 | 33.027 | 2 |
| 2025-04-15T15:52:00 | 54.684216 | 7.228989 | 2.0 | 8.556 | 2 | 35.009 | 8.727 | 33.015 | 2 |
| 2025-04-15T15:53:00 | 54.684905 | 7.230678 | 2.0 | 8.551 | 2 | 35.007 | 8.729 | 33.011 | 2 |
| 2025-04-15T15:54:00 | 54.685617 | 7.232372 | 2.0 | 8.555 | 2 | 34.994 | 8.722 | 33.004 | 2 |
| 2025-04-15T15:55:00 | 54.686343 | 7.234075 | 2.0 | 8.551 | 2 | 34.991 | 8.726 | 32.997 | 2 |
| 2025-04-15T15:56:00 | 54.687084 | 7.235777 | 2.0 | 8.548 | 2 | 34.977 | 8.722 | 32.986 | 2 |
| 2025-04-15T15:57:00 | 54.687851 | 7.237507 | 2.0 | 8.538 | 2 | 34.964 | 8.719 | 32.975 | 2 |
| 2025-04-15T15:58:00 | 54.688615 | 7.239263 | 2.0 | 8.524 | 2 | 34.946 | 8.707 | 32.968 | 2 |
| 2025-04-15T15:59:00 | 54.689412 | 7.241002 | 2.0 | 8.518 | 2 | 34.925 | 8.698 | 32.954 | 2 |
| 2025-04-15T16:00:00 | 54.690205 | 7.242743 | 2.0 | 8.471 | 2 | 34.923 | 8.684 | 32.965 | 2 |
| 2025-04-15T16:01:00 | 54.690955 | 7.244508 | 2.0 | 8.456 | 2 | 34.893 | 8.646 | 32.969 | 2 |
| 2025-04-15T16:02:00 | 54.691689 | 7.246259 | 2.0 | 8.452 | 2 | 34.880 | 8.632 | 32.968 | 2 |
| 2025-04-15T16:03:00 | 54.692419 | 7.247995 | 2.0 | 8.412 | 2 | 34.874 | 8.612 | 32.981 | 2 |
| 2025-04-15T16:04:00 | 54.693178 | 7.249701 | 2.0 | 8.410 | 2 | 34.864 | 8.599 | 32.982 | 2 |
| 2025-04-15T16:05:00 | 54.693984 | 7.251373 | 2.0 | 8.271 | 2 | 34.881 | 8.566 | 33.031 | 2 |
| 2025-04-15T16:06:00 | 54.694770 | 7.253070 | 2.0 | 8.165 | 2 | 34.753 | 8.423 | 33.030 | 2 |
| 2025-04-15T16:07:00 | 54.695489 | 7.254766 | 2.0 | 8.130 | 2 | 34.669 | 8.342 | 33.018 | 2 |
| 2025-04-15T16:08:00 | 54.696213 | 7.256494 | 2.0 | 8.109 | 2 | 34.616 | 8.303 | 32.998 | 2 |
| 2025-04-15T16:09:00 | 54.696932 | 7.258226 | 2.0 | 8.078 | 2 | 34.575 | 8.283 | 32.973 | 2 |
| 2025-04-15T16:10:00 | 54.697648 | 7.259949 | 2.0 | 8.068 | 2 | 34.452 | 8.255 | 32.869 | 2 |
| 2025-04-15T16:11:00 | 54.698379 | 7.261656 | 2.0 | 8.079 | 2 | 34.517 | 8.248 | 32.945 | 2 |
| 2025-04-15T16:12:00 | 54.699128 | 7.263335 | 2.0 | 8.057 | 2 | 34.508 | 8.249 | 32.934 | 2 |
| 2025-04-15T16:13:00 | 54.699884 | 7.265050 | 2.0 | 8.083 | 2 | 34.491 | 8.236 | 32.928 | 2 |
| 2025-04-15T16:14:00 | 54.700646 | 7.266762 | 2.0 | 8.100 | 2 | 34.497 | 8.258 | 32.914 | 2 |
| 2025-04-15T16:15:00 | 54.701416 | 7.268451 | 2.0 | 8.130 | 2 | 34.493 | 8.284 | 32.886 | 2 |
| 2025-04-15T16:16:00 | 54.702487 | 7.269683 | 2.0 | 8.107 | 2 | 34.468 | 8.297 | 32.847 | 2 |
| 2025-04-15T16:17:00 | 54.703906 | 7.270209 | 2.0 | 8.105 | 2 | 34.443 | 8.282 | 32.835 | 2 |
| 2025-04-15T16:18:00 | 54.705099 | 7.271162 | 2.0 | 8.097 | 2 | 34.426 | 8.279 | 32.819 | 2 |
| 2025-04-15T16:19:00 | 54.705410 | 7.272800 | 2.0 | 8.085 | 2 | 34.411 | 8.270 | 32.812 | 2 |
| 2025-04-15T16:20:00 | 54.704709 | 7.274279 | 2.0 | 8.061 | 2 | 34.403 | 8.257 | 32.816 | 2 |
| 2025-04-15T16:21:00 | 54.703470 | 7.274679 | 2.0 | 8.029 | 2 | 34.386 | 8.233 | 32.820 | 2 |
| 2025-04-15T16:22:00 | 54.702392 | 7.273462 | 2.0 | 8.019 | 2 | 34.360 | 8.203 | 32.821 | 2 |
| 2025-04-15T16:23:00 | 54.701708 | 7.271535 | 2.0 | 8.028 | 2 | 34.364 | 8.196 | 32.831 | 2 |
| 2025-04-15T16:24:00 | 54.701075 | 7.269736 | 2.0 | 8.041 | 2 | 34.385 | 8.206 | 32.844 | 2 |
| 2025-04-15T16:25:00 | 54.700383 | 7.268175 | 2.0 | 8.036 | 2 | 34.405 | 8.214 | 32.858 | 2 |
| 2025-04-15T16:26:00 | 54.699716 | 7.266586 | 2.0 | 8.033 | 2 | 34.404 | 8.208 | 32.862 | 2 |
| 2025-04-15T16:27:00 | 54.699070 | 7.264954 | 2.0 | 8.046 | 2 | 34.406 | 8.209 | 32.864 | 2 |
| 2025-04-15T16:28:00 | 54.698410 | 7.263371 | 2.0 | 8.053 | 2 | 34.430 | 8.221 | 32.878 | 2 |
| 2025-04-15T16:29:00 | 54.697722 | 7.261848 | 2.0 | 8.073 | 2 | 34.456 | 8.229 | 32.898 | 2 |
| 2025-04-15T16:30:00 | 54.697030 | 7.260368 | 2.0 | 8.077 | 2 | 34.504 | 8.248 | 32.931 | 2 |
| 2025-04-15T16:31:00 | 54.696337 | 7.258901 | 2.0 | 8.063 | 2 | 34.530 | 8.246 | 32.960 | 2 |
| 2025-04-15T16:32:00 | 54.695649 | 7.257365 | 2.0 | 8.062 | 2 | 34.529 | 8.234 | 32.971 | 2 |
| 2025-04-15T16:33:00 | 54.694968 | 7.255721 | 2.0 | 8.066 | 2 | 34.531 | 8.237 | 32.970 | 2 |
| 2025-04-15T16:34:00 | 54.694289 | 7.254060 | 2.0 | 8.022 | 2 | 34.542 | 8.231 | 32.987 | 2 |
| 2025-04-15T16:35:00 | 54.693566 | 7.252447 | 2.0 | 8.007 | 2 | 34.546 | 8.192 | 33.028 | 2 |
| 2025-04-15T16:36:00 | 54.692819 | 7.250854 | 2.0 | 8.027 | 2 | 34.554 | 8.185 | 33.043 | 2 |
| 2025-04-15T16:37:00 | 54.692069 | 7.249263 | 2.0 | 8.079 | 2 | 34.583 | 8.211 | 33.050 | 2 |
| 2025-04-15T16:38:00 | 54.691324 | 7.247630 | 2.0 | 8.088 | 2 | 34.616 | 8.252 | 33.046 | 2 |
| 2025-04-15T16:39:00 | 54.690608 | 7.245915 | 2.0 | 8.090 | 2 | 34.624 | 8.260 | 33.047 | 2 |
| 2025-04-15T16:40:00 | 54.689901 | 7.244182 | 2.0 | 8.093 | 2 | 34.628 | 8.262 | 33.049 | 2 |
| 2025-04-15T16:41:00 | 54.689196 | 7.242441 | 2.0 | 8.125 | 2 | 34.633 | 8.272 | 33.045 | 2 |
| 2025-04-15T16:42:00 | 54.688466 | 7.240753 | 2.0 | 8.335 | 2 | 34.704 | 8.340 | 33.056 | 2 |
| 2025-04-15T16:43:00 | 54.687703 | 7.239178 | 2.0 | 8.347 | 2 | 34.849 | 8.495 | 33.064 | 2 |
| 2025-04-15T16:44:00 | 54.686951 | 7.237582 | 2.0 | 8.387 | 2 | 34.875 | 8.521 | 33.067 | 2 |
| 2025-04-15T16:45:00 | 54.686220 | 7.235950 | 2.0 | 8.412 | 2 | 34.900 | 8.562 | 33.055 | 2 |
| 2025-04-15T16:46:00 | 54.685490 | 7.234302 | 2.0 | 8.369 | 2 | 34.900 | 8.573 | 33.045 | 2 |
| 2025-04-15T16:47:00 | 54.684768 | 7.232623 | 2.0 | 8.339 | 2 | 34.851 | 8.531 | 33.032 | 2 |
| 2025-04-15T16:48:00 | 54.684053 | 7.230912 | 2.0 | 8.423 | 2 | 34.842 | 8.530 | 33.024 | 2 |
| 2025-04-15T16:49:00 | 54.683331 | 7.229204 | 2.0 | 8.441 | 2 | 34.905 | 8.590 | 33.034 | 2 |
| 2025-04-15T16:50:00 | 54.682603 | 7.227527 | 2.0 | 8.444 | 2 | 34.922 | 8.615 | 33.028 | 2 |
| 2025-04-15T16:51:00 | 54.682084 | 7.225531 | 2.0 | 8.426 | 2 | 34.907 | 8.612 | 33.015 | 2 |
| 2025-04-15T16:52:00 | 54.682085 | 7.223217 | 2.0 | 8.415 | 2 | 34.890 | 8.595 | 33.014 | 2 |
| 2025-04-15T16:53:00 | 54.682225 | 7.220853 | 2.0 | 8.432 | 2 | 34.881 | 8.587 | 33.012 | 2 |
| 2025-04-15T16:54:00 | 54.681827 | 7.218872 | 2.0 | 8.448 | 2 | 34.900 | 8.604 | 33.016 | 2 |
| 2025-04-15T16:55:00 | 54.680983 | 7.218085 | 2.0 | 8.461 | 2 | 34.922 | 8.621 | 33.023 | 2 |
| 2025-04-15T16:56:00 | 54.680204 | 7.218688 | 2.0 | 8.460 | 2 | 34.936 | 8.629 | 33.030 | 2 |
| 2025-04-15T16:57:00 | 54.679886 | 7.220370 | 2.0 | 8.435 | 2 | 34.935 | 8.627 | 33.031 | 2 |
| 2025-04-15T16:58:00 | 54.680212 | 7.222181 | 2.0 | 8.409 | 2 | 34.909 | 8.602 | 33.027 | 2 |
| 2025-04-15T16:59:00 | 54.680771 | 7.223952 | 2.0 | 8.410 | 2 | 34.883 | 8.581 | 33.019 | 2 |
| 2025-04-15T17:00:00 | 54.681325 | 7.225799 | 2.0 | 8.418 | 2 | 34.881 | 8.582 | 33.016 | 2 |
| 2025-04-15T17:01:00 | 54.681948 | 7.227627 | 2.0 | 8.460 | 2 | 34.900 | 8.598 | 33.021 | 2 |
| 2025-04-15T17:02:00 | 54.682701 | 7.229320 | 2.0 | 8.440 | 2 | 34.933 | 8.625 | 33.031 | 2 |
| 2025-04-15T17:03:00 | 54.683420 | 7.231018 | 2.0 | 8.422 | 2 | 34.863 | 8.607 | 32.974 | 2 |
| 2025-04-15T17:04:00 | 54.684123 | 7.232697 | 2.0 | 8.386 | 2 | 34.900 | 8.587 | 33.032 | 2 |
| 2025-04-15T17:05:00 | 54.684840 | 7.234342 | 2.0 | 8.332 | 2 | 34.883 | 8.547 | 33.051 | 2 |
| 2025-04-15T17:06:00 | 54.685570 | 7.235944 | 2.0 | 8.199 | 2 | 34.838 | 8.492 | 33.055 | 2 |
| 2025-04-15T17:07:00 | 54.686282 | 7.237567 | 2.0 | 8.070 | 2 | 34.737 | 8.339 | 33.092 | 2 |
| 2025-04-15T17:08:00 | 54.687004 | 7.239207 | 2.0 | 7.991 | 2 | 34.660 | 8.239 | 33.105 | 2 |
| 2025-04-15T17:09:00 | 54.687720 | 7.240859 | 2.0 | 7.967 | 2 | 34.576 | 8.171 | 33.080 | 2 |
| 2025-04-15T17:10:00 | 54.688419 | 7.242516 | 2.0 | 7.954 | 2 | 34.537 | 8.146 | 33.062 | 2 |
| 2025-04-15T17:11:00 | 54.689108 | 7.244198 | 2.0 | 7.921 | 2 | 34.486 | 8.126 | 33.027 | 2 |
| 2025-04-15T17:12:00 | 54.689807 | 7.245893 | 2.0 | 7.906 | 2 | 34.476 | 8.096 | 33.044 | 2 |
| 2025-04-15T17:13:00 | 54.690552 | 7.247566 | 2.0 | 7.913 | 2 | 34.469 | 8.082 | 33.050 | 2 |
| 2025-04-15T17:14:00 | 54.691312 | 7.249243 | 2.0 | 7.899 | 2 | 34.481 | 8.089 | 33.056 | 2 |
| 2025-04-15T17:15:00 | 54.692083 | 7.250902 | 2.0 | 7.889 | 2 | 34.479 | 8.066 | 33.076 | 2 |
| 2025-04-15T17:16:00 | 54.692900 | 7.252492 | 2.0 | 7.949 | 2 | 34.471 | 8.083 | 33.051 | 2 |
| 2025-04-15T17:17:00 | 54.693659 | 7.254076 | 2.0 | 7.915 | 2 | 34.477 | 8.115 | 33.027 | 2 |
| 2025-04-15T17:18:00 | 54.694293 | 7.255684 | 2.0 | 7.888 | 2 | 34.443 | 8.085 | 33.019 | 2 |
| 2025-04-15T17:19:00 | 54.694936 | 7.257258 | 2.0 | 7.884 | 2 | 34.417 | 8.063 | 33.013 | 2 |
| 2025-04-15T17:20:00 | 54.695656 | 7.258848 | 2.0 | 7.870 | 2 | 34.406 | 8.060 | 33.004 | 2 |
| 2025-04-15T17:21:00 | 54.696395 | 7.260467 | 2.0 | 7.855 | 2 | 34.379 | 8.040 | 32.994 | 2 |
| 2025-04-15T17:22:00 | 54.697124 | 7.262115 | 2.0 | 7.846 | 2 | 34.355 | 8.032 | 32.976 | 2 |
| 2025-04-15T17:23:00 | 54.697804 | 7.263806 | 2.0 | 7.824 | 2 | 34.336 | 8.017 | 32.970 | 2 |
| 2025-04-15T17:24:00 | 54.698468 | 7.265491 | 2.0 | 7.795 | 2 | 34.302 | 7.995 | 32.954 | 2 |
| 2025-04-15T17:25:00 | 54.699165 | 7.267143 | 2.0 | 7.804 | 2 | 34.263 | 7.970 | 32.936 | 2 |
| 2025-04-15T17:26:00 | 54.699880 | 7.268780 | 2.0 | 7.814 | 2 | 34.272 | 7.982 | 32.934 | 2 |
| 2025-04-15T17:27:00 | 54.700600 | 7.270280 | 2.0 | 7.826 | 2 | 34.282 | 7.996 | 32.932 | 2 |
| 2025-04-15T17:28:00 | 54.701593 | 7.271594 | 2.0 | 7.750 | 2 | 34.265 | 7.986 | 32.923 | 2 |
| 2025-04-15T17:29:00 | 54.702841 | 7.272588 | 2.0 | 7.706 | 2 | 34.192 | 7.918 | 32.909 | 2 |
| 2025-04-15T17:30:00 | 54.704265 | 7.273311 | 2.0 | 7.765 | 2 | 34.150 | 7.886 | 32.894 | 2 |
| 2025-04-15T17:31:00 | 54.705117 | 7.274723 | 2.0 | 7.841 | 2 | 34.210 | 7.956 | 32.893 | 2 |
| 2025-04-15T17:32:00 | 54.704653 | 7.276237 | 2.0 | 7.830 | 2 | 34.273 | 8.012 | 32.907 | 2 |
| 2025-04-15T17:33:00 | 54.703263 | 7.276194 | 2.0 | 7.743 | 2 | 34.257 | 7.986 | 32.915 | 2 |
| 2025-04-15T17:34:00 | 54.702022 | 7.274623 | 2.0 | 7.738 | 2 | 34.190 | 7.918 | 32.907 | 2 |
| 2025-04-15T17:35:00 | 54.700978 | 7.272993 | 2.0 | 7.757 | 2 | 34.191 | 7.914 | 32.912 | 2 |
| 2025-04-15T17:36:00 | 54.700030 | 7.271395 | 2.0 | 7.795 | 2 | 34.226 | 7.941 | 32.924 | 2 |
| 2025-04-15T17:37:00 | 54.699232 | 7.269586 | 2.0 | 7.771 | 2 | 34.263 | 7.961 | 32.945 | 2 |
| 2025-04-15T17:38:00 | 54.698515 | 7.267630 | 2.0 | 7.778 | 2 | 34.261 | 7.947 | 32.956 | 2 |
| 2025-04-15T17:39:00 | 54.697802 | 7.265690 | 2.0 | 7.789 | 2 | 34.277 | 7.954 | 32.966 | 2 |
| 2025-04-15T17:40:00 | 54.697044 | 7.263905 | 2.0 | 7.786 | 2 | 34.298 | 7.961 | 32.982 | 2 |
| 2025-04-15T17:41:00 | 54.696274 | 7.262210 | 2.0 | 7.794 | 2 | 34.310 | 7.960 | 32.996 | 2 |
| 2025-04-15T17:42:00 | 54.695511 | 7.260534 | 2.0 | 7.806 | 2 | 34.322 | 7.969 | 33.000 | 2 |
| 2025-04-15T17:43:00 | 54.694752 | 7.258855 | 2.0 | 7.807 | 2 | 34.343 | 7.980 | 33.012 | 2 |
| 2025-04-15T17:44:00 | 54.694000 | 7.257212 | 2.0 | 7.798 | 2 | 34.361 | 7.978 | 33.033 | 2 |
| 2025-04-15T17:45:00 | 54.693245 | 7.255574 | 2.0 | 7.793 | 2 | 34.363 | 7.972 | 33.041 | 2 |
| 2025-04-15T17:46:00 | 54.692484 | 7.253850 | 2.0 | 7.797 | 2 | 34.358 | 7.967 | 33.040 | 2 |
| 2025-04-15T17:47:00 | 54.691732 | 7.252039 | 2.0 | 7.821 | 2 | 34.365 | 7.972 | 33.043 | 2 |
| 2025-04-15T17:48:00 | 54.690987 | 7.250161 | 2.0 | 7.870 | 2 | 34.403 | 8.000 | 33.057 | 2 |
| 2025-04-15T17:49:00 | 54.690223 | 7.248351 | 2.0 | 8.005 | 2 | 34.483 | 8.064 | 33.082 | 2 |
| 2025-04-15T17:50:00 | 54.689409 | 7.246646 | 2.0 | 8.077 | 2 | 34.657 | 8.192 | 33.146 | 2 |
| 2025-04-15T17:51:00 | 54.688563 | 7.245038 | 2.0 | 7.882 | 2 | 34.730 | 8.217 | 33.200 | 2 |
| 2025-04-15T17:52:00 | 54.687721 | 7.243392 | 2.0 | 7.775 | 2 | 34.538 | 8.022 | 33.180 | 2 |
| 2025-04-15T17:53:00 | 54.686933 | 7.241586 | 2.0 | 7.742 | 2 | 34.424 | 7.949 | 33.128 | 2 |
| 2025-04-15T17:54:00 | 54.686217 | 7.239601 | 2.0 | 7.751 | 2 | 34.377 | 7.919 | 33.106 | 2 |
| 2025-04-15T17:55:00 | 54.685475 | 7.237614 | 2.0 | 7.798 | 2 | 33.789 | 7.930 | 32.468 | 2 |
| 2025-04-15T17:56:00 | 54.684668 | 7.235735 | 2.0 | 8.111 | 2 | 34.057 | 8.023 | 32.667 | 2 |
| 2025-04-15T17:57:00 | 54.683836 | 7.233968 | 2.0 | 8.067 | 2 | 34.426 | 8.235 | 32.861 | 2 |
| 2025-04-15T17:58:00 | 54.682986 | 7.232241 | 2.0 | 8.269 | 2 | 34.559 | 8.281 | 32.958 | 2 |
| 2025-04-15T17:59:00 | 54.682146 | 7.230474 | 2.0 | 8.325 | 2 | 34.118 | 8.429 | 32.355 | 2 |
| 2025-04-15T18:00:00 | 54.681315 | 7.228674 | 2.0 | 8.375 | 2 | 34.535 | 8.496 | 32.732 | 2 |
| 2025-04-15T18:01:00 | 54.680510 | 7.226862 | 2.0 | 8.415 | 2 | 34.795 | 8.547 | 32.958 | 2 |
| 2025-04-15T18:02:00 | 54.679851 | 7.224863 | 2.0 | 8.426 | 2 | 34.889 | 8.580 | 33.026 | 2 |
| 2025-04-15T18:03:00 | 54.679718 | 7.222435 | 2.0 | 8.450 | 2 | 34.859 | 8.598 | 32.978 | 2 |
| 2025-04-15T18:04:00 | 54.679977 | 7.219871 | 2.0 | 8.466 | 2 | 34.759 | 8.618 | 32.854 | 2 |
| 2025-04-15T18:05:00 | 54.679729 | 7.217471 | 2.0 | 8.469 | 2 | 34.719 | 8.632 | 32.799 | 2 |
| 2025-04-15T18:06:00 | 54.678813 | 7.216516 | 2.0 | 8.456 | 2 | 34.983 | 8.631 | 33.078 | 2 |
| 2025-04-15T18:07:00 | 54.677846 | 7.217139 | 2.0 | 8.448 | 2 | 34.974 | 8.622 | 33.077 | 2 |
| 2025-04-15T18:08:00 | 54.677401 | 7.218974 | 2.0 | 8.440 | 2 | 34.968 | 8.613 | 33.079 | 2 |
| 2025-04-15T18:09:00 | 54.677621 | 7.221265 | 2.0 | 8.432 | 2 | 34.971 | 8.609 | 33.086 | 2 |
| 2025-04-15T18:10:00 | 54.678376 | 7.223154 | 2.0 | 8.413 | 2 | 34.971 | 8.599 | 33.095 | 2 |
| 2025-04-15T18:11:00 | 54.678951 | 7.224894 | 2.0 | 8.392 | 2 | 34.961 | 8.579 | 33.103 | 2 |
| 2025-04-15T18:12:00 | 54.679585 | 7.226503 | 2.0 | 8.370 | 2 | 34.948 | 8.558 | 33.109 | 2 |
| 2025-04-15T18:13:00 | 54.680285 | 7.228081 | 2.0 | 8.333 | 2 | 34.933 | 8.532 | 33.118 | 2 |
| 2025-04-15T18:14:00 | 54.681029 | 7.229692 | 2.0 | 8.286 | 2 | 34.909 | 8.499 | 33.123 | 2 |
| 2025-04-15T18:15:00 | 54.681759 | 7.231364 | 2.0 | 8.196 | 2 | 34.871 | 8.439 | 33.140 | 2 |
| 2025-04-15T18:16:00 | 54.682449 | 7.233087 | 2.0 | 8.164 | 2 | 34.811 | 8.364 | 33.147 | 2 |
| 2025-04-15T18:17:00 | 54.683188 | 7.234791 | 2.0 | 8.145 | 2 | 34.781 | 8.331 | 33.146 | 2 |
| 2025-04-15T18:18:00 | 54.683983 | 7.236460 | 2.0 | 8.199 | 2 | 34.787 | 8.339 | 33.145 | 2 |
| 2025-04-15T18:19:00 | 54.684778 | 7.238146 | 2.0 | 8.262 | 2 | 34.824 | 8.377 | 33.149 | 2 |
Only the first 2000 rows were shown. To view the complete dataset, download it as tab-delimited text. You can still view the full matrix in your browser, but be aware that this may crash the browser due to the huge size.
